Provisional Data: South Branch Codorus Creek near Leader Heights, PA


Please select a monitoring station.
Please select start date.
Please select start date.

Toggle Unit: C/F Toggle Unit: C/F
Sample Time Temperature (C) Temperature (F) Specific Conductivity (mS/cm) pH   Turbidity (NTU+) DO (mg/L)
12/11/2021 12:00:00 AM 6.04 42.872 0.259 7.45 0.53 11.3
12/11/2021 12:15:00 AM 6.05 42.89 0.259 7.45 0.51 11.29
12/11/2021 12:30:00 AM 6.06 42.908 0.258 7.43 0.96 11.27
12/11/2021 12:45:00 AM 6.07 42.926 0.258 7.44 1.11 11.24
12/11/2021 1:00:00 AM 6.09 42.962 0.257 7.43 2.78 11.25
12/11/2021 1:15:00 AM 6.1 42.98 0.257 7.43 0.78 11.24
12/11/2021 1:30:00 AM 6.11 42.998 0.258 7.43 1.33 11.2
12/11/2021 1:45:00 AM 6.13 43.034 0.259 7.43 1.17 11.19
12/11/2021 2:00:00 AM 6.15 43.07 0.259 7.43 1.16 11.17
12/11/2021 2:15:00 AM 6.16 43.088 0.26 7.43 0.65 11.16
12/11/2021 2:30:00 AM 6.17 43.106 0.259 7.42 2.27 11.15
12/11/2021 2:45:00 AM 6.17 43.106 0.259 7.42 0.85 11.14
12/11/2021 3:00:00 AM 6.18 43.124 0.259 7.42 0.66 11.13
12/11/2021 3:15:00 AM 6.18 43.124 0.258 7.42 0.8 11.11
12/11/2021 3:30:00 AM 6.19 43.142 0.258 7.42 1.01 11.11
12/11/2021 3:45:00 AM 6.2 43.16 0.258 7.42 0.52 11.09
12/11/2021 4:00:00 AM 6.21 43.178 0.259 7.42 1.14 11.08
12/11/2021 4:15:00 AM 6.23 43.214 0.26 7.41 2.65 11.07
12/11/2021 4:30:00 AM 6.24 43.232 0.26 7.41 0.51 11.04
12/11/2021 4:45:00 AM 6.25 43.25 0.26 7.41 0.91 11.04
12/11/2021 5:00:00 AM 6.26 43.268 0.259 7.41 0.85 11.04
12/11/2021 5:15:00 AM 6.26 43.268 0.259 7.4 0.86 11.02
12/11/2021 5:30:00 AM 6.27 43.286 0.258 7.4 0.98 11
12/11/2021 5:45:00 AM 6.28 43.304 0.258 7.39 1.17 10.99
12/11/2021 6:00:00 AM 6.28 43.304 0.258 7.4 0.94 10.99
12/11/2021 6:15:00 AM 6.3 43.34 0.258 7.39 1.89 10.98
12/11/2021 6:30:00 AM 6.31 43.358 0.259 7.39 1.56 10.96
12/11/2021 6:45:00 AM 6.33 43.394 0.259 7.4 1.05 10.95
12/11/2021 7:00:00 AM 6.35 43.43 0.26 7.4 1.07 10.93
12/11/2021 7:15:00 AM 6.36 43.448 0.26 7.39 1.13 10.93
12/11/2021 7:30:00 AM 6.38 43.484 0.259 7.39 0.55 10.93
12/11/2021 7:45:00 AM 6.4 43.52 0.259 7.39 0.81 10.93
12/11/2021 8:00:00 AM 6.42 43.556 0.259 7.38 0.8 10.94
12/11/2021 8:15:00 AM 6.45 43.61 0.258 7.39 0.67 10.98
12/11/2021 8:30:00 AM 6.48 43.664 0.258 7.39 0.74 11.04
12/11/2021 8:45:00 AM 6.51 43.718 0.259 7.39 0.68 11.13
12/11/2021 9:00:00 AM 6.55 43.79 0.259 7.41 0.59 11.2
12/11/2021 9:15:00 AM 6.59 43.862 0.259 7.41 0.39 11.26
12/11/2021 9:30:00 AM 6.64 43.952 0.259 7.43 0.46 11.33
12/11/2021 9:45:00 AM 6.71 44.078 0.258 7.44 0.55 11.46
12/11/2021 10:00:00 AM 6.76 44.168 0.258 7.45 1.11 11.59
12/11/2021 10:15:00 AM 6.84 44.312 0.258 7.46 0.35 11.75
12/11/2021 10:30:00 AM 6.92 44.456 0.257 7.5 0.59 11.93
12/11/2021 10:45:00 AM 7 44.6 0.257 7.52 1.77 12.09
12/11/2021 11:00:00 AM 7.08 44.744 0.257 7.56 0.18 12.27
12/11/2021 11:15:00 AM 7.18 44.924 0.257 7.6 1.12 12.49
12/11/2021 11:30:00 AM 7.29 45.122 0.257 7.64 1.01 12.68
12/11/2021 11:45:00 AM 7.4 45.32 0.257 7.69 2.34 12.87
12/11/2021 12:00:00 PM 7.52 45.536 0.256 7.73 0.89 13.02
12/11/2021 12:15:00 PM 7.61 45.698 0.256 7.79 1.04 13.14
12/11/2021 12:30:00 PM 7.68 45.824 0.256 7.84 0.67 13.18
12/11/2021 12:45:00 PM 7.75 45.95 0.255 7.89 20.14 13.19
12/11/2021 1:00:00 PM 7.81 46.058 0.255 7.93 1.18 13.25
12/11/2021 1:15:00 PM 7.9 46.22 0.255 7.97 1.07 13.25
12/11/2021 1:30:00 PM 7.98 46.364 0.255 8.01 0.91 13.25
12/11/2021 1:45:00 PM 8.04 46.472 0.255 8.03 0.5 13.15
12/11/2021 2:00:00 PM 8.1 46.58 0.256 8.04 0.74 12.99
12/11/2021 2:15:00 PM 8.14 46.652 0.256 8.04 1.61 12.78
12/11/2021 2:30:00 PM 8.17 46.706 0.256 8.02 0.78 12.54
12/11/2021 2:45:00 PM 8.21 46.778 0.256 8 1.02 12.34
12/11/2021 3:00:00 PM 8.24 46.832 0.256 7.97 0.99 12.27
12/11/2021 3:15:00 PM 8.28 46.904 0.255 7.95 0.82 12.21
12/11/2021 3:30:00 PM 8.3 46.94 0.255 7.92 0.83 12.15
12/11/2021 3:45:00 PM 8.32 46.976 0.256 7.91 0.68 12.06
12/11/2021 4:00:00 PM 8.36 47.048 0.256 7.88 0.67 11.96
12/11/2021 4:15:00 PM 8.38 47.084 0.257 7.86 1.23 11.82
12/11/2021 4:30:00 PM 8.41 47.138 0.258 7.83 1.01 11.63
12/11/2021 4:45:00 PM 8.43 47.174 0.258 7.79 0.93 11.45
12/11/2021 5:00:00 PM 8.43 47.174 0.258 7.75 0.98 11.3
12/11/2021 5:15:00 PM 8.41 47.138 0.257 7.72 1.2 11.16
12/11/2021 5:30:00 PM 8.39 47.102 0.257 7.68 1.51 11.04
12/11/2021 5:45:00 PM 8.39 47.102 0.257 7.65 1.59 10.94
12/11/2021 6:00:00 PM 8.41 47.138 0.257 7.62 1.59 10.85
12/11/2021 6:15:00 PM 8.41 47.138 0.257 7.59 2.04 10.78
12/11/2021 6:30:00 PM 8.44 47.192 0.258 7.57 1.31 10.69
12/11/2021 6:45:00 PM 8.46 47.228 0.259 7.56 1.13 10.65
12/11/2021 7:00:00 PM 8.48 47.264 0.259 7.53 2.63 10.59
12/11/2021 7:15:00 PM 8.47 47.246 0.259 7.52 1.22 10.55
12/11/2021 7:30:00 PM 8.47 47.246 0.258 7.5 1.08 10.51
12/11/2021 7:45:00 PM 8.48 47.264 0.258 7.53 1.27 10.48
12/11/2021 8:00:00 PM 8.52 47.336 0.256 7.48 1.76 10.45
12/11/2021 8:15:00 PM 8.49 47.282 0.256 7.46 1.9 10.42
12/11/2021 8:30:00 PM 8.49 47.282 0.255 7.46 1.72 10.41
12/11/2021 8:45:00 PM 8.45 47.21 0.256 7.45 1.52 10.39
12/11/2021 9:00:00 PM 8.43 47.174 0.257 7.44 1.69 10.37
12/11/2021 9:15:00 PM 8.41 47.138 0.258 7.44 2.51 10.36
12/11/2021 9:30:00 PM 8.38 47.084 0.258 7.43 1.15 10.36
12/11/2021 9:45:00 PM 8.33 46.994 0.258 7.42 1 10.34
12/11/2021 10:00:00 PM 8.31 46.958 0.258 7.41 1.01 10.35
12/11/2021 10:15:00 PM 8.23 46.814 0.257 7.41 1.03 10.35
12/11/2021 10:30:00 PM 8.17 46.706 0.257 7.41 1.14 10.36
12/11/2021 10:45:00 PM 8.08 46.544 0.257 7.41 1.54 10.36
12/11/2021 11:00:00 PM 8 46.4 0.257 7.41 1.32 10.37
12/11/2021 11:15:00 PM 7.97 46.346 0.258 7.39 1.06 10.38
12/11/2021 11:30:00 PM 7.9 46.22 0.259 7.4 2.07 10.36
12/11/2021 11:45:00 PM 7.83 46.094 0.259 7.39 0.94 10.39
12/12/2021 12:00:00 AM 7.8 46.04 0.259 7.39 1.77 10.39
12/12/2021 12:15:00 AM 7.73 45.914 0.259 7.39 1.36 10.4
12/12/2021 12:30:00 AM 7.7 45.86 0.258 7.39 1.99 10.41
12/12/2021 12:45:00 AM 7.64 45.752 0.258 7.39 1.29 10.43
12/12/2021 1:00:00 AM 7.58 45.644 0.258 7.39 1.23 10.45
12/12/2021 1:15:00 AM 7.55 45.59 0.258 7.38 1.26 10.45
12/12/2021 1:30:00 AM 7.51 45.518 0.258 7.41 1.38 10.45
12/12/2021 1:45:00 AM 7.5 45.5 0.259 7.39 0.97 10.45
12/12/2021 2:00:00 AM 7.47 45.446 0.26 7.39 1.44 10.46
12/12/2021 2:15:00 AM 7.47 45.446 0.26 7.37 1.33 10.47
12/12/2021 2:30:00 AM 7.45 45.41 0.26 7.38 1.51 10.46
12/12/2021 2:45:00 AM 7.39 45.302 0.26 7.38 3.71 10.47
12/12/2021 3:00:00 AM 7.35 45.23 0.259 7.38 2.18 10.47
12/12/2021 3:15:00 AM 7.32 45.176 0.259 7.38 1.92 10.5
12/12/2021 3:30:00 AM 7.28 45.104 0.259 7.38 1.65 10.51
12/12/2021 3:45:00 AM 7.24 45.032 0.259 7.38 1.39 10.49
12/12/2021 4:00:00 AM 7.22 44.996 0.26 7.38 1.91 10.51
12/12/2021 4:15:00 AM 7.22 44.996 0.26 7.38 1.39 10.51
12/12/2021 4:30:00 AM 7.2 44.96 0.26 7.38 1.21 10.49
12/12/2021 4:45:00 AM 7.17 44.906 0.26 7.38 1.56 10.51
12/12/2021 5:00:00 AM 7.13 44.834 0.26 7.38 1.53 10.52
12/12/2021 5:15:00 AM 7.1 44.78 0.259 7.38 2 10.54
12/12/2021 5:30:00 AM 7.06 44.708 0.259 7.37 1.85 10.55
12/12/2021 5:45:00 AM 7.02 44.636 0.259 7.39 1.46 10.55
12/12/2021 6:00:00 AM 6.97 44.546 0.258 7.38 1.21 10.55
12/12/2021 6:15:00 AM 6.93 44.474 0.258 7.39 3.22 10.58
12/12/2021 6:30:00 AM 6.91 44.438 0.259 7.39 1.55 10.57
12/12/2021 6:45:00 AM 6.87 44.366 0.26 7.39 1.87 10.59
12/12/2021 7:00:00 AM 6.83 44.294 0.26 7.38 2.19 10.6
12/12/2021 7:15:00 AM 6.8 44.24 0.26 7.38 1.45 10.62
12/12/2021 7:30:00 AM 6.76 44.168 0.26 7.37 0.99 10.65
12/12/2021 7:45:00 AM 6.71 44.078 0.259 7.38 1.07 10.73
12/12/2021 8:00:00 AM 6.69 44.042 0.259 7.38 1.44 10.83
12/12/2021 8:15:00 AM 6.65 43.97 0.258 7.38 1.15 10.98
12/12/2021 8:30:00 AM 6.63 43.934 0.258 7.39 1.23 11.13
12/12/2021 8:45:00 AM 6.63 43.934 0.259 7.41 0.93 11.31
12/12/2021 9:00:00 AM 6.65 43.97 0.259 7.43 0.94 11.51
12/12/2021 9:15:00 AM 6.67 44.006 0.259 7.45 0.84 11.73
12/12/2021 9:30:00 AM 6.7 44.06 0.259 7.48 0.83 11.95
12/12/2021 9:45:00 AM 6.73 44.114 0.258 7.5 1.41 12.14
12/12/2021 10:00:00 AM 6.76 44.168 0.258 7.55 0.81 12.33
12/12/2021 10:15:00 AM 6.81 44.258 0.257 7.58 1.42 12.47
12/12/2021 10:30:00 AM 6.85 44.33 0.257 7.63 0.87 12.61
12/12/2021 10:45:00 AM 6.89 44.402 0.256 7.66 0.58 12.75
12/12/2021 11:00:00 AM 6.95 44.51 0.256 7.7 1.1 12.85
12/12/2021 11:15:00 AM 7.01 44.618 0.256 7.74 0.82 12.95
12/12/2021 11:30:00 AM 7.08 44.744 0.256 7.79 0.82 13.05
12/12/2021 11:45:00 AM 7.14 44.852 0.256 7.82 0.93 13.12
12/12/2021 12:00:00 PM 7.21 44.978 0.256 7.86 1.34 13.19
12/12/2021 12:15:00 PM 7.26 45.068 0.256 7.9 1.02 13.26
12/12/2021 12:30:00 PM 7.31 45.158 0.256 7.94 2.09 13.31
12/12/2021 12:45:00 PM 7.34 45.212 0.255 7.97 1.53 13.32
12/12/2021 1:00:00 PM 7.37 45.266 0.255 8 1.03 13.34
12/12/2021 1:15:00 PM 7.38 45.284 0.255 8.02 0.93 13.35
12/12/2021 1:30:00 PM 7.39 45.302 0.255 8.05 1.8 13.36
12/12/2021 1:45:00 PM 7.39 45.302 0.255 8.08 1.13 13.35
12/12/2021 2:00:00 PM 7.37 45.266 0.256 8.09 1.18 13.33
12/12/2021 2:15:00 PM 7.36 45.248 0.256 8.1 1.2 13.29
12/12/2021 2:30:00 PM 7.33 45.194 0.256 8.11 0.61 13.25
12/12/2021 2:45:00 PM 7.31 45.158 0.255 8.11 1.33 13.2
12/12/2021 3:00:00 PM 7.27 45.086 0.255 8.11 0.93 13.13
12/12/2021 3:15:00 PM 7.22 44.996 0.255 8.11 0.94 13.03
12/12/2021 3:30:00 PM 7.17 44.906 0.255 8.1 0.82 12.92
12/12/2021 3:45:00 PM 7.11 44.798 0.255 8.07 1.54 12.77
12/12/2021 4:00:00 PM 7.06 44.708 0.256 8.05 1.37 12.66
12/12/2021 4:15:00 PM 7.02 44.636 0.257 8.02 0.73 12.49
12/12/2021 4:30:00 PM 6.97 44.546 0.257 8 1.1 12.33
12/12/2021 4:45:00 PM 6.93 44.474 0.258 7.95 0.84 12.18
12/12/2021 5:00:00 PM 6.88 44.384 0.258 7.91 0.96 12.04
12/12/2021 5:15:00 PM 6.83 44.294 0.257 7.86 1.21 11.89
12/12/2021 5:30:00 PM 6.76 44.168 0.257 7.81 0.7 11.77
12/12/2021 5:45:00 PM 6.69 44.042 0.257 7.77 0.85 11.67
12/12/2021 6:00:00 PM 6.63 43.934 0.257 7.74 0.68 11.59
12/12/2021 6:15:00 PM 6.58 43.844 0.257 7.7 0.91 11.52
12/12/2021 6:30:00 PM 6.51 43.718 0.258 7.68 0.63 11.47
12/12/2021 6:45:00 PM 6.45 43.61 0.259 7.64 2.39 11.43
12/12/2021 7:00:00 PM 6.39 43.502 0.259 7.62 0.98 11.38
12/12/2021 7:15:00 PM 6.34 43.412 0.259 7.58 0.84 11.37
12/12/2021 7:30:00 PM 6.27 43.286 0.259 7.57 0.61 11.34
12/12/2021 7:45:00 PM 6.22 43.196 0.258 7.54 0.44 11.31
12/12/2021 8:00:00 PM 6.16 43.088 0.258 7.54 0.48 11.31
12/12/2021 8:15:00 PM 6.11 42.998 0.258 7.52 0.68 11.3
12/12/2021 8:30:00 PM 6.05 42.89 0.257 7.51 0.63 11.3
12/12/2021 8:45:00 PM 6 42.8 0.257 7.51 1.26 11.29
12/12/2021 9:00:00 PM 5.97 42.746 0.258 7.49 0.68 11.29
12/12/2021 9:15:00 PM 5.92 42.656 0.259 7.49 0.89 11.28
12/12/2021 9:30:00 PM 5.88 42.584 0.259 7.48 0.82 11.29
12/12/2021 9:45:00 PM 5.85 42.53 0.259 7.48 0.96 11.3
12/12/2021 10:00:00 PM 5.82 42.476 0.258 7.47 2.48 11.28
12/12/2021 10:15:00 PM 5.79 42.422 0.258 7.46 0.81 11.29
12/12/2021 10:30:00 PM 5.75 42.35 0.258 7.46 0.95 11.29
12/12/2021 10:45:00 PM 5.73 42.314 0.257 7.44 1.01 11.29
12/12/2021 11:00:00 PM 5.7 42.26 0.257 7.43 0.85 11.28
12/12/2021 11:15:00 PM 5.68 42.224 0.258 7.44 1.42 11.29
12/12/2021 11:30:00 PM 5.65 42.17 0.259 7.43 0.83 11.28
12/12/2021 11:45:00 PM 5.62 42.116 0.259 7.43 0.62 11.29
12/13/2021 12:00:00 AM 5.6 42.08 0.259 7.4 0.49 11.3
12/13/2021 12:15:00 AM 5.57 42.026 0.258 7.42 1.06 11.29
12/13/2021 12:30:00 AM 5.54 41.972 0.258 7.4 1.13 11.3
12/13/2021 12:45:00 AM 5.52 41.936 0.257 7.4 1.15 11.31
12/13/2021 1:00:00 AM 5.49 41.882 0.257 7.4 0.93 11.3
12/13/2021 1:15:00 AM 5.46 41.828 0.257 7.41 1.15 11.33
12/13/2021 1:30:00 AM 5.43 41.774 0.257 7.41 1.02 11.3
12/13/2021 1:45:00 AM 5.39 41.702 0.252 7.39 1.61 11.32
12/13/2021 2:00:00 AM 5.36 41.648 0.259 7.4 1.55 11.33
12/13/2021 2:15:00 AM 5.32 41.576 0.259 7.39 0.96 11.34
12/13/2021 2:30:00 AM 5.28 41.504 0.259 7.38 1.33 11.36
12/13/2021 2:45:00 AM 5.24 41.432 0.259 7.38 1.9 11.35
12/13/2021 3:00:00 AM 5.2 41.36 0.259 7.38 1.44 11.37
12/13/2021 3:15:00 AM 5.17 41.306 0.259 7.39 0.74 11.39
12/13/2021 3:30:00 AM 5.14 41.252 0.259 7.38 1.66 11.38
12/13/2021 3:45:00 AM 5.12 41.216 0.259 7.38 2.23 11.39
12/13/2021 4:00:00 AM 5.08 41.144 0.26 7.39 1.09 11.41
12/13/2021 4:15:00 AM 5.05 41.09 0.26 7.39 2.55 11.4
12/13/2021 4:30:00 AM 5 41 0.261 7.4 1.52 11.43
12/13/2021 4:45:00 AM 4.96 40.928 0.261 7.4 1.41 11.44
12/13/2021 5:00:00 AM 4.92 40.856 0.261 7.39 3.56 11.45
12/13/2021 5:15:00 AM 4.87 40.766 0.26 7.39 1.22 11.46
12/13/2021 5:30:00 AM 4.84 40.712 0.26 7.38 1.35 11.47
12/13/2021 5:45:00 AM 4.8 40.64 0.26 7.32 1.93 11.47
12/13/2021 6:00:00 AM 4.77 40.586 0.259 7.37 1.33 11.49
12/13/2021 6:15:00 AM 4.73 40.514 0.259 7.38 1.04 11.49
12/13/2021 6:30:00 AM 4.69 40.442 0.26 7.37 1.28 11.52
12/13/2021 6:45:00 AM 4.64 40.352 0.261 7.39 1.45 11.52
12/13/2021 7:00:00 AM 4.59 40.262 0.261 7.39 1.52 11.54
12/13/2021 7:15:00 AM 4.55 40.19 0.261 7.38 1.39 11.56
12/13/2021 7:30:00 AM 4.52 40.136 0.261 7.39 0.95 11.6
12/13/2021 7:45:00 AM 4.48 40.064 0.26 7.38 1.17 11.67
12/13/2021 8:00:00 AM 4.45 40.01 0.26 7.38 0.98 11.77
12/13/2021 8:15:00 AM 4.44 39.992 0.259 7.41 0.91 11.9
12/13/2021 8:30:00 AM 4.44 39.992 0.259 7.4 0.86 12.03
12/13/2021 8:45:00 AM 4.43 39.974 0.259 7.42 1.05 12.2
12/13/2021 9:00:00 AM 4.44 39.992 0.259 7.44 0.85 12.43
12/13/2021 9:15:00 AM 4.48 40.064 0.259 7.44 0.81 12.63
12/13/2021 9:30:00 AM 4.53 40.154 0.259 7.47 0.5 12.81
12/13/2021 9:45:00 AM 4.58 40.244 0.259 7.51 1.03 12.99
12/13/2021 10:00:00 AM 4.66 40.388 0.258 7.55 0.81 13.14
12/13/2021 10:15:00 AM 4.73 40.514 0.258 7.58 0.72 13.26
12/13/2021 10:30:00 AM 4.82 40.676 0.257 7.62 0.4 13.4
12/13/2021 10:45:00 AM 4.91 40.838 0.257 7.64 0.68 13.48
12/13/2021 11:00:00 AM 5.01 41.018 0.257 7.68 0.95 13.57
12/13/2021 11:15:00 AM 5.1 41.18 0.257 7.72 0.57 13.65
12/13/2021 11:30:00 AM 5.19 41.342 0.257 7.75 0.56 13.73
12/13/2021 11:45:00 AM 5.28 41.504 0.257 7.79 0.91 13.81
12/13/2021 12:00:00 PM 5.37 41.666 0.257 7.82 1.39 13.87
12/13/2021 12:15:00 PM 5.47 41.846 0.257 7.85 0.49 13.9
12/13/2021 12:30:00 PM 5.55 41.99 0.256 7.89 0.35 13.91
12/13/2021 12:45:00 PM 5.64 42.152 0.256 7.92 0.7 13.92
12/13/2021 1:00:00 PM 5.72 42.296 0.256 7.94 0.79 13.9
12/13/2021 1:15:00 PM 5.75 42.35 0.256 7.96 0.51 13.88
12/13/2021 1:30:00 PM 5.79 42.422 0.256 7.98 1.05 13.86
12/13/2021 1:45:00 PM 5.81 42.458 0.257 7.99 0.56 13.84
12/13/2021 2:00:00 PM 5.82 42.476 0.257 8 0.73 13.81
12/13/2021 2:15:00 PM 5.83 42.494 0.257 8 0.63 13.78
12/13/2021 2:30:00 PM 5.82 42.476 0.257 8.01 0.57 13.73
12/13/2021 2:45:00 PM 5.82 42.476 0.256 8.01 0.82 13.64
12/13/2021 3:00:00 PM 5.8 42.44 0.256 8.02 0.42 13.6
12/13/2021 3:15:00 PM 5.77 42.386 0.256 8 0.89 13.48
12/13/2021 3:30:00 PM 5.74 42.332 0.256 7.97 1.01 13.37
12/13/2021 3:45:00 PM 5.7 42.26 0.256 7.96 0.45 13.25
12/13/2021 4:00:00 PM 5.66 42.188 0.256 7.9 1.26 13.11
12/13/2021 4:15:00 PM 5.62 42.116 0.258 7.87 0.88 12.97
12/13/2021 4:30:00 PM 5.58 42.044 0.258 7.84 0.58 12.8
12/13/2021 4:45:00 PM 5.55 41.99 0.258 7.81 0.48 12.67
12/13/2021 5:00:00 PM 5.5 41.9 0.258 7.77 1.28 12.51
12/13/2021 5:15:00 PM 5.45 41.81 0.258 7.73 0.93 12.39
12/13/2021 5:30:00 PM 5.4 41.72 0.258 7.72 1.08 12.29
12/13/2021 5:45:00 PM 5.35 41.63 0.258 7.68 0.74 12.19
12/13/2021 6:00:00 PM 5.3 41.54 0.258 7.65 0.9 12.11
12/13/2021 6:15:00 PM 5.24 41.432 0.258 7.62 1.47 12.06
12/13/2021 6:30:00 PM 5.18 41.324 0.259 7.57 0.4 12.01
12/13/2021 6:45:00 PM 5.13 41.234 0.26 7.58 0.6 11.98
12/13/2021 7:00:00 PM 5.07 41.126 0.26 7.55 0.46 11.95
12/13/2021 7:15:00 PM 5.02 41.036 0.26 7.54 0.45 11.92
12/13/2021 7:30:00 PM 4.97 40.946 0.259 7.52 0.61 11.91
12/13/2021 7:45:00 PM 4.92 40.856 0.259 7.53 0.92 11.91
12/13/2021 8:00:00 PM 4.87 40.766 0.259 7.5 0.34 11.89
12/13/2021 8:15:00 PM 4.84 40.712 0.259 7.48 0.64 11.86
12/13/2021 8:30:00 PM 4.81 40.658 0.258 7.48 0.63 11.86
12/13/2021 8:45:00 PM 4.76 40.568 0.259 7.47 0.64 11.86
12/13/2021 9:00:00 PM 4.73 40.514 0.26 7.46 0.64 11.86
12/13/2021 9:15:00 PM 4.7 40.46 0.26 7.45 0.61 11.86
12/13/2021 9:30:00 PM 4.67 40.406 0.261 7.45 1.35 11.85
12/13/2021 9:45:00 PM 4.64 40.352 0.261 7.45 0.77 11.85
12/13/2021 10:00:00 PM 4.63 40.334 0.26 7.45 1.31 11.84
12/13/2021 10:15:00 PM 4.6 40.28 0.26 7.45 0.94 11.82
12/13/2021 10:30:00 PM 4.59 40.262 0.26 7.44 0.68 11.82
12/13/2021 10:45:00 PM 4.59 40.262 0.259 7.43 0.48 11.83
12/13/2021 11:00:00 PM 4.59 40.262 0.26 7.43 0.8 11.8
12/13/2021 11:15:00 PM 4.56 40.208 0.261 7.43 0.37 11.8
12/13/2021 11:30:00 PM 4.55 40.19 0.261 7.43 0.45 11.8
12/13/2021 11:45:00 PM 4.54 40.172 0.261 7.44 0.96 11.8
12/14/2021 12:00:00 AM 4.53 40.154 0.261 7.42 0.62 11.8
12/14/2021 12:15:00 AM 4.51 40.118 0.261 7.44 0.36 11.81
12/14/2021 12:30:00 AM 4.5 40.1 0.26 7.43 0.43 11.8
12/14/2021 12:45:00 AM 4.49 40.082 0.26 7.41 0.83 11.8
12/14/2021 1:00:00 AM 4.47 40.046 0.259 7.42 0.43 11.8
12/14/2021 1:15:00 AM 4.46 40.028 0.259 7.4 1.94 11.8
12/14/2021 1:30:00 AM 4.45 40.01 0.259 7.41 0.85 11.79
12/14/2021 1:45:00 AM 4.44 39.992 0.26 7.41 0.52 11.8
12/14/2021 2:00:00 AM 4.41 39.938 0.261 7.41 0.7 11.81
12/14/2021 2:15:00 AM 4.38 39.884 0.261 7.41 0.53 11.81
12/14/2021 2:30:00 AM 4.37 39.866 0.261 7.41 0.67 11.82
12/14/2021 2:45:00 AM 4.34 39.812 0.261 7.37 0.22 11.82
12/14/2021 3:00:00 AM 4.31 39.758 0.261 7.4 0.49 11.84
12/14/2021 3:15:00 AM 4.29 39.722 0.26 7.42 0.41 11.83
12/14/2021 3:30:00 AM 4.28 39.704 0.26 7.4 1.35 11.83
12/14/2021 3:45:00 AM 4.24 39.632 0.26 7.4 1.21 11.84
12/14/2021 4:00:00 AM 4.23 39.614 0.261 7.4 0.46 11.85
12/14/2021 4:15:00 AM 4.18 39.524 0.262 7.41 1.31 11.86
12/14/2021 4:30:00 AM 4.15 39.47 0.262 7.4 1.09 11.85
12/14/2021 4:45:00 AM 4.13 39.434 0.262 7.4 1.4 11.86
12/14/2021 5:00:00 AM 4.09 39.362 0.262 7.39 1.11 11.88
12/14/2021 5:15:00 AM 4.07 39.326 0.262 7.39 1.21 11.89
12/14/2021 5:30:00 AM 4.03 39.254 0.261 7.39 0.98 11.88
12/14/2021 5:45:00 AM 4.03 39.254 0.261 7.39 1.17 11.88
12/14/2021 6:00:00 AM 4.02 39.236 0.261 7.37 1.17 11.89
12/14/2021 6:15:00 AM 4 39.2 0.261 7.38 0.77 11.9
12/14/2021 6:30:00 AM 3.95 39.11 0.262 7.38 0.49 11.9
12/14/2021 6:45:00 AM 3.92 39.056 0.262 7.37 1.89 11.92
12/14/2021 7:00:00 AM 3.9 39.02 0.263 7.37 0.52 11.93
12/14/2021 7:15:00 AM 3.86 38.948 0.263 7.37 0.76 11.94
12/14/2021 7:30:00 AM 3.84 38.912 0.262 7.38 1.36 11.98
12/14/2021 7:45:00 AM 3.82 38.876 0.262 7.38 0.54 12.04
12/14/2021 8:00:00 AM 3.79 38.822 0.261 7.37 0.53 12.15
12/14/2021 8:15:00 AM 3.79 38.822 0.261 7.38 0.62 12.27
12/14/2021 8:30:00 AM 3.81 38.858 0.261 7.4 0.95 12.41
12/14/2021 8:45:00 AM 3.8 38.84 0.261 7.4 0.83 12.57
12/14/2021 9:00:00 AM 3.83 38.894 0.261 7.41 0.64 12.75
12/14/2021 9:15:00 AM 3.87 38.966 0.261 7.45 0.8 12.94
12/14/2021 9:30:00 AM 3.9 39.02 0.261 7.48 0.77 13.14
12/14/2021 9:45:00 AM 3.98 39.164 0.26 7.49 0.55 13.3
12/14/2021 10:00:00 AM 4.06 39.308 0.26 7.54 0.8 13.45
12/14/2021 10:15:00 AM 4.15 39.47 0.259 7.57 0.66 13.55
12/14/2021 10:30:00 AM 4.24 39.632 0.259 7.6 0.63 13.68
12/14/2021 10:45:00 AM 4.35 39.83 0.259 7.63 0.54 13.76
12/14/2021 11:00:00 AM 4.43 39.974 0.259 7.67 1.01 13.86
12/14/2021 11:15:00 AM 4.54 40.172 0.258 7.7 0.22 13.93
12/14/2021 11:30:00 AM 4.63 40.334 0.259 7.74 0.27 13.98
12/14/2021 11:45:00 AM 4.74 40.532 0.259 7.77 -0.01 14.03
12/14/2021 12:00:00 PM 4.85 40.73 0.259 7.8 0.63 14.09
12/14/2021 12:15:00 PM 4.93 40.874 0.259 7.83 0.26 14.16
12/14/2021 12:30:00 PM 5.04 41.072 0.258 7.87 1.25 14.16
12/14/2021 12:45:00 PM 5.1 41.18 0.258 7.89 0.9 14.16
12/14/2021 1:00:00 PM 5.19 41.342 0.257 7.92 0.58 14.17
12/14/2021 1:15:00 PM 5.24 41.432 0.257 7.94 0.37 14.16
12/14/2021 1:30:00 PM 5.31 41.558 0.257 7.96 0.37 14.13
12/14/2021 1:45:00 PM 5.32 41.576 0.258 7.98 0.79 14.13
12/14/2021 2:00:00 PM 5.33 41.594 0.259 8 0.32 14.1
12/14/2021 2:15:00 PM 5.35 41.63 0.259 8.01 0.34 14.06
12/14/2021 2:30:00 PM 5.36 41.648 0.259 8.01 0.2 14
12/14/2021 2:45:00 PM 5.36 41.648 0.259 8.01 0.19 13.95
12/14/2021 3:00:00 PM 5.35 41.63 0.259 8.01 0.47 13.86
12/14/2021 3:15:00 PM 5.32 41.576 0.258 8.01 0.39 13.79
12/14/2021 3:30:00 PM 5.3 41.54 0.258 7.97 0.87 13.69
12/14/2021 3:45:00 PM 5.27 41.486 0.258 7.98 1.27 13.56
12/14/2021 4:00:00 PM 5.25 41.45 0.258 7.96 0.71 13.4
12/14/2021 4:15:00 PM 5.22 41.396 0.259 7.93 0.47 13.26
12/14/2021 4:30:00 PM 5.17 41.306 0.26 7.9 0.11 13.12
12/14/2021 4:45:00 PM 5.13 41.234 0.26 7.86 0.13 12.96
12/14/2021 5:00:00 PM 5.1 41.18 0.261 7.8 0.79 12.81
12/14/2021 5:15:00 PM 5.05 41.09 0.261 7.78 0.7 12.68
12/14/2021 5:30:00 PM 5 41 0.26 7.76 0.53 12.58
12/14/2021 5:45:00 PM 4.96 40.928 0.26 7.72 0 12.47
12/14/2021 6:00:00 PM 4.91 40.838 0.26 7.7 0.08 12.4
12/14/2021 6:15:00 PM 4.87 40.766 0.259 7.66 0.08 12.32
12/14/2021 6:30:00 PM 4.81 40.658 0.26 7.65 0.95 12.28
12/14/2021 6:45:00 PM 4.75 40.55 0.26 7.62 0.79 12.25
12/14/2021 7:00:00 PM 4.7 40.46 0.261 7.56 0.61 12.21
12/14/2021 7:15:00 PM 4.66 40.388 0.261 7.57 0.39 12.18
12/14/2021 7:30:00 PM 4.61 40.298 0.261 7.57 0.15 12.17
12/14/2021 7:45:00 PM 4.56 40.208 0.26 7.55 0.1 12.16
12/14/2021 8:00:00 PM 4.52 40.136 0.26 7.54 0.63 12.13
12/14/2021 8:15:00 PM 4.47 40.046 0.259 7.53 0.24 12.14
12/14/2021 8:30:00 PM 4.44 39.992 0.259 7.53 4.33 12.13
12/14/2021 8:45:00 PM 4.4 39.92 0.259 7.52 0.46 12.12
12/14/2021 9:00:00 PM 4.37 39.866 0.259 7.51 0.55 12.11
12/14/2021 9:15:00 PM 4.34 39.812 0.26 7.49 0.38 12.12
12/14/2021 9:30:00 PM 4.32 39.776 0.26 7.5 0.39 12.09
12/14/2021 9:45:00 PM 4.29 39.722 0.261 7.49 0.59 12.1
12/14/2021 10:00:00 PM 4.26 39.668 0.26 7.48 0.54 12.09
12/14/2021 10:15:00 PM 4.25 39.65 0.26 7.49 0.4 12.08
12/14/2021 10:30:00 PM 4.24 39.632 0.26 7.49 0.29 12.08
12/14/2021 10:45:00 PM 4.23 39.614 0.259 7.47 0.4 12.07
12/14/2021 11:00:00 PM 4.22 39.596 0.259 7.46 1.27 12.05
12/14/2021 11:15:00 PM 4.24 39.632 0.259 7.45 0.47 12.04
12/14/2021 11:30:00 PM 4.21 39.578 0.26 7.44 0.36 12.05
12/14/2021 11:45:00 PM 4.2 39.56 0.261 7.44 0.37 12.04
12/15/2021 12:00:00 AM 4.19 39.542 0.261 7.44 0.48 12.04
12/15/2021 12:15:00 AM 4.18 39.524 0.26 7.45 0.68 12.04
12/15/2021 12:30:00 AM 4.17 39.506 0.26 7.45 1.19 12.06
12/15/2021 12:45:00 AM 4.16 39.488 0.26 7.45 0.46 12.02
12/15/2021 1:00:00 AM 4.15 39.47 0.259 7.44 0.48 12.04
12/15/2021 1:15:00 AM 4.16 39.488 0.259 7.45 0.89 12.02
12/15/2021 1:30:00 AM 4.15 39.47 0.259 7.44 0.49 12.01
12/15/2021 1:45:00 AM 4.15 39.47 0.259 7.44 0.43 12.02
12/15/2021 2:00:00 AM 4.12 39.416 0.26 7.44 0.79 12.02
12/15/2021 2:15:00 AM 4.09 39.362 0.26 7.44 0.47 12.02
12/15/2021 2:30:00 AM 4.06 39.308 0.261 7.44 2.56 12.01
12/15/2021 2:45:00 AM 4.05 39.29 0.261 7.42 0.49 12.03
12/15/2021 3:00:00 AM 4.02 39.236 0.261 7.42 0.44 12.03
12/15/2021 3:15:00 AM 3.99 39.182 0.26 7.42 0.92 12.04
12/15/2021 3:30:00 AM 3.98 39.164 0.26 7.43 0.31 12.05
12/15/2021 3:45:00 AM 3.97 39.146 0.26 7.42 0.4 12.02
12/15/2021 4:00:00 AM 3.97 39.146 0.26 7.43 0.59 12.04
12/15/2021 4:15:00 AM 3.93 39.074 0.261 7.41 1.49 12.04
12/15/2021 4:30:00 AM 3.9 39.02 0.261 7.43 0.69 12.05
12/15/2021 4:45:00 AM 3.87 38.966 0.262 7.42 1.18 12.06
12/15/2021 5:00:00 AM 3.85 38.93 0.262 7.42 0.98 12.06
12/15/2021 5:15:00 AM 3.84 38.912 0.262 7.42 0.59 12.06
12/15/2021 5:30:00 AM 3.81 38.858 0.261 7.42 0.98 12.08
12/15/2021 5:45:00 AM 3.8 38.84 0.261 7.42 0.96 12.08
12/15/2021 6:00:00 AM 3.78 38.804 0.26 7.42 0.59 12.07
12/15/2021 6:15:00 AM 3.77 38.786 0.26 7.42 0.86 12.08
12/15/2021 6:30:00 AM 3.79 38.822 0.26 7.4 0.45 12.06
12/15/2021 6:45:00 AM 3.78 38.804 0.261 7.4 0.54 12.06
12/15/2021 7:00:00 AM 3.76 38.768 0.261 7.42 0.24 12.07
12/15/2021 7:15:00 AM 3.74 38.732 0.262 7.42 1.07 12.08
12/15/2021 7:30:00 AM 3.73 38.714 0.262 7.41 0.52 12.12
12/15/2021 7:45:00 AM 3.72 38.696 0.261 7.41 0.69 12.17
12/15/2021 8:00:00 AM 3.71 38.678 0.261 7.42 2.75 12.28
12/15/2021 8:15:00 AM 3.74 38.732 0.26 7.42 0.63 12.45
12/15/2021 8:30:00 AM 3.75 38.75 0.26 7.43 0.77 12.66
12/15/2021 8:45:00 AM 3.81 38.858 0.26 7.45 0.88 12.84
12/15/2021 9:00:00 AM 3.83 38.894 0.26 7.49 0.92 13.04
12/15/2021 9:15:00 AM 3.88 38.984 0.26 7.52 0.54 13.24
12/15/2021 9:30:00 AM 3.93 39.074 0.26 7.54 0.37 13.42
12/15/2021 9:45:00 AM 3.98 39.164 0.26 7.57 0.29 13.57
12/15/2021 10:00:00 AM 4.06 39.308 0.259 7.61 0.6 13.71
12/15/2021 10:15:00 AM 4.1 39.38 0.259 7.64 0.31 13.8
12/15/2021 10:30:00 AM 4.15 39.47 0.259 7.67 0.91 13.88
12/15/2021 10:45:00 AM 4.24 39.632 0.258 7.7 0.62 13.95
12/15/2021 11:00:00 AM 4.32 39.776 0.258 7.73 0.08 14.04
12/15/2021 11:15:00 AM 4.42 39.956 0.258 7.77 0.59 14.14
12/15/2021 11:30:00 AM 4.53 40.154 0.258 7.81 0.53 14.25
12/15/2021 11:45:00 AM 4.64 40.352 0.258 7.83 0.29 14.36
12/15/2021 12:00:00 PM 4.75 40.55 0.258 7.89 0.52 14.4
12/15/2021 12:15:00 PM 4.82 40.676 0.258 7.93 0.46 14.41
12/15/2021 12:30:00 PM 4.87 40.766 0.258 7.94 0.43 14.41
12/15/2021 12:45:00 PM 4.97 40.946 0.257 7.97 0.27 14.42
12/15/2021 1:00:00 PM 5.07 41.126 0.257 8.02 0.27 14.45
12/15/2021 1:15:00 PM 5.14 41.252 0.257 8.04 0.4 14.46
12/15/2021 1:30:00 PM 5.23 41.414 0.256 8.06 0.29 14.43
12/15/2021 1:45:00 PM 5.35 41.63 0.257 8.09 0.25 14.4
12/15/2021 2:00:00 PM 5.38 41.684 0.258 8.11 0.31 14.4
12/15/2021 2:15:00 PM 5.44 41.792 0.258 8.11 0.31 14.4
12/15/2021 2:30:00 PM 5.48 41.864 0.258 8.13 0.62 14.37
12/15/2021 2:45:00 PM 5.5 41.9 0.258 8.15 0.42 14.31
12/15/2021 3:00:00 PM 5.48 41.864 0.257 8.16 0.82 14.25
12/15/2021 3:15:00 PM 5.48 41.864 0.257 8.16 0.37 14.16
12/15/2021 3:30:00 PM 5.47 41.846 0.257 8.15 0.47 14.04
12/15/2021 3:45:00 PM 5.49 41.882 0.257 8.13 0.18 13.89
12/15/2021 4:00:00 PM 5.47 41.846 0.257 8.11 0.31 13.72
12/15/2021 4:15:00 PM 5.45 41.81 0.258 8.08 0.58 13.55
12/15/2021 4:30:00 PM 5.43 41.774 0.258 8.06 0.62 13.35
12/15/2021 4:45:00 PM 5.43 41.774 0.259 8 0.48 13.13
12/15/2021 5:00:00 PM 5.42 41.756 0.259 7.95 0.4 12.93
12/15/2021 5:15:00 PM 5.43 41.774 0.259 7.88 0.46 12.74
12/15/2021 5:30:00 PM 5.41 41.738 0.259 7.85 0.74 12.6
12/15/2021 5:45:00 PM 5.41 41.738 0.259 7.8 0.55 12.47
12/15/2021 6:00:00 PM 5.41 41.738 0.258 7.77 0.18 12.37
12/15/2021 6:15:00 PM 5.42 41.756 0.258 7.74 0.61 12.27
12/15/2021 6:30:00 PM 5.44 41.792 0.258 7.71 0.36 12.18
12/15/2021 6:45:00 PM 5.42 41.756 0.259 7.68 0.18 12.12
12/15/2021 7:00:00 PM 5.43 41.774 0.26 7.66 0.83 12.06
12/15/2021 7:15:00 PM 5.42 41.756 0.26 7.64 0.31 12.03
12/15/2021 7:30:00 PM 5.43 41.774 0.26 7.62 1.1 11.98
12/15/2021 7:45:00 PM 5.42 41.756 0.26 7.61 0.32 11.96
12/15/2021 8:00:00 PM 5.44 41.792 0.259 7.59 0.14 11.92
12/15/2021 8:15:00 PM 5.44 41.792 0.259 7.57 0.2 11.88
12/15/2021 8:30:00 PM 5.44 41.792 0.258 7.56 0.55 11.85
12/15/2021 8:45:00 PM 5.45 41.81 0.258 7.55 0.4 11.84
12/15/2021 9:00:00 PM 5.44 41.792 0.258 7.54 0.54 11.82
12/15/2021 9:15:00 PM 5.44 41.792 0.259 7.54 0.44 11.8
12/15/2021 9:30:00 PM 5.45 41.81 0.26 7.54 0.56 11.78
12/15/2021 9:45:00 PM 5.44 41.792 0.26 7.54 0.62 11.75
12/15/2021 10:00:00 PM 5.46 41.828 0.26 7.52 0.84 11.75
12/15/2021 10:15:00 PM 5.46 41.828 0.26 7.53 0.18 11.72
12/15/2021 10:30:00 PM 5.47 41.846 0.26 7.53 0.56 11.71
12/15/2021 10:45:00 PM 5.49 41.882 0.259 7.52 0.48 11.69
12/15/2021 11:00:00 PM 5.51 41.918 0.259 7.5 0.11 11.65
12/15/2021 11:15:00 PM 5.52 41.936 0.259 7.5 0.19 11.63
12/15/2021 11:30:00 PM 5.52 41.936 0.26 7.48 0.63 11.61
12/15/2021 11:45:00 PM 5.51 41.918 0.26 7.48 0.15 11.6
12/16/2021 12:00:00 AM 5.5 41.9 0.26 7.48 0.1 11.59
12/16/2021 12:15:00 AM 5.49 41.882 0.26 7.47 0.52 11.58
12/16/2021 12:30:00 AM 5.49 41.882 0.26 7.48 0.07 11.56
12/16/2021 12:45:00 AM 5.47 41.846 0.259 7.48 0.47 11.54
12/16/2021 1:00:00 AM 5.49 41.882 0.259 7.47 0.55 11.54
12/16/2021 1:15:00 AM 5.5 41.9 0.259 7.47 0.33 11.55
12/16/2021 1:30:00 AM 5.53 41.954 0.259 7.47 0.26 11.52
12/16/2021 1:45:00 AM 5.54 41.972 0.259 7.47 0.47 11.52
12/16/2021 2:00:00 AM 5.57 42.026 0.259 7.48 0.27 11.49
12/16/2021 2:15:00 AM 5.58 42.044 0.26 7.46 0.38 11.48
12/16/2021 2:30:00 AM 5.6 42.08 0.261 7.47 0.62 11.47
12/16/2021 2:45:00 AM 5.61 42.098 0.261 7.47 0.2 11.45
12/16/2021 3:00:00 AM 5.61 42.098 0.261 7.46 0.58 11.44
12/16/2021 3:15:00 AM 5.6 42.08 0.26 7.46 0.39 11.43
12/16/2021 3:30:00 AM 5.6 42.08 0.26 7.46 0.52 11.41
12/16/2021 3:45:00 AM 5.59 42.062 0.26 7.46 0.17 11.41
12/16/2021 4:00:00 AM 5.6 42.08 0.26 7.46 0.6 11.39
12/16/2021 4:15:00 AM 5.59 42.062 0.26 7.48 0.57 11.37
12/16/2021 4:30:00 AM 5.59 42.062 0.261 7.47 0.73 11.37
12/16/2021 4:45:00 AM 5.58 42.044 0.262 7.46 0.82 11.36
12/16/2021 5:00:00 AM 5.58 42.044 0.262 7.45 0.86 11.35
12/16/2021 5:15:00 AM 5.56 42.008 0.262 7.45 0.5 11.34
12/16/2021 5:30:00 AM 5.55 41.99 0.261 7.45 0.28 11.33
12/16/2021 5:45:00 AM 5.52 41.936 0.261 7.45 0.43 11.34
12/16/2021 6:00:00 AM 5.5 41.9 0.26 7.44 1.45 11.32
12/16/2021 6:15:00 AM 5.47 41.846 0.26 7.44 0.66 11.32
12/16/2021 6:30:00 AM 5.44 41.792 0.259 7.44 0.59 11.32
12/16/2021 6:45:00 AM 5.42 41.756 0.26 7.43 0.87 11.32
12/16/2021 7:00:00 AM 5.41 41.738 0.261 7.43 0.98 11.32
12/16/2021 7:15:00 AM 5.4 41.72 0.261 7.43 0.92 11.32
12/16/2021 7:30:00 AM 5.38 41.684 0.261 7.44 0.97 11.34
12/16/2021 7:45:00 AM 5.38 41.684 0.261 7.45 0.84 11.4
12/16/2021 8:00:00 AM 5.39 41.702 0.26 7.44 1.04 11.56
12/16/2021 8:15:00 AM 5.41 41.738 0.26 7.46 0.74 11.74
12/16/2021 8:30:00 AM 5.44 41.792 0.259 7.47 1.64 11.93
12/16/2021 8:45:00 AM 5.49 41.882 0.259 7.49 0.95 12.14
12/16/2021 9:00:00 AM 5.53 41.954 0.258 7.52 1.08 12.35
12/16/2021 9:15:00 AM 5.58 42.044 0.259 7.55 0.68 12.52
12/16/2021 9:30:00 AM 5.63 42.134 0.259 7.59 0.38 12.71
12/16/2021 9:45:00 AM 5.68 42.224 0.259 7.61 0.72 12.87
12/16/2021 10:00:00 AM 5.73 42.314 0.258 7.65 1.01 13.02
12/16/2021 10:15:00 AM 5.81 42.458 0.258 7.7 0.81 13.14
12/16/2021 10:30:00 AM 5.89 42.602 0.258 7.74 0.43 13.28
12/16/2021 10:45:00 AM 5.98 42.764 0.257 7.78 0.17 13.39
12/16/2021 11:00:00 AM 6.08 42.944 0.257 7.82 0.6 13.47
12/16/2021 11:15:00 AM 6.17 43.106 0.257 7.86 0.41 13.51
12/16/2021 11:30:00 AM 6.27 43.286 0.257 7.9 0.69 13.56
12/16/2021 11:45:00 AM 6.38 43.484 0.257 7.94 0.24 13.6
12/16/2021 12:00:00 PM 6.48 43.664 0.257 7.97 0.47 13.65
12/16/2021 12:15:00 PM 6.59 43.862 0.257 8 1.14 13.66
12/16/2021 12:30:00 PM 6.67 44.006 0.257 8.03 0.26 13.68
12/16/2021 12:45:00 PM 6.74 44.132 0.257 8.06 0.81 13.67
12/16/2021 1:00:00 PM 6.81 44.258 0.256 8.09 0.39 13.67
12/16/2021 1:15:00 PM 6.88 44.384 0.256 8.11 0.5 13.63
12/16/2021 1:30:00 PM 6.94 44.492 0.256 8.12 0.68 13.63
12/16/2021 1:45:00 PM 6.97 44.546 0.256 8.13 0.52 13.6
12/16/2021 2:00:00 PM 7.01 44.618 0.257 8.15 1.13 13.56
12/16/2021 2:15:00 PM 7.05 44.69 0.257 8.15 0.4 13.51
12/16/2021 2:30:00 PM 7.08 44.744 0.257 8.15 0.54 13.49
12/16/2021 2:45:00 PM 7.1 44.78 0.257 8.16 1.08 13.44
12/16/2021 3:00:00 PM 7.11 44.798 0.257 8.17 0.87 13.37
12/16/2021 3:15:00 PM 7.1 44.78 0.256 8.17 0.54 13.28
12/16/2021 3:30:00 PM 7.09 44.762 0.256 8.16 0.67 13.18
12/16/2021 3:45:00 PM 7.08 44.744 0.256 8.15 0.79 13.07
12/16/2021 4:00:00 PM 7.05 44.69 0.256 8.12 0.46 12.92
12/16/2021 4:15:00 PM 7.03 44.654 0.256 8.1 0.57 12.74
12/16/2021 4:30:00 PM 7.01 44.618 0.257 8.06 0.97 12.53
12/16/2021 4:45:00 PM 7 44.6 0.258 8.01 0.83 12.31
12/16/2021 5:00:00 PM 6.97 44.546 0.258 7.96 0.58 12.1
12/16/2021 5:15:00 PM 6.94 44.492 0.258 7.92 0.54 11.95
12/16/2021 5:30:00 PM 6.91 44.438 0.258 7.86 0.67 11.8
12/16/2021 5:45:00 PM 6.89 44.402 0.258 7.82 0.6 11.68
12/16/2021 6:00:00 PM 6.86 44.348 0.258 7.77 0.62 11.58
12/16/2021 6:15:00 PM 6.82 44.276 0.258 7.74 0.44 11.49
12/16/2021 6:30:00 PM 6.79 44.222 0.257 7.7 0.76 11.41
12/16/2021 6:45:00 PM 6.77 44.186 0.258 7.67 0.97 11.35
12/16/2021 7:00:00 PM 6.76 44.168 0.259 7.64 0.71 11.29
12/16/2021 7:15:00 PM 6.75 44.15 0.259 7.62 0.6 11.26
12/16/2021 7:30:00 PM 6.73 44.114 0.259 7.6 0.31 11.22
12/16/2021 7:45:00 PM 6.72 44.096 0.259 7.58 0.75 11.17
12/16/2021 8:00:00 PM 6.72 44.096 0.259 7.56 1.25 11.15
12/16/2021 8:15:00 PM 6.72 44.096 0.258 7.55 0.8 11.12
12/16/2021 8:30:00 PM 6.73 44.114 0.258 7.54 0.22 11.11
12/16/2021 8:45:00 PM 6.75 44.15 0.257 7.51 1.09 11.09
12/16/2021 9:00:00 PM 6.77 44.186 0.257 7.49 0.96 11.06
12/16/2021 9:15:00 PM 6.8 44.24 0.257 7.49 0.35 11.04
12/16/2021 9:30:00 PM 6.84 44.312 0.258 7.49 1.19 11.01
12/16/2021 9:45:00 PM 6.88 44.384 0.259 7.45 1.23 10.99
12/16/2021 10:00:00 PM 6.91 44.438 0.259 7.4 1.31 10.98
12/16/2021 10:15:00 PM 6.94 44.492 0.259 7.46 0.62 10.95
12/16/2021 10:30:00 PM 6.99 44.582 0.259 7.46 0.88 10.92
12/16/2021 10:45:00 PM 7.03 44.654 0.258 7.45 0.45 10.89
12/16/2021 11:00:00 PM 7.05 44.69 0.258 7.46 0.71 10.88
12/16/2021 11:15:00 PM 7.07 44.726 0.258 7.46 0.9 10.85
12/16/2021 11:30:00 PM 7.09 44.762 0.258 7.46 0.4 10.83
12/16/2021 11:45:00 PM 7.12 44.816 0.259 7.46 0.61 10.81
12/17/2021 12:00:00 AM 7.15 44.87 0.259 7.46 0.69 10.78
12/17/2021 12:15:00 AM 7.19 44.942 0.26 7.46 0.71 10.77
12/17/2021 12:30:00 AM 7.23 45.014 0.259 7.44 2.51 10.76
12/17/2021 12:45:00 AM 7.24 45.032 0.259 7.45 0.95 10.73
12/17/2021 1:00:00 AM 7.26 45.068 0.259 7.44 0.75 10.73
12/17/2021 1:15:00 AM 7.27 45.086 0.258 7.45 2.59 10.72
12/17/2021 1:30:00 AM 7.27 45.086 0.258 7.46 0.78 10.7
12/17/2021 1:45:00 AM 7.28 45.104 0.258 7.45 1 10.69
12/17/2021 2:00:00 AM 7.28 45.104 0.258 7.45 1.45 10.68
12/17/2021 2:15:00 AM 7.28 45.104 0.259 7.44 1.33 10.67
12/17/2021 2:30:00 AM 7.28 45.104 0.259 7.44 0.92 10.65
12/17/2021 2:45:00 AM 7.26 45.068 0.26 7.44 1.35 10.65
12/17/2021 3:00:00 AM 7.28 45.104 0.26 7.44 1.72 10.64
12/17/2021 3:15:00 AM 7.26 45.068 0.259 7.44 1.11 10.65
12/17/2021 3:30:00 AM 7.24 45.032 0.259 7.44 1.14 10.63
12/17/2021 3:45:00 AM 7.21 44.978 0.259 7.44 0.78 10.64
12/17/2021 4:00:00 AM 7.18 44.924 0.259 7.44 0.77 10.64
12/17/2021 4:15:00 AM 7.15 44.87 0.259 7.44 1.1 10.63
12/17/2021 4:30:00 AM 7.15 44.87 0.26 7.44 1.09 10.63
12/17/2021 4:45:00 AM 7.13 44.834 0.26 7.43 0.84 10.63
12/17/2021 5:00:00 AM 7.12 44.816 0.261 7.43 1.24 10.61
12/17/2021 5:15:00 AM 7.12 44.816 0.261 7.43 0.71 10.62
12/17/2021 5:30:00 AM 7.11 44.798 0.261 7.43 0.47 10.62
12/17/2021 5:45:00 AM 7.13 44.834 0.26 7.43 1 10.62
12/17/2021 6:00:00 AM 7.1 44.78 0.26 7.43 1.56 10.61
12/17/2021 6:15:00 AM 7.08 44.744 0.259 7.43 1.19 10.62
12/17/2021 6:30:00 AM 7.05 44.69 0.259 7.42 0.91 10.62
12/17/2021 6:45:00 AM 7.01 44.618 0.259 7.42 1.51 10.62
12/17/2021 7:00:00 AM 7 44.6 0.26 7.42 1.05 10.62
12/17/2021 7:15:00 AM 6.99 44.582 0.26 7.42 1.44 10.63
12/17/2021 7:30:00 AM 6.96 44.528 0.261 7.41 1.09 10.64
12/17/2021 7:45:00 AM 6.92 44.456 0.261 7.41 0.83 10.7
12/17/2021 8:00:00 AM 6.91 44.438 0.26 7.44 2.42 10.79
12/17/2021 8:15:00 AM 6.9 44.42 0.26 7.43 0.66 10.93
12/17/2021 8:30:00 AM 6.9 44.42 0.259 7.44 0.7 11.16
12/17/2021 8:45:00 AM 6.92 44.456 0.259 7.46 0.74 11.41
12/17/2021 9:00:00 AM 6.95 44.51 0.258 7.49 0.62 11.69
12/17/2021 9:15:00 AM 7.01 44.618 0.259 7.52 1.8 11.95
12/17/2021 9:30:00 AM 7.08 44.744 0.259 7.58 1.04 12.24
12/17/2021 9:45:00 AM 7.14 44.852 0.259 7.63 0.52 12.43
12/17/2021 10:00:00 AM 7.18 44.924 0.259 7.67 1.33 12.65
12/17/2021 10:15:00 AM 7.23 45.014 0.258 7.72 1.1 12.83
12/17/2021 10:30:00 AM 7.29 45.122 0.258 7.78 1.17 12.98
12/17/2021 10:45:00 AM 7.35 45.23 0.257 7.83 0.69 13.12
12/17/2021 11:00:00 AM 7.4 45.32 0.257 7.88 2.08 13.22
12/17/2021 11:15:00 AM 7.41 45.338 0.256 7.93 0.89 13.26
12/17/2021 11:30:00 AM 7.42 45.356 0.256 7.97 0.75 13.3
12/17/2021 11:45:00 AM 7.47 45.446 0.256 8.01 1.02 13.34
12/17/2021 12:00:00 PM 7.49 45.482 0.257 8.04 0.73 13.38
12/17/2021 12:15:00 PM 7.53 45.554 0.257 8.08 0.37 13.41
12/17/2021 12:30:00 PM 7.56 45.608 0.257 8.11 0.65 13.45
12/17/2021 12:45:00 PM 7.61 45.698 0.257 8.14 1.06 13.5
12/17/2021 1:00:00 PM 7.64 45.752 0.256 8.17 0.57 13.52
12/17/2021 1:15:00 PM 7.68 45.824 0.256 8.18 0.44 13.57
12/17/2021 1:30:00 PM 7.72 45.896 0.255 8.2 0.65 13.63
12/17/2021 1:45:00 PM 7.72 45.896 0.255 8.23 1.19 13.55
12/17/2021 2:00:00 PM 7.72 45.896 0.256 8.26 0.65 13.49
12/17/2021 2:15:00 PM 7.71 45.878 0.257 8.27 0.51 13.41
12/17/2021 2:30:00 PM 7.73 45.914 0.257 8.28 0.65 13.4
12/17/2021 2:45:00 PM 7.73 45.914 0.257 8.28 0.77 13.31
12/17/2021 3:00:00 PM 7.71 45.878 0.257 8.28 1.25 13.21
12/17/2021 3:15:00 PM 7.67 45.806 0.257 8.28 0.67 13.11
12/17/2021 3:30:00 PM 7.64 45.752 0.256 8.24 1 12.97
12/17/2021 3:45:00 PM 7.63 45.734 0.256 8.24 1.48 12.83
12/17/2021 4:00:00 PM 7.6 45.68 0.256 8.2 2.53 12.68
12/17/2021 4:15:00 PM 7.58 45.644 0.256 8.16 1.41 12.49
12/17/2021 4:30:00 PM 7.54 45.572 0.257 8.12 0.85 12.27
12/17/2021 4:45:00 PM 7.52 45.536 0.258 8.06 0.91 12.02
12/17/2021 5:00:00 PM 7.5 45.5 0.259 8.01 0.7 11.85
12/17/2021 5:15:00 PM 7.47 45.446 0.259 7.95 0.57 11.68
12/17/2021 5:30:00 PM 7.43 45.374 0.259 7.89 0.92 11.54
12/17/2021 5:45:00 PM 7.38 45.284 0.259 7.85 0.82 11.42
12/17/2021 6:00:00 PM 7.35 45.23 0.258 7.81 0.74 11.32
12/17/2021 6:15:00 PM 7.31 45.158 0.258 7.77 0.95 11.25
12/17/2021 6:30:00 PM 7.25 45.05 0.258 7.73 1.07 11.18
12/17/2021 6:45:00 PM 7.24 45.032 0.258 7.69 0.82 11.13
12/17/2021 7:00:00 PM 7.22 44.996 0.259 7.67 0.82 11.09
12/17/2021 7:15:00 PM 7.21 44.978 0.26 7.64 1.09 11.04
12/17/2021 7:30:00 PM 7.18 44.924 0.26 7.61 0.55 10.99
12/17/2021 7:45:00 PM 7.15 44.87 0.26 7.6 1.08 10.99
12/17/2021 8:00:00 PM 7.12 44.816 0.259 7.58 0.41 10.97
12/17/2021 8:15:00 PM 7.08 44.744 0.259 7.57 0.34 10.95
12/17/2021 8:30:00 PM 7.08 44.744 0.258 7.55 1.12 10.95
12/17/2021 8:45:00 PM 7.04 44.672 0.258 7.55 0.56 10.94
12/17/2021 9:00:00 PM 7.02 44.636 0.258 7.53 0.81 10.93
12/17/2021 9:15:00 PM 7.03 44.654 0.258 7.54 0.58 10.92
12/17/2021 9:30:00 PM 7.03 44.654 0.259 7.53 0.78 10.9
12/17/2021 9:45:00 PM 7.06 44.708 0.26 7.51 0.46 10.88
12/17/2021 10:00:00 PM 7.07 44.726 0.26 7.5 3.24 10.87
12/17/2021 10:15:00 PM 7.08 44.744 0.26 7.5 0.26 10.86
12/17/2021 10:30:00 PM 7.09 44.762 0.259 7.49 0.7 10.85
12/17/2021 10:45:00 PM 7.1 44.78 0.259 7.49 0.99 10.84
12/17/2021 11:00:00 PM 7.11 44.798 0.258 7.49 0.65 10.82
12/17/2021 11:15:00 PM 7.13 44.834 0.258 7.48 0.91 10.82
12/17/2021 11:30:00 PM 7.12 44.816 0.258 7.47 0.53 10.81
12/17/2021 11:45:00 PM 7.15 44.87 0.259 7.47 0.78 10.81
12/18/2021 12:00:00 AM 7.17 44.906 0.26 7.47 0.58 10.79
12/18/2021 12:15:00 AM 7.18 44.924 0.26 7.47 0.86 10.77
12/18/2021 12:30:00 AM 7.19 44.942 0.26 7.47 1.66 10.76
12/18/2021 12:45:00 AM 7.2 44.96 0.26 7.46 0.87 10.76
12/18/2021 1:00:00 AM 7.19 44.942 0.259 7.46 0.5 10.77
12/18/2021 1:15:00 AM 7.19 44.942 0.259 7.47 1.37 10.77
12/18/2021 1:30:00 AM 7.19 44.942 0.258 7.45 1.1 10.75
12/18/2021 1:45:00 AM 7.17 44.906 0.258 7.45 0.69 10.75
12/18/2021 2:00:00 AM 7.16 44.888 0.258 7.45 0.99 10.75
12/18/2021 2:15:00 AM 7.17 44.906 0.259 7.44 1.24 10.74
12/18/2021 2:30:00 AM 7.18 44.924 0.26 7.45 0.68 10.73
12/18/2021 2:45:00 AM 7.18 44.924 0.26 7.44 0.35 10.72
12/18/2021 3:00:00 AM 7.17 44.906 0.26 7.45 0.68 10.72
12/18/2021 3:15:00 AM 7.17 44.906 0.26 7.46 0.99 10.7
12/18/2021 3:30:00 AM 7.16 44.888 0.26 7.46 3.01 10.7
12/18/2021 3:45:00 AM 7.13 44.834 0.259 7.44 0.77 10.7
12/18/2021 4:00:00 AM 7.12 44.816 0.259 7.44 0.8 10.7
12/18/2021 4:15:00 AM 7.09 44.762 0.259 7.45 0.59 10.7
12/18/2021 4:30:00 AM 7.1 44.78 0.259 7.44 0.84 10.7
12/18/2021 4:45:00 AM 7.09 44.762 0.26 7.44 0.86 10.68
12/18/2021 5:00:00 AM 7.09 44.762 0.26 7.45 0.97 10.68
12/18/2021 5:15:00 AM 7.09 44.762 0.26 7.44 1.1 10.67
12/18/2021 5:30:00 AM 7.06 44.708 0.26 7.44 1.3 10.68
12/18/2021 5:45:00 AM 7.06 44.708 0.259 7.44 1.03 10.67
12/18/2021 6:00:00 AM 7.04 44.672 0.259 7.44 1.03 10.67
12/18/2021 6:15:00 AM 7.02 44.636 0.259 7.44 1.73 10.67
12/18/2021 6:30:00 AM 7.01 44.618 0.258 7.44 0.99 10.67
12/18/2021 6:45:00 AM 6.99 44.582 0.259 7.44 1.2 10.69
12/18/2021 7:00:00 AM 6.98 44.564 0.259 7.43 0.92 10.66
12/18/2021 7:15:00 AM 6.98 44.564 0.26 7.43 0.84 10.66
12/18/2021 7:30:00 AM 6.98 44.564 0.26 7.43 0.7 10.68
12/18/2021 7:45:00 AM 6.97 44.546 0.261 7.43 0.85 10.69
12/18/2021 8:00:00 AM 6.96 44.528 0.26 7.43 0.8 10.71
12/18/2021 8:15:00 AM 6.96 44.528 0.26 7.44 3.1 10.79
12/18/2021 8:30:00 AM 6.95 44.51 0.259 7.45 0.44 10.87
12/18/2021 8:45:00 AM 6.95 44.51 0.259 7.46 0.65 10.96
12/18/2021 9:00:00 AM 6.95 44.51 0.259 7.46 0.74 11.09
12/18/2021 9:15:00 AM 6.96 44.528 0.259 7.48 0.9 11.23
12/18/2021 9:30:00 AM 6.98 44.564 0.26 7.5 1.37 11.4
12/18/2021 9:45:00 AM 6.98 44.564 0.26 7.53 1.72 11.52
12/18/2021 10:00:00 AM 7 44.6 0.26 7.54 0.88 11.6
12/18/2021 10:15:00 AM 7.02 44.636 0.259 7.57 0.79 11.73
12/18/2021 10:30:00 AM 7.05 44.69 0.258 7.58 0.81 11.89
12/18/2021 10:45:00 AM 7.07 44.726 0.258 7.61 1.07 12.13
12/18/2021 11:00:00 AM 7.11 44.798 0.257 7.65 0.57 12.35
12/18/2021 11:15:00 AM 7.15 44.87 0.257 7.7 0.27 12.51
12/18/2021 11:30:00 AM 7.18 44.924 0.257 7.74 0.89 12.66
12/18/2021 11:45:00 AM 7.21 44.978 0.258 7.78 0.48 12.77
12/18/2021 12:00:00 PM 7.27 45.086 0.258 7.82 0.89 12.91
12/18/2021 12:15:00 PM 7.33 45.194 0.257 7.87 1.26 13.07
12/18/2021 12:30:00 PM 7.38 45.284 0.257 7.91 0.96 13.13
12/18/2021 12:45:00 PM 7.4 45.32 0.256 7.95 0.79 13.07
12/18/2021 1:00:00 PM 7.41 45.338 0.256 7.97 0.45 13.01
12/18/2021 1:15:00 PM 7.41 45.338 0.256 7.99 0.51 12.98
12/18/2021 1:30:00 PM 7.41 45.338 0.255 7.99 1 12.95
12/18/2021 1:45:00 PM 7.42 45.356 0.255 8.01 0.92 12.92
12/18/2021 2:00:00 PM 7.46 45.428 0.256 8.03 0.55 12.97
12/18/2021 2:15:00 PM 7.49 45.482 0.256 8.05 1.61 13
12/18/2021 2:30:00 PM 7.51 45.518 0.256 8.07 1.43 13
12/18/2021 2:45:00 PM 7.52 45.536 0.256 8.08 0.48 12.93
12/18/2021 3:00:00 PM 7.52 45.536 0.256 8.09 0.43 12.88
12/18/2021 3:15:00 PM 7.51 45.518 0.255 8.09 0.53 12.83
12/18/2021 3:30:00 PM 7.5 45.5 0.255 8.09 0.6 12.73
12/18/2021 3:45:00 PM 7.48 45.464 0.255 8.07 1.34 12.55
12/18/2021 4:00:00 PM 7.47 45.446 0.255 8.04 0.74 12.38
12/18/2021 4:15:00 PM 7.44 45.392 0.255 8.01 1.02 12.19
12/18/2021 4:30:00 PM 7.42 45.356 0.256 7.96 0.9 11.99
12/18/2021 4:45:00 PM 7.42 45.356 0.257 7.92 0.9 11.81
12/18/2021 5:00:00 PM 7.4 45.32 0.258 7.87 0.53 11.64
12/18/2021 5:15:00 PM 7.39 45.302 0.258 7.83 0.66 11.49
12/18/2021 5:30:00 PM 7.37 45.266 0.258 7.79 0.66 11.35
12/18/2021 5:45:00 PM 7.35 45.23 0.258 7.75 0.72 11.27
12/18/2021 6:00:00 PM 7.33 45.194 0.257 7.72 1.41 11.18
12/18/2021 6:15:00 PM 7.31 45.158 0.257 7.69 1.35 11.11
12/18/2021 6:30:00 PM 7.29 45.122 0.257 7.67 0.76 11.06
12/18/2021 6:45:00 PM 7.3 45.14 0.258 7.65 0.7 11.01
12/18/2021 7:00:00 PM 7.3 45.14 0.259 7.63 0.83 10.98
12/18/2021 7:15:00 PM 7.31 45.158 0.259 7.61 1.05 10.93
12/18/2021 7:30:00 PM 7.31 45.158 0.259 7.6 1.23 10.91
12/18/2021 7:45:00 PM 7.3 45.14 0.259 7.59 0.79 10.89
12/18/2021 8:00:00 PM 7.3 45.14 0.258 7.58 0.75 10.86
12/18/2021 8:15:00 PM 7.27 45.086 0.258 7.58 1.5 10.85
12/18/2021 8:30:00 PM 7.25 45.05 0.257 7.55 1.52 10.83
12/18/2021 8:45:00 PM 7.21 44.978 0.257 7.55 1.81 10.82
12/18/2021 9:00:00 PM 7.19 44.942 0.257 7.53 0.94 10.82
12/18/2021 9:15:00 PM 7.17 44.906 0.257 7.52 0.95 10.79
12/18/2021 9:30:00 PM 7.16 44.888 0.258 7.51 0.51 10.8
12/18/2021 9:45:00 PM 7.15 44.87 0.258 7.51 0.76 10.78
12/18/2021 10:00:00 PM 7.13 44.834 0.259 7.5 0.53 10.78
12/18/2021 10:15:00 PM 7.13 44.834 0.258 7.5 0.48 10.75
12/18/2021 10:30:00 PM 7.12 44.816 0.258 7.49 0.79 10.76
12/18/2021 10:45:00 PM 7.13 44.834 0.258 7.49 1.06 10.75
12/18/2021 11:00:00 PM 7.13 44.834 0.257 7.49 1.15 10.73
12/18/2021 11:15:00 PM 7.12 44.816 0.258 7.49 1.31 10.73
12/18/2021 11:30:00 PM 7.12 44.816 0.258 7.48 1.09 10.72
12/18/2021 11:45:00 PM 7.13 44.834 0.259 7.48 1.21 10.72
12/19/2021 12:00:00 AM 7.15 44.87 0.259 7.48 5.57 10.72
12/19/2021 12:15:00 AM 7.17 44.906 0.259 7.48 0.54 10.71
12/19/2021 12:30:00 AM 7.17 44.906 0.259 7.48 0.72 10.7
12/19/2021 12:45:00 AM 7.17 44.906 0.258 7.48 0.49 10.7
12/19/2021 1:00:00 AM 7.17 44.906 0.258 7.48 0.81 10.71
12/19/2021 1:15:00 AM 7.17 44.906 0.258 7.47 0.66 10.7
12/19/2021 1:30:00 AM 7.17 44.906 0.257 7.47 0.84 10.71
12/19/2021 1:45:00 AM 7.17 44.906 0.257 7.47 1.21 10.71
12/19/2021 2:00:00 AM 7.17 44.906 0.258 7.46 0.77 10.7
12/19/2021 2:15:00 AM 7.17 44.906 0.259 7.48 0.76 10.69
12/19/2021 2:30:00 AM 7.17 44.906 0.259 7.47 0.43 10.67
12/19/2021 2:45:00 AM 7.18 44.924 0.26 7.48 0.78 10.67
12/19/2021 3:00:00 AM 7.19 44.942 0.259 7.48 0.77 10.67
12/19/2021 3:15:00 AM 7.19 44.942 0.259 7.48 0.69 10.67
12/19/2021 3:30:00 AM 7.16 44.888 0.259 7.46 0.97 10.66
12/19/2021 3:45:00 AM 7.14 44.852 0.258 7.47 1.09 10.65
12/19/2021 4:00:00 AM 7.1 44.78 0.258 7.47 1.02 10.65
12/19/2021 4:15:00 AM 7.09 44.762 0.258 7.46 0.87 10.63
12/19/2021 4:30:00 AM 7.06 44.708 0.259 7.45 1.04 10.63
12/19/2021 4:45:00 AM 7.04 44.672 0.26 7.45 0.7 10.63
12/19/2021 5:00:00 AM 7.01 44.618 0.26 7.45 1.7 10.63
12/19/2021 5:15:00 AM 6.97 44.546 0.26 7.45 1.01 10.61
12/19/2021 5:30:00 AM 6.94 44.492 0.259 7.45 0.85 10.63
12/19/2021 5:45:00 AM 6.9 44.42 0.259 7.44 0.95 10.63
12/19/2021 6:00:00 AM 6.88 44.384 0.258 7.44 1 10.63
12/19/2021 6:15:00 AM 6.85 44.33 0.258 7.44 1.43 10.65
12/19/2021 6:30:00 AM 6.81 44.258 0.258 7.44 1.28 10.65
12/19/2021 6:45:00 AM 6.78 44.204 0.258 7.43 0.74 10.66
12/19/2021 7:00:00 AM 6.76 44.168 0.259 7.42 2.53 10.66
12/19/2021 7:15:00 AM 6.74 44.132 0.259 7.42 1.36 10.68
12/19/2021 7:30:00 AM 6.72 44.096 0.259 7.41 1.42 10.67
12/19/2021 7:45:00 AM 6.69 44.042 0.259 7.42 1.15 10.7
12/19/2021 8:00:00 AM 6.67 44.006 0.258 7.43 1 10.79
12/19/2021 8:15:00 AM 6.64 43.952 0.258 7.44 1.35 10.93
12/19/2021 8:30:00 AM 6.61 43.898 0.258 7.45 0.95 11.11
12/19/2021 8:45:00 AM 6.58 43.844 0.257 7.46 2.16 11.28
12/19/2021 9:00:00 AM 6.58 43.844 0.257 7.48 0.64 11.49
12/19/2021 9:15:00 AM 6.58 43.844 0.257 7.51 1.33 11.7
12/19/2021 9:30:00 AM 6.59 43.862 0.257 7.53 2.14 11.96
12/19/2021 9:45:00 AM 6.6 43.88 0.257 7.57 0.8 12.11
12/19/2021 10:00:00 AM 6.6 43.88 0.257 7.57 0.63 12.21
12/19/2021 10:15:00 AM 6.58 43.844 0.257 7.6 1.08 12.24
12/19/2021 10:30:00 AM 6.57 43.826 0.256 7.64 0.92 12.32
12/19/2021 10:45:00 AM 6.63 43.934 0.256 7.66 0.72 12.53
12/19/2021 11:00:00 AM 6.71 44.078 0.255 7.71 0.7 12.78
12/19/2021 11:15:00 AM 6.76 44.168 0.255 7.76 0.44 12.96
12/19/2021 11:30:00 AM 6.76 44.168 0.255 7.8 1.06 13
12/19/2021 11:45:00 AM 6.76 44.168 0.255 7.84 0.91 13.03
12/19/2021 12:00:00 PM 6.76 44.168 0.255 7.87 0.68 13.05
12/19/2021 12:15:00 PM 6.77 44.186 0.255 7.91 0.72 13.1
12/19/2021 12:30:00 PM 6.79 44.222 0.255 7.94 0.56 13.18
12/19/2021 12:45:00 PM 6.82 44.276 0.255 7.97 1.34 13.23
12/19/2021 1:00:00 PM 6.84 44.312 0.255 8 0.67 13.3
12/19/2021 1:15:00 PM 6.85 44.33 0.254 8.03 0.65 13.32
12/19/2021 1:30:00 PM 6.88 44.384 0.254 8.05 0.95 13.34
12/19/2021 1:45:00 PM 6.89 44.402 0.254 8.07 0.78 13.35
12/19/2021 2:00:00 PM 6.87 44.366 0.254 8.1 0.57 13.35
12/19/2021 2:15:00 PM 6.87 44.366 0.255 8.11 0.67 13.31
12/19/2021 2:30:00 PM 6.87 44.366 0.255 8.12 0.78 13.25
12/19/2021 2:45:00 PM 6.87 44.366 0.255 8.12 0.78 13.24
12/19/2021 3:00:00 PM 6.84 44.312 0.255 8.12 0.65 13.15
12/19/2021 3:15:00 PM 6.78 44.204 0.254 8.12 0.78 13
12/19/2021 3:30:00 PM 6.73 44.114 0.254 8.1 0.76 12.91
12/19/2021 3:45:00 PM 6.68 44.024 0.254 8.08 0.5 12.78
12/19/2021 4:00:00 PM 6.61 43.898 0.254 8.05 0.58 12.64
12/19/2021 4:15:00 PM 6.55 43.79 0.254 8.02 0.66 12.45
12/19/2021 4:30:00 PM 6.49 43.682 0.255 7.98 1.12 12.31
12/19/2021 4:45:00 PM 6.45 43.61 0.256 7.93 2.72 12.13
12/19/2021 5:00:00 PM 6.4 43.52 0.257 7.89 1.12 11.98
12/19/2021 5:15:00 PM 6.35 43.43 0.257 7.85 0.71 11.85
12/19/2021 5:30:00 PM 6.31 43.358 0.257 7.8 1.25 11.72
12/19/2021 5:45:00 PM 6.25 43.25 0.257 7.77 0.45 11.64
12/19/2021 6:00:00 PM 6.2 43.16 0.256 7.73 0.91 11.56
12/19/2021 6:15:00 PM 6.14 43.052 0.256 7.71 1.18 11.52
12/19/2021 6:30:00 PM 6.09 42.962 0.256 7.68 0.66 11.47
12/19/2021 6:45:00 PM 6.05 42.89 0.256 7.66 1.32 11.43
12/19/2021 7:00:00 PM 6 42.8 0.257 7.64 2.45 11.4
12/19/2021 7:15:00 PM 5.95 42.71 0.257 7.62 0.77 11.38
12/19/2021 7:30:00 PM 5.9 42.62 0.258 7.6 0.47 11.37
12/19/2021 7:45:00 PM 5.86 42.548 0.257 7.59 1.59 11.37
12/19/2021 8:00:00 PM 5.81 42.458 0.257 7.58 0.32 11.35
12/19/2021 8:15:00 PM 5.76 42.368 0.257 7.57 0.73 11.37
12/19/2021 8:30:00 PM 5.72 42.296 0.256 7.56 0.57 11.35
12/19/2021 8:45:00 PM 5.67 42.206 0.256 7.55 0.39 11.35
12/19/2021 9:00:00 PM 5.62 42.116 0.256 7.54 0.56 11.36
12/19/2021 9:15:00 PM 5.57 42.026 0.256 7.54 0.58 11.36
12/19/2021 9:30:00 PM 5.52 41.936 0.257 7.53 1.79 11.37
12/19/2021 9:45:00 PM 5.48 41.864 0.257 7.52 1.01 11.37
12/19/2021 10:00:00 PM 5.43 41.774 0.257 7.52 0.81 11.38
12/19/2021 10:15:00 PM 5.39 41.702 0.258 7.52 0.67 11.39
12/19/2021 10:30:00 PM 5.35 41.63 0.257 7.51 0.86 11.39
12/19/2021 10:45:00 PM 5.31 41.558 0.257 7.51 0.67 11.41
12/19/2021 11:00:00 PM 5.28 41.504 0.257 7.52 0.85 11.41
12/19/2021 11:15:00 PM 5.24 41.432 0.256 7.51 1.66 11.41
12/19/2021 11:30:00 PM 5.22 41.396 0.257 7.51 0.46 11.41
12/19/2021 11:45:00 PM 5.18 41.324 0.258 7.5 1.92 11.42
12/20/2021 12:00:00 AM 5.15 41.27 0.258 7.51 0.9 11.43
12/20/2021 12:15:00 AM 5.11 41.198 0.258 7.51 0.81 11.43
12/20/2021 12:30:00 AM 5.08 41.144 0.258 7.51 0.49 11.44
12/20/2021 12:45:00 AM 5.05 41.09 0.258 7.51 0.68 11.46
12/20/2021 1:00:00 AM 5.02 41.036 0.258 7.51 0.94 11.47
12/20/2021 1:15:00 AM 4.99 40.982 0.257 7.51 3.02 11.48
12/20/2021 1:30:00 AM 4.96 40.928 0.257 7.51 0.44 11.48
12/20/2021 1:45:00 AM 4.94 40.892 0.257 7.5 0.81 11.47
12/20/2021 2:00:00 AM 4.91 40.838 0.257 7.51 0.27 11.49
12/20/2021 2:15:00 AM 4.87 40.766 0.258 7.51 1.17 11.5
12/20/2021 2:30:00 AM 4.83 40.694 0.259 7.5 0.85 11.51
12/20/2021 2:45:00 AM 4.8 40.64 0.259 7.51 0.93 11.51
12/20/2021 3:00:00 AM 4.75 40.55 0.26 7.5 1.04 11.53
12/20/2021 3:15:00 AM 4.71 40.478 0.259 7.5 0.74 11.54
12/20/2021 3:30:00 AM 4.67 40.406 0.259 7.5 0.77 11.55
12/20/2021 3:45:00 AM 4.63 40.334 0.259 7.49 0.96 11.57
12/20/2021 4:00:00 AM 4.59 40.262 0.259 7.49 0.88 11.57
12/20/2021 4:15:00 AM 4.56 40.208 0.259 7.48 1.08 11.58
12/20/2021 4:30:00 AM 4.51 40.118 0.26 7.49 0.72 11.59
12/20/2021 4:45:00 AM 4.46 40.028 0.26 7.48 0.86 11.59
12/20/2021 5:00:00 AM 4.42 39.956 0.261 7.47 1.28 11.63
12/20/2021 5:15:00 AM 4.38 39.884 0.261 7.46 0.55 11.63
12/20/2021 5:30:00 AM 4.34 39.812 0.26 7.47 1.18 11.65
12/20/2021 5:45:00 AM 4.29 39.722 0.26 7.47 1.15 11.65
12/20/2021 6:00:00 AM 4.27 39.686 0.26 7.48 1.38 11.65
12/20/2021 6:15:00 AM 4.22 39.596 0.259 7.46 0.93 11.67
12/20/2021 6:30:00 AM 4.2 39.56 0.259 7.47 1.27 11.68
12/20/2021 6:45:00 AM 4.17 39.506 0.259 7.46 1.07 11.7
12/20/2021 7:00:00 AM 4.12 39.416 0.26 7.46 0.8 11.71
12/20/2021 7:15:00 AM 4.08 39.344 0.26 7.47 2.38 11.74
12/20/2021 7:30:00 AM 4.03 39.254 0.261 7.47 0.94 11.77
12/20/2021 7:45:00 AM 4 39.2 0.26 7.47 0.57 11.83
12/20/2021 8:00:00 AM 3.98 39.164 0.26 7.47 0.97 11.93
12/20/2021 8:15:00 AM 3.96 39.128 0.26 7.48 1.05 12.03
12/20/2021 8:30:00 AM 3.96 39.128 0.259 7.5 0.32 12.2
12/20/2021 8:45:00 AM 3.96 39.128 0.259 7.51 0.27 12.35
12/20/2021 9:00:00 AM 3.98 39.164 0.258 7.52 0.53 12.51
12/20/2021 9:15:00 AM 4.02 39.236 0.258 7.55 1.08 12.7
12/20/2021 9:30:00 AM 4.05 39.29 0.259 7.57 0.33 12.9
12/20/2021 9:45:00 AM 4.1 39.38 0.259 7.6 0.87 13.07
12/20/2021 10:00:00 AM 4.14 39.452 0.258 7.62 0.34 13.23
12/20/2021 10:15:00 AM 4.21 39.578 0.258 7.65 0.58 13.34
12/20/2021 10:30:00 AM 4.29 39.722 0.258 7.68 0.35 13.45
12/20/2021 10:45:00 AM 4.34 39.812 0.257 7.72 0.82 13.55
12/20/2021 11:00:00 AM 4.42 39.956 0.257 7.75 0.41 13.62
12/20/2021 11:15:00 AM 4.52 40.136 0.257 7.77 0.55 13.67
12/20/2021 11:30:00 AM 4.58 40.244 0.257 7.8 2.08 13.75
12/20/2021 11:45:00 AM 4.67 40.406 0.256 7.82 0.92 13.79
12/20/2021 12:00:00 PM 4.73 40.514 0.257 7.85 0.73 13.86
12/20/2021 12:15:00 PM 4.79 40.622 0.257 7.87 0.51 13.89
12/20/2021 12:30:00 PM 4.87 40.766 0.257 7.9 0.57 13.9
12/20/2021 12:45:00 PM 4.92 40.856 0.257 7.92 0.83 13.93
12/20/2021 1:00:00 PM 4.96 40.928 0.256 7.94 0.32 13.93
12/20/2021 1:15:00 PM 5.01 41.018 0.256 7.96 0.31 13.92
12/20/2021 1:30:00 PM 5.06 41.108 0.256 7.97 0.57 13.88
12/20/2021 1:45:00 PM 5.08 41.144 0.256 7.98 0.6 13.86
12/20/2021 2:00:00 PM 5.09 41.162 0.256 7.99 0.57 13.81
12/20/2021 2:15:00 PM 5.07 41.126 0.257 7.99 0.55 13.76
12/20/2021 2:30:00 PM 5.06 41.108 0.257 7.98 0.74 13.71
12/20/2021 2:45:00 PM 5.02 41.036 0.257 7.99 0.46 13.65
12/20/2021 3:00:00 PM 5.01 41.018 0.257 7.98 0.59 13.58
12/20/2021 3:15:00 PM 4.96 40.928 0.257 7.98 0.46 13.5
12/20/2021 3:30:00 PM 4.94 40.892 0.256 7.96 0.58 13.4
12/20/2021 3:45:00 PM 4.89 40.802 0.256 7.94 0.91 13.28
12/20/2021 4:00:00 PM 4.88 40.784 0.256 7.93 1.03 13.13
12/20/2021 4:15:00 PM 4.84 40.712 0.256 7.89 0.5 12.99
12/20/2021 4:30:00 PM 4.81 40.658 0.257 7.86 0.31 12.87
12/20/2021 4:45:00 PM 4.76 40.568 0.257 7.83 0.82 12.74
12/20/2021 5:00:00 PM 4.71 40.478 0.258 7.79 4.16 12.61
12/20/2021 5:15:00 PM 4.68 40.424 0.258 7.76 0.54 12.47
12/20/2021 5:30:00 PM 4.62 40.316 0.258 7.74 0.53 12.39
12/20/2021 5:45:00 PM 4.58 40.244 0.258 7.7 0.27 12.3
12/20/2021 6:00:00 PM 4.51 40.118 0.257 7.68 0.35 12.27
12/20/2021 6:15:00 PM 4.48 40.064 0.257 7.65 0.43 12.19
12/20/2021 6:30:00 PM 4.45 40.01 0.257 7.64 0.55 12.15
12/20/2021 6:45:00 PM 4.41 39.938 0.257 7.62 0.83 12.12
12/20/2021 7:00:00 PM 4.34 39.812 0.258 7.61 0.51 12.11
12/20/2021 7:15:00 PM 4.28 39.704 0.259 7.59 0.44 12.1
12/20/2021 7:30:00 PM 4.23 39.614 0.259 7.58 1.35 12.07
12/20/2021 7:45:00 PM 4.18 39.524 0.258 7.58 0.93 12.09
12/20/2021 8:00:00 PM 4.15 39.47 0.258 7.56 0.45 12.08
12/20/2021 8:15:00 PM 4.1 39.38 0.258 7.55 0.67 12.05
12/20/2021 8:30:00 PM 4.06 39.308 0.257 7.55 1.14 12.06
12/20/2021 8:45:00 PM 4.03 39.254 0.257 7.54 0.78 12.06
12/20/2021 9:00:00 PM 4 39.2 0.257 7.54 0.73 12.06
12/20/2021 9:15:00 PM 3.96 39.128 0.257 7.54 1.39 12.05
12/20/2021 9:30:00 PM 3.92 39.056 0.258 7.52 0.54 12.06
12/20/2021 9:45:00 PM 3.88 38.984 0.259 7.52 1.22 12.06
12/20/2021 10:00:00 PM 3.85 38.93 0.259 7.51 1.14 12.05
12/20/2021 10:15:00 PM 3.83 38.894 0.258 7.51 0.94 12.07
12/20/2021 10:30:00 PM 3.79 38.822 0.258 7.51 0.79 12.07
12/20/2021 10:45:00 PM 3.79 38.822 0.258 7.5 0.92 12.06
12/20/2021 11:00:00 PM 3.78 38.804 0.258 7.51 0.68 12.06
12/20/2021 11:15:00 PM 3.78 38.804 0.257 7.5 0.84 12.03
12/20/2021 11:30:00 PM 3.76 38.768 0.257 7.48 0.56 12.05
12/20/2021 11:45:00 PM 3.75 38.75 0.258 7.47 0.68 12.04
12/21/2021 12:00:00 AM 3.75 38.75 0.259 7.49 0.71 12.02
12/21/2021 12:15:00 AM 3.72 38.696 0.259 7.48 0.77 12.05
12/21/2021 12:30:00 AM 3.71 38.678 0.258 7.48 0.53 12.04
12/21/2021 12:45:00 AM 3.7 38.66 0.258 7.48 0.63 12.02
12/21/2021 1:00:00 AM 3.7 38.66 0.258 7.48 0.54 12.03
12/21/2021 1:15:00 AM 3.7 38.66 0.257 7.48 0.5 12.02
12/21/2021 1:30:00 AM 3.69 38.642 0.257 7.48 0.58 12.03
12/21/2021 1:45:00 AM 3.7 38.66 0.257 7.48 0.64 12.03
12/21/2021 2:00:00 AM 3.7 38.66 0.257 7.49 0.48 12.01
12/21/2021 2:15:00 AM 3.66 38.588 0.258 7.48 0.59 12.03
12/21/2021 2:30:00 AM 3.66 38.588 0.259 7.49 0.81 12.03
12/21/2021 2:45:00 AM 3.63 38.534 0.26 7.49 0.68 12.02
12/21/2021 3:00:00 AM 3.6 38.48 0.259 7.49 0.64 12.04
12/21/2021 3:15:00 AM 3.58 38.444 0.259 7.49 2.17 12.05
12/21/2021 3:30:00 AM 3.57 38.426 0.259 7.48 0.66 12.04
12/21/2021 3:45:00 AM 3.55 38.39 0.259 7.49 0.43 12.03
12/21/2021 4:00:00 AM 3.55 38.39 0.259 7.49 1.05 12.05
12/21/2021 4:15:00 AM 3.48 38.264 0.259 7.48 0.74 12.05
12/21/2021 4:30:00 AM 3.45 38.21 0.26 7.49 0.65 12.06
12/21/2021 4:45:00 AM 3.41 38.138 0.261 7.48 1.77 12.06
12/21/2021 5:00:00 AM 3.36 38.048 0.261 7.49 1.16 12.09
12/21/2021 5:15:00 AM 3.36 38.048 0.261 7.49 0.86 12.06
12/21/2021 5:30:00 AM 3.34 38.012 0.261 7.48 0.79 12.09
12/21/2021 5:45:00 AM 3.32 37.976 0.261 7.49 0.56 12.08
12/21/2021 6:00:00 AM 3.27 37.886 0.26 7.46 0.71 12.11
12/21/2021 6:15:00 AM 3.27 37.886 0.26 7.47 0.59 12.1
12/21/2021 6:30:00 AM 3.25 37.85 0.259 7.48 1.11 12.1
12/21/2021 6:45:00 AM 3.25 37.85 0.259 7.48 0.69 12.1
12/21/2021 7:00:00 AM 3.21 37.778 0.261 7.48 0.77 12.12
12/21/2021 7:15:00 AM 3.19 37.742 0.261 7.48 0.85 12.12
12/21/2021 7:30:00 AM 3.14 37.652 0.261 7.47 0.65 12.16
12/21/2021 7:45:00 AM 3.16 37.688 0.261 7.48 0.37 12.18
12/21/2021 8:00:00 AM 3.14 37.652 0.261 7.48 1.64 12.29
12/21/2021 8:15:00 AM 3.12 37.616 0.26 7.49 0.41 12.44
12/21/2021 8:30:00 AM 3.15 37.67 0.26 7.51 0.56 12.59
12/21/2021 8:45:00 AM 3.17 37.706 0.259 7.51 0.61 12.79
12/21/2021 9:00:00 AM 3.22 37.796 0.259 7.52 1.25 12.98
12/21/2021 9:15:00 AM 3.23 37.814 0.259 7.55 0.34 13.15
12/21/2021 9:30:00 AM 3.29 37.922 0.26 7.57 0.95 13.33
12/21/2021 9:45:00 AM 3.28 37.904 0.26 7.61 0.47 13.51
12/21/2021 10:00:00 AM 3.35 38.03 0.259 7.64 0.1 13.64
12/21/2021 10:15:00 AM 3.36 38.048 0.259 7.66 0.47 13.77
12/21/2021 10:30:00 AM 3.42 38.156 0.259 7.7 0.4 13.87
12/21/2021 10:45:00 AM 3.47 38.246 0.259 7.73 0.8 13.96
12/21/2021 11:00:00 AM 3.56 38.408 0.259 7.76 0.66 14.03
12/21/2021 11:15:00 AM 3.64 38.552 0.258 7.78 0.24 14.1
12/21/2021 11:30:00 AM 3.73 38.714 0.258 7.83 0.39 14.15
12/21/2021 11:45:00 AM 3.8 38.84 0.258 7.85 0.5 14.22
12/21/2021 12:00:00 PM 3.89 39.002 0.258 7.87 0.38 14.23
12/21/2021 12:15:00 PM 3.92 39.056 0.259 7.9 0.59 14.27
12/21/2021 12:30:00 PM 3.99 39.182 0.258 7.91 0.5 14.27
12/21/2021 12:45:00 PM 3.98 39.164 0.258 7.93 0.42 14.27
12/21/2021 1:00:00 PM 4.04 39.272 0.258 7.95 0.43 14.27
12/21/2021 1:15:00 PM 4.03 39.254 0.258 7.96 0.6 14.25
12/21/2021 1:30:00 PM 4.1 39.38 0.258 7.97 0.39 14.23
12/21/2021 1:45:00 PM 4.1 39.38 0.258 7.98 0.81 14.2
12/21/2021 2:00:00 PM 4.13 39.434 0.258 7.99 1.18 14.18
12/21/2021 2:15:00 PM 4.13 39.434 0.259 8 0.61 14.15
12/21/2021 2:30:00 PM 4.17 39.506 0.259 8 0.26 14.12
12/21/2021 2:45:00 PM 4.14 39.452 0.259 8.01 0.53 14.08
12/21/2021 3:00:00 PM 4.16 39.488 0.258 8 0.35 14.01
12/21/2021 3:15:00 PM 4.17 39.506 0.258 8 0.42 13.92
12/21/2021 3:30:00 PM 4.17 39.506 0.258 7.99 0.62 13.82
12/21/2021 3:45:00 PM 4.15 39.47 0.257 7.97 0.39 13.72
12/21/2021 4:00:00 PM 4.14 39.452 0.257 7.96 0.75 13.59
12/21/2021 4:15:00 PM 4.15 39.47 0.257 7.94 0.55 13.42
12/21/2021 4:30:00 PM 4.12 39.416 0.258 7.9 1.71 13.25
12/21/2021 4:45:00 PM 4.06 39.308 0.259 7.87 0.42 13.08
12/21/2021 5:00:00 PM 4.07 39.326 0.259 7.84 0.53 12.89
12/21/2021 5:15:00 PM 4.01 39.218 0.26 7.81 0.74 12.77
12/21/2021 5:30:00 PM 4.03 39.254 0.259 7.76 0.2 12.62
12/21/2021 5:45:00 PM 4.02 39.236 0.259 7.73 0.69 12.54
12/21/2021 6:00:00 PM 3.98 39.164 0.258 7.71 0.88 12.48
12/21/2021 6:15:00 PM 4.06 39.308 0.258 7.69 0.29 12.39
12/21/2021 6:30:00 PM 4.04 39.272 0.258 7.66 0.19 12.33
12/21/2021 6:45:00 PM 4.06 39.308 0.258 7.64 0.5 12.29
12/21/2021 7:00:00 PM 4.04 39.272 0.259 7.62 0.43 12.27
12/21/2021 7:15:00 PM 4.06 39.308 0.259 7.62 0.06 12.23
12/21/2021 7:30:00 PM 4.03 39.254 0.259 7.61 0.31 12.2
12/21/2021 7:45:00 PM 4.06 39.308 0.259 7.6 0.19 12.17
12/21/2021 8:00:00 PM 4.05 39.29 0.258 7.59 1.28 12.15
12/21/2021 8:15:00 PM 4.06 39.308 0.258 7.58 0.6 12.12
12/21/2021 8:30:00 PM 4.05 39.29 0.258 7.56 1.02 12.12
12/21/2021 8:45:00 PM 4.07 39.326 0.257 7.56 0.33 12.1
12/21/2021 9:00:00 PM 4.05 39.29 0.257 7.56 0.22 12.07
12/21/2021 9:15:00 PM 4.1 39.38 0.258 7.55 0.3 12.08
12/21/2021 9:30:00 PM 4.1 39.38 0.258 7.54 0.42 12.04
12/21/2021 9:45:00 PM 4.1 39.38 0.259 7.54 1.05 12.03
12/21/2021 10:00:00 PM 4.11 39.398 0.259 7.54 0.18 12.02
12/21/2021 10:15:00 PM 4.11 39.398 0.259 7.54 0.18 12.02
12/21/2021 10:30:00 PM 4.09 39.362 0.258 7.53 0.86 12
12/21/2021 10:45:00 PM 4.11 39.398 0.258 7.53 0.35 11.99
12/21/2021 11:00:00 PM 4.14 39.452 0.258 7.53 0.38 11.97
12/21/2021 11:15:00 PM 4.17 39.506 0.257 7.53 0.27 11.95
12/21/2021 11:30:00 PM 4.16 39.488 0.258 7.51 0.19 11.92
12/21/2021 11:45:00 PM 4.17 39.506 0.259 7.51 0.48 11.93
12/22/2021 12:00:00 AM 4.13 39.434 0.259 7.52 0.34 11.94
12/22/2021 12:15:00 AM 4.17 39.506 0.259 7.53 0.39 11.91
12/22/2021 12:30:00 AM 4.18 39.524 0.259 7.52 0.93 11.9
12/22/2021 12:45:00 AM 4.16 39.488 0.258 7.52 0.53 11.9
12/22/2021 1:00:00 AM 4.15 39.47 0.258 7.51 1.12 11.9
12/22/2021 1:15:00 AM 4.18 39.524 0.257 7.51 0.7 11.88
12/22/2021 1:30:00 AM 4.2 39.56 0.257 7.52 0.75 11.88
12/22/2021 1:45:00 AM 4.21 39.578 0.257 7.53 1.52 11.84
12/22/2021 2:00:00 AM 4.21 39.578 0.257 7.52 0.49 11.84
12/22/2021 2:15:00 AM 4.25 39.65 0.258 7.51 0.72 11.82
12/22/2021 2:30:00 AM 4.24 39.632 0.259 7.51 0.45 11.8
12/22/2021 2:45:00 AM 4.25 39.65 0.259 7.51 0.44 11.81
12/22/2021 3:00:00 AM 4.21 39.578 0.259 7.51 0.52 11.8
12/22/2021 3:15:00 AM 4.2 39.56 0.259 7.52 0.55 11.79
12/22/2021 3:30:00 AM 4.14 39.452 0.258 7.5 0.4 11.8
12/22/2021 3:45:00 AM 4.14 39.452 0.258 7.51 0.44 11.79
12/22/2021 4:00:00 AM 4.07 39.326 0.258 7.5 0.6 11.78
12/22/2021 4:15:00 AM 4.06 39.308 0.258 7.5 0.4 11.76
12/22/2021 4:30:00 AM 4.01 39.218 0.259 7.51 0.78 11.77
12/22/2021 4:45:00 AM 4.02 39.236 0.26 7.51 0.62 11.77
12/22/2021 5:00:00 AM 3.99 39.182 0.26 7.5 0.94 11.76
12/22/2021 5:15:00 AM 3.98 39.164 0.26 7.48 0.78 11.76
12/22/2021 5:30:00 AM 3.99 39.182 0.259 7.48 0.81 11.77
12/22/2021 5:45:00 AM 3.96 39.128 0.259 7.49 0.62 11.76
12/22/2021 6:00:00 AM 3.97 39.146 0.259 7.49 0.89 11.75
12/22/2021 6:15:00 AM 3.94 39.092 0.259 7.5 1.41 11.74
12/22/2021 6:30:00 AM 3.94 39.092 0.258 7.49 0.79 11.73
12/22/2021 6:45:00 AM 3.97 39.146 0.258 7.49 0.57 11.73
12/22/2021 7:00:00 AM 3.96 39.128 0.259 7.49 0.95 11.72
12/22/2021 7:15:00 AM 3.92 39.056 0.26 7.48 0.57 11.74
12/22/2021 7:30:00 AM 3.93 39.074 0.26 7.49 0.38 11.75
12/22/2021 7:45:00 AM 3.9 39.02 0.26 7.49 0.61 11.78
12/22/2021 8:00:00 AM 3.88 38.984 0.259 7.5 0.32 11.82
12/22/2021 8:15:00 AM 3.89 39.002 0.259 7.51 1.39 11.92
12/22/2021 8:30:00 AM 3.91 39.038 0.258 7.51 1.03 12.07
12/22/2021 8:45:00 AM 3.95 39.11 0.258 7.52 0.61 12.27
12/22/2021 9:00:00 AM 3.97 39.146 0.258 7.54 1.18 12.41
12/22/2021 9:15:00 AM 3.97 39.146 0.258 7.55 0.77 12.53
12/22/2021 9:30:00 AM 4.02 39.236 0.258 7.58 0.44 12.69
12/22/2021 9:45:00 AM 4.03 39.254 0.258 7.6 0.74 12.83
12/22/2021 10:00:00 AM 4.08 39.344 0.258 7.62 0.83 13
12/22/2021 10:15:00 AM 4.13 39.434 0.258 7.64 0.23 13.17
12/22/2021 10:30:00 AM 4.23 39.614 0.257 7.68 0.13 13.35
12/22/2021 10:45:00 AM 4.32 39.776 0.257 7.72 0.71 13.47
12/22/2021 11:00:00 AM 4.42 39.956 0.256 7.75 0.66 13.58
12/22/2021 11:15:00 AM 4.51 40.118 0.256 7.78 0.3 13.63
12/22/2021 11:30:00 AM 4.57 40.226 0.256 7.81 0.72 13.66
12/22/2021 11:45:00 AM 4.62 40.316 0.256 7.83 1.39 13.71
12/22/2021 12:00:00 PM 4.75 40.55 0.257 7.86 0.85 13.79
12/22/2021 12:15:00 PM 4.77 40.586 0.257 7.9 0.42 13.79
12/22/2021 12:30:00 PM 4.87 40.766 0.257 7.92 0.67 13.81
12/22/2021 12:45:00 PM 4.96 40.928 0.256 7.94 0.4 13.81
12/22/2021 1:00:00 PM 4.99 40.982 0.256 7.96 0.53 13.79
12/22/2021 1:15:00 PM 5 41 0.256 7.98 0.8 13.77
12/22/2021 1:30:00 PM 5.02 41.036 0.256 7.99 0.52 13.75
12/22/2021 1:45:00 PM 5.02 41.036 0.256 8 0.53 13.72
12/22/2021 2:00:00 PM 5.03 41.054 0.257 8 0.21 13.67
12/22/2021 2:15:00 PM 5.03 41.054 0.257 8.01 0.57 13.64
12/22/2021 2:30:00 PM 5 41 0.257 8.02 0.4 13.58
12/22/2021 2:45:00 PM 4.98 40.964 0.257 8.02 0.28 13.54
12/22/2021 3:00:00 PM 4.94 40.892 0.257 8.02 0.96 13.49
12/22/2021 3:15:00 PM 4.89 40.802 0.257 8.01 1.58 13.39
12/22/2021 3:30:00 PM 4.83 40.694 0.256 7.99 1.06 13.3
12/22/2021 3:45:00 PM 4.78 40.604 0.256 7.97 0.56 13.19
12/22/2021 4:00:00 PM 4.73 40.514 0.256 7.95 0.69 13.04
12/22/2021 4:15:00 PM 4.68 40.424 0.256 7.92 0.59 12.91
12/22/2021 4:30:00 PM 4.64 40.352 0.257 7.9 0.65 12.77
12/22/2021 4:45:00 PM 4.61 40.298 0.258 7.86 0.48 12.61
12/22/2021 5:00:00 PM 4.56 40.208 0.258 7.83 0.89 12.47
12/22/2021 5:15:00 PM 4.53 40.154 0.258 7.79 1.25 12.35
12/22/2021 5:30:00 PM 4.47 40.046 0.258 7.77 0.56 12.24
12/22/2021 5:45:00 PM 4.43 39.974 0.258 7.73 1.42 12.17
12/22/2021 6:00:00 PM 4.4 39.92 0.258 7.7 0.52 12.1
12/22/2021 6:15:00 PM 4.35 39.83 0.257 7.68 0.31 12.06
12/22/2021 6:30:00 PM 4.3 39.74 0.257 7.65 0.52 12.02
12/22/2021 6:45:00 PM 4.26 39.668 0.258 7.65 0.41 11.99
12/22/2021 7:00:00 PM 4.22 39.596 0.259 7.63 0.63 11.98
12/22/2021 7:15:00 PM 4.15 39.47 0.259 7.61 0.16 11.96
12/22/2021 7:30:00 PM 4.09 39.362 0.259 7.58 0.69 11.94
12/22/2021 7:45:00 PM 4.05 39.29 0.259 7.59 0.54 11.95
12/22/2021 8:00:00 PM 4 39.2 0.259 7.59 0.61 11.94
12/22/2021 8:15:00 PM 3.95 39.11 0.259 7.57 0.48 11.94
12/22/2021 8:30:00 PM 3.91 39.038 0.259 7.56 2.07 11.93
12/22/2021 8:45:00 PM 3.87 38.966 0.258 7.55 0.75 11.94
12/22/2021 9:00:00 PM 3.84 38.912 0.258 7.55 0.4 11.95
12/22/2021 9:15:00 PM 3.8 38.84 0.259 7.54 0.43 11.96
12/22/2021 9:30:00 PM 3.78 38.804 0.259 7.54 0.25 11.96
12/22/2021 9:45:00 PM 3.78 38.804 0.259 7.53 1.01 11.95
12/22/2021 10:00:00 PM 3.75 38.75 0.259 7.53 1.85 11.95
12/22/2021 10:15:00 PM 3.75 38.75 0.259 7.53 1.19 11.96
12/22/2021 10:30:00 PM 3.74 38.732 0.259 7.53 0.55 11.96
12/22/2021 10:45:00 PM 3.71 38.678 0.26 7.52 0.84 11.95
12/22/2021 11:00:00 PM 3.72 38.696 0.259 7.51 0.76 11.94
12/22/2021 11:15:00 PM 3.7 38.66 0.259 7.51 0.94 11.94
12/22/2021 11:30:00 PM 3.68 38.624 0.26 7.5 0.92 11.95
12/22/2021 11:45:00 PM 3.68 38.624 0.26 7.5 0.67 11.96
12/23/2021 12:00:00 AM 3.65 38.57 0.26 7.51 0.82 11.96
12/23/2021 12:15:00 AM 3.65 38.57 0.26 7.51 0.7 11.95
12/23/2021 12:30:00 AM 3.63 38.534 0.26 7.51 0.67 11.96
12/23/2021 12:45:00 AM 3.6 38.48 0.26 7.51 0.4 11.96
12/23/2021 1:00:00 AM 3.59 38.462 0.259 7.51 0.58 11.97
12/23/2021 1:15:00 AM 3.56 38.408 0.259 7.5 0.35 11.96
12/23/2021 1:30:00 AM 3.55 38.39 0.259 7.51 0.41 11.97
12/23/2021 1:45:00 AM 3.56 38.408 0.258 7.51 0.65 11.96
12/23/2021 2:00:00 AM 3.53 38.354 0.259 7.48 0.41 11.96
12/23/2021 2:15:00 AM 3.5 38.3 0.26 7.48 0.39 11.98
12/23/2021 2:30:00 AM 3.48 38.264 0.26 7.47 0.66 11.98
12/23/2021 2:45:00 AM 3.46 38.228 0.261 7.48 1.2 12.01
12/23/2021 3:00:00 AM 3.43 38.174 0.261 7.48 0.52 12.01
12/23/2021 3:15:00 AM 3.41 38.138 0.26 7.49 0.7 12.01
12/23/2021 3:30:00 AM 3.39 38.102 0.26 7.47 0.54 12.02
12/23/2021 3:45:00 AM 3.39 38.102 0.26 7.5 0.59 11.99
12/23/2021 4:00:00 AM 3.38 38.084 0.259 7.48 1.24 12.02
12/23/2021 4:15:00 AM 3.36 38.048 0.26 7.48 0.62 12.03
12/23/2021 4:30:00 AM 3.32 37.976 0.261 7.48 0.58 12.04
12/23/2021 4:45:00 AM 3.3 37.94 0.261 7.48 0.97 12.04
12/23/2021 5:00:00 AM 3.26 37.868 0.262 7.49 0.37 12.05
12/23/2021 5:15:00 AM 3.23 37.814 0.261 7.47 0.88 12.06
12/23/2021 5:30:00 AM 3.19 37.742 0.261 7.48 0.51 12.08
12/23/2021 5:45:00 AM 3.16 37.688 0.26 7.49 1.2 12.08
12/23/2021 6:00:00 AM 3.16 37.688 0.26 7.47 0.56 12.07
12/23/2021 6:15:00 AM 3.13 37.634 0.26 7.48 0.97 12.09
12/23/2021 6:30:00 AM 3.1 37.58 0.259 7.48 0.87 12.1
12/23/2021 6:45:00 AM 3.09 37.562 0.259 7.47 0.63 12.1
12/23/2021 7:00:00 AM 3.05 37.49 0.26 7.47 1.43 12.11
12/23/2021 7:15:00 AM 3.02 37.436 0.261 7.48 0.59 12.13
12/23/2021 7:30:00 AM 2.98 37.364 0.261 7.47 0.53 12.17
12/23/2021 7:45:00 AM 2.94 37.292 0.261 7.48 0.44 12.23
12/23/2021 8:00:00 AM 2.93 37.274 0.26 7.47 0.59 12.32
12/23/2021 8:15:00 AM 2.92 37.256 0.26 7.48 1.07 12.45
12/23/2021 8:30:00 AM 2.91 37.238 0.259 7.48 0.73 12.59
12/23/2021 8:45:00 AM 2.92 37.256 0.259 7.5 1 12.74
12/23/2021 9:00:00 AM 2.96 37.328 0.258 7.51 0.85 12.89
12/23/2021 9:15:00 AM 3.01 37.418 0.258 7.53 1.26 13.08
12/23/2021 9:30:00 AM 3.05 37.49 0.259 7.56 1.57 13.25
12/23/2021 9:45:00 AM 3.1 37.58 0.259 7.58 0.89 13.4
12/23/2021 10:00:00 AM 3.14 37.652 0.258 7.61 0.37 13.54
12/23/2021 10:15:00 AM 3.18 37.724 0.258 7.63 0.44 13.65
12/23/2021 10:30:00 AM 3.24 37.832 0.258 7.66 0.47 13.77
12/23/2021 10:45:00 AM 3.31 37.958 0.257 7.68 0.26 13.86
12/23/2021 11:00:00 AM 3.42 38.156 0.257 7.72 0.55 13.95
12/23/2021 11:15:00 AM 3.48 38.264 0.256 7.75 0.41 14.06
12/23/2021 11:30:00 AM 3.57 38.426 0.256 7.77 0.32 14.13
12/23/2021 11:45:00 AM 3.62 38.516 0.256 7.8 0.65 14.19
12/23/2021 12:00:00 PM 3.69 38.642 0.257 7.83 0.49 14.25
12/23/2021 12:15:00 PM 3.76 38.768 0.257 7.86 1.24 14.3
12/23/2021 12:30:00 PM 3.81 38.858 0.257 7.87 0.42 14.34
12/23/2021 12:45:00 PM 3.91 39.038 0.256 7.9 1.14 14.36
12/23/2021 1:00:00 PM 3.96 39.128 0.256 7.93 0.4 14.41
12/23/2021 1:15:00 PM 3.97 39.146 0.255 7.95 0.33 14.37
12/23/2021 1:30:00 PM 3.99 39.182 0.255 7.97 0.41 14.33
12/23/2021 1:45:00 PM 4.01 39.218 0.255 7.98 0.48 14.27
12/23/2021 2:00:00 PM 4.04 39.272 0.256 7.99 0.39 14.27
12/23/2021 2:15:00 PM 4.05 39.29 0.256 7.99 0.51 14.25
12/23/2021 2:30:00 PM 4.03 39.254 0.257 8 0.99 14.23
12/23/2021 2:45:00 PM 4.03 39.254 0.257 8 0.26 14.18
12/23/2021 3:00:00 PM 4.03 39.254 0.256 8.01 0.61 14.12
12/23/2021 3:15:00 PM 4.02 39.236 0.256 8 1.34 13.97
12/23/2021 3:30:00 PM 3.99 39.182 0.256 7.99 0.19 13.85
12/23/2021 3:45:00 PM 3.94 39.092 0.256 7.97 0.65 13.7
12/23/2021 4:00:00 PM 3.92 39.056 0.256 7.94 0.33 13.56
12/23/2021 4:15:00 PM 3.9 39.02 0.256 7.91 0.67 13.45
12/23/2021 4:30:00 PM 3.87 38.966 0.256 7.89 0.33 13.3
12/23/2021 4:45:00 PM 3.8 38.84 0.257 7.86 0.31 13.15
12/23/2021 5:00:00 PM 3.77 38.786 0.258 7.82 0.41 13
12/23/2021 5:15:00 PM 3.71 38.678 0.258 7.78 0.93 12.87
12/23/2021 5:30:00 PM 3.66 38.588 0.258 7.75 0.28 12.76
12/23/2021 5:45:00 PM 3.61 38.498 0.258 7.73 0.44 12.68
12/23/2021 6:00:00 PM 3.57 38.426 0.258 7.7 0.27 12.59
12/23/2021 6:15:00 PM 3.55 38.39 0.257 7.67 0.46 12.53
12/23/2021 6:30:00 PM 3.51 38.318 0.257 7.65 0.38 12.49
12/23/2021 6:45:00 PM 3.48 38.264 0.258 7.63 0.46 12.47
12/23/2021 7:00:00 PM 3.44 38.192 0.259 7.62 0.29 12.44
12/23/2021 7:15:00 PM 3.41 38.138 0.259 7.61 0.13 12.43
12/23/2021 7:30:00 PM 3.37 38.066 0.259 7.59 0.2 12.41
12/23/2021 7:45:00 PM 3.36 38.048 0.259 7.58 0.22 12.39
12/23/2021 8:00:00 PM 3.33 37.994 0.258 7.56 0.87 12.38
12/23/2021 8:15:00 PM 3.33 37.994 0.258 7.56 0.37 12.37
12/23/2021 8:30:00 PM 3.31 37.958 0.258 7.55 0.22 12.37
12/23/2021 8:45:00 PM 3.31 37.958 0.257 7.54 0.42 12.35
12/23/2021 9:00:00 PM 3.31 37.958 0.257 7.53 5.11 12.34
12/23/2021 9:15:00 PM 3.28 37.904 0.258 7.53 0.41 12.32
12/23/2021 9:30:00 PM 3.29 37.922 0.258 7.51 0.17 12.33
12/23/2021 9:45:00 PM 3.3 37.94 0.259 7.52 0.39 12.32
12/23/2021 10:00:00 PM 3.29 37.922 0.259 7.51 0.94 12.32
12/23/2021 10:15:00 PM 3.29 37.922 0.259 7.52 0.75 12.3
12/23/2021 10:30:00 PM 3.29 37.922 0.259 7.52 1.88 12.28
12/23/2021 10:45:00 PM 3.3 37.94 0.259 7.52 0.84 12.27
12/23/2021 11:00:00 PM 3.31 37.958 0.259 7.51 0.54 12.26
12/23/2021 11:15:00 PM 3.33 37.994 0.258 7.51 0.7 12.25
12/23/2021 11:30:00 PM 3.39 38.102 0.259 7.5 0.45 12.23
12/23/2021 11:45:00 PM 3.38 38.084 0.26 7.5 0.8 12.22
12/24/2021 12:00:00 AM 3.37 38.066 0.26 7.49 0.4 12.22
12/24/2021 12:15:00 AM 3.39 38.102 0.26 7.49 0.15 12.21
12/24/2021 12:30:00 AM 3.39 38.102 0.259 7.49 0.44 12.21
12/24/2021 12:45:00 AM 3.43 38.174 0.259 7.49 0.74 12.21
12/24/2021 1:00:00 AM 3.45 38.21 0.259 7.49 0.58 12.18
12/24/2021 1:15:00 AM 3.48 38.264 0.258 7.47 0.75 12.19
12/24/2021 1:30:00 AM 3.51 38.318 0.258 7.5 0.52 12.17
12/24/2021 1:45:00 AM 3.53 38.354 0.257 7.5 0.48 12.15
12/24/2021 2:00:00 AM 3.55 38.39 0.258 7.49 0.35 12.14
12/24/2021 2:15:00 AM 3.56 38.408 0.259 7.49 0.78 12.13
12/24/2021 2:30:00 AM 3.56 38.408 0.259 7.49 0.24 12.14
12/24/2021 2:45:00 AM 3.59 38.462 0.26 7.48 1.19 12.13
12/24/2021 3:00:00 AM 3.58 38.444 0.26 7.5 0.19 12.13
12/24/2021 3:15:00 AM 3.6 38.48 0.26 7.49 0.61 12.11
12/24/2021 3:30:00 AM 3.57 38.426 0.259 7.49 0.44 12.12
12/24/2021 3:45:00 AM 3.58 38.444 0.259 7.49 0.68 12.11
12/24/2021 4:00:00 AM 3.55 38.39 0.259 7.48 0.95 12.11
12/24/2021 4:15:00 AM 3.52 38.336 0.259 7.48 0.42 12.1
12/24/2021 4:30:00 AM 3.5 38.3 0.26 7.48 0.36 12.09
12/24/2021 4:45:00 AM 3.47 38.246 0.261 7.47 0.46 12.11
12/24/2021 5:00:00 AM 3.47 38.246 0.261 7.48 0.4 12.09
12/24/2021 5:15:00 AM 3.46 38.228 0.261 7.48 0.61 12.1
12/24/2021 5:30:00 AM 3.46 38.228 0.26 7.46 0.78 12.09
12/24/2021 5:45:00 AM 3.49 38.282 0.26 7.46 0.38 12.07
12/24/2021 6:00:00 AM 3.49 38.282 0.259 7.47 0.38 12.09
12/24/2021 6:15:00 AM 3.48 38.264 0.259 7.46 0.37 12.08
12/24/2021 6:30:00 AM 3.45 38.21 0.259 7.47 0.75 12.06
12/24/2021 6:45:00 AM 3.43 38.174 0.259 7.46 0.64 12.07
12/24/2021 7:00:00 AM 3.42 38.156 0.26 7.45 0.45 12.07
12/24/2021 7:15:00 AM 3.33 37.994 0.26 7.45 1.32 12.09
12/24/2021 7:30:00 AM 3.32 37.976 0.261 7.45 0.87 12.1
12/24/2021 7:45:00 AM 3.27 37.886 0.261 7.46 0.88 12.14
12/24/2021 8:00:00 AM 3.25 37.85 0.26 7.45 0.31 12.22
12/24/2021 8:15:00 AM 3.21 37.778 0.26 7.46 0.73 12.36
12/24/2021 8:30:00 AM 3.22 37.796 0.259 7.48 0.52 12.49
12/24/2021 8:45:00 AM 3.24 37.832 0.259 7.48 0.64 12.65
12/24/2021 9:00:00 AM 3.25 37.85 0.259 7.5 0.62 12.83
12/24/2021 9:15:00 AM 3.29 37.922 0.259 7.53 0.48 12.99
12/24/2021 9:30:00 AM 3.34 38.012 0.26 7.56 0.76 13.18
12/24/2021 9:45:00 AM 3.37 38.066 0.26 7.58 1.02 13.34
12/24/2021 10:00:00 AM 3.44 38.192 0.259 7.6 0.76 13.48
12/24/2021 10:15:00 AM 3.5 38.3 0.258 7.63 0.41 13.59
12/24/2021 10:30:00 AM 3.57 38.426 0.258 7.66 1.06 13.7
12/24/2021 10:45:00 AM 3.62 38.516 0.258 7.71 1.26 13.79
12/24/2021 11:00:00 AM 3.7 38.66 0.257 7.75 0.36 13.87
12/24/2021 11:15:00 AM 3.8 38.84 0.257 7.77 1.04 13.91
12/24/2021 11:30:00 AM 3.88 38.984 0.257 7.79 0.65 13.95
12/24/2021 11:45:00 AM 4 39.2 0.257 7.81 0.6 14.01
12/24/2021 12:00:00 PM 4.08 39.344 0.257 7.83 0.9 14.05
12/24/2021 12:15:00 PM 4.17 39.506 0.257 7.86 1.25 14.07
12/24/2021 12:30:00 PM 4.22 39.596 0.257 7.88 0.33 14.1
12/24/2021 12:45:00 PM 4.3 39.74 0.257 7.89 0.3 14.1
12/24/2021 1:00:00 PM 4.37 39.866 0.256 7.91 0.17 14.12
12/24/2021 1:15:00 PM 4.4 39.92 0.256 7.92 0.78 14.12
12/24/2021 1:30:00 PM 4.48 40.064 0.256 7.93 0.36 14.15
12/24/2021 1:45:00 PM 4.53 40.154 0.255 7.97 0.64 14.13
12/24/2021 2:00:00 PM 4.53 40.154 0.256 7.97 0.27 14.12
12/24/2021 2:15:00 PM 4.59 40.262 0.257 7.96 3.66 14.09
12/24/2021 2:30:00 PM 4.59 40.262 0.257 7.98 0.41 14.02
12/24/2021 2:45:00 PM 4.57 40.226 0.257 7.98 0.34 13.91
12/24/2021 3:00:00 PM 4.55 40.19 0.257 7.98 0.47 13.82
12/24/2021 3:15:00 PM 4.56 40.208 0.256 7.97 0.39 13.7
12/24/2021 3:30:00 PM 4.55 40.19 0.256 7.94 0.3 13.58
12/24/2021 3:45:00 PM 4.55 40.19 0.256 7.94 0.17 13.45
12/24/2021 4:00:00 PM 4.57 40.226 0.256 7.92 0.45 13.32
12/24/2021 4:15:00 PM 4.54 40.172 0.256 7.89 1.31 13.14
12/24/2021 4:30:00 PM 4.55 40.19 0.257 7.86 0.67 12.93
12/24/2021 4:45:00 PM 4.54 40.172 0.258 7.82 0.37 12.77
12/24/2021 5:00:00 PM 4.53 40.154 0.258 7.79 0.57 12.61
12/24/2021 5:15:00 PM 4.52 40.136 0.259 7.76 1.5 12.47
12/24/2021 5:30:00 PM 4.51 40.118 0.258 7.72 0.37 12.38
12/24/2021 5:45:00 PM 4.49 40.082 0.258 7.69 0.93 12.29
12/24/2021 6:00:00 PM 4.48 40.064 0.258 7.67 0.45 12.22
12/24/2021 6:15:00 PM 4.46 40.028 0.258 7.65 0.26 12.15
12/24/2021 6:30:00 PM 4.46 40.028 0.258 7.63 0.55 12.1
12/24/2021 6:45:00 PM 4.45 40.01 0.258 7.61 0.13 12.07
12/24/2021 7:00:00 PM 4.43 39.974 0.259 7.6 0.59 12.05
12/24/2021 7:15:00 PM 4.42 39.956 0.259 7.59 0.17 12.02
12/24/2021 7:30:00 PM 4.41 39.938 0.259 7.58 0.41 12
12/24/2021 7:45:00 PM 4.39 39.902 0.259 7.57 0.16 11.99
12/24/2021 8:00:00 PM 4.37 39.866 0.259 7.56 0.03 11.96
12/24/2021 8:15:00 PM 4.33 39.794 0.259 7.55 0.35 11.96
12/24/2021 8:30:00 PM 4.32 39.776 0.258 7.55 0.66 11.94
12/24/2021 8:45:00 PM 4.3 39.74 0.258 7.54 0.37 11.96
12/24/2021 9:00:00 PM 4.31 39.758 0.257 7.53 0.29 11.91
12/24/2021 9:15:00 PM 4.33 39.794 0.258 7.54 0.35 11.9
12/24/2021 9:30:00 PM 4.35 39.83 0.259 7.53 0.41 11.89
12/24/2021 9:45:00 PM 4.35 39.83 0.259 7.53 0.79 11.87
12/24/2021 10:00:00 PM 4.4 39.92 0.259 7.52 0.46 11.84
12/24/2021 10:15:00 PM 4.39 39.902 0.259 7.52 1.17 11.84
12/24/2021 10:30:00 PM 4.42 39.956 0.259 7.51 0.34 11.8
12/24/2021 10:45:00 PM 4.44 39.992 0.258 7.51 0.15 11.8
12/24/2021 11:00:00 PM 4.48 40.064 0.258 7.5 1.01 11.77
12/24/2021 11:15:00 PM 4.49 40.082 0.258 7.51 1.73 11.77
12/24/2021 11:30:00 PM 4.54 40.172 0.258 7.5 0.45 11.74
12/24/2021 11:45:00 PM 4.55 40.19 0.259 7.5 0.22 11.74
12/25/2021 12:00:00 AM 4.57 40.226 0.26 7.5 0.42 11.72
12/25/2021 12:15:00 AM 4.59 40.262 0.259 7.5 0.78 11.7
12/25/2021 12:30:00 AM 4.6 40.28 0.259 7.51 0.38 11.68
12/25/2021 12:45:00 AM 4.6 40.28 0.259 7.5 0.57 11.68
12/25/2021 1:00:00 AM 4.6 40.28 0.258 7.5 0.22 11.68
12/25/2021 1:15:00 AM 4.63 40.334 0.258 7.5 0.39 11.67
12/25/2021 1:30:00 AM 4.65 40.37 0.257 7.49 0.45 11.65
12/25/2021 1:45:00 AM 4.66 40.388 0.257 7.49 1.47 11.64
12/25/2021 2:00:00 AM 4.68 40.424 0.257 7.5 0.56 11.62
12/25/2021 2:15:00 AM 4.7 40.46 0.232 7.5 1.1 11.61
12/25/2021 2:30:00 AM 4.72 40.496 0.233 7.49 0.82 11.6
12/25/2021 2:45:00 AM 4.72 40.496 0.232 7.49 1 11.59
12/25/2021 3:00:00 AM 4.72 40.496 0.233 7.48 0.21 11.58
12/25/2021 3:15:00 AM 4.73 40.514 0.232 7.48 0.65 11.59
12/25/2021 3:30:00 AM 4.74 40.532 0.231 7.48 1.67 11.57
12/25/2021 3:45:00 AM 4.74 40.532 0.231 7.49 0.86 11.55
12/25/2021 4:00:00 AM 4.75 40.55 0.231 7.48 0.37 11.54
12/25/2021 4:15:00 AM 4.76 40.568 0.232 7.48 0.87 11.52
12/25/2021 4:30:00 AM 4.77 40.586 0.232 7.48 1.4 11.51
12/25/2021 4:45:00 AM 4.78 40.604 0.233 7.47 0.76 11.5
12/25/2021 5:00:00 AM 4.79 40.622 0.234 7.47 0.77 11.49
12/25/2021 5:15:00 AM 4.79 40.622 0.242 7.48 0.68 11.5
12/25/2021 5:30:00 AM 4.81 40.658 0.241 7.48 0.7 11.46
12/25/2021 5:45:00 AM 4.81 40.658 0.24 7.47 0.93 11.47
12/25/2021 6:00:00 AM 4.81 40.658 0.239 7.48 0.66 11.46
12/25/2021 6:15:00 AM 4.83 40.694 0.238 7.48 1.53 11.45
12/25/2021 6:30:00 AM 4.84 40.712 0.238 7.48 0.48 11.43
12/25/2021 6:45:00 AM 4.85 40.73 0.238 7.48 1.05 11.43
12/25/2021 7:00:00 AM 4.86 40.748 0.24 7.48 0.73 11.43
12/25/2021 7:15:00 AM 4.87 40.766 0.241 7.47 0.82 11.4
12/25/2021 7:30:00 AM 4.89 40.802 0.24 7.47 0.82 11.39
12/25/2021 7:45:00 AM 4.89 40.802 0.239 7.47 0.27 11.39
12/25/2021 8:00:00 AM 4.89 40.802 0.239 7.47 0.28 11.45
12/25/2021 8:15:00 AM 4.9 40.82 0.239 7.48 1.14 11.52
12/25/2021 8:30:00 AM 4.91 40.838 0.239 7.48 0.54 11.59
12/25/2021 8:45:00 AM 4.93 40.874 0.238 7.49 0.92 11.65
12/25/2021 9:00:00 AM 4.94 40.892 0.238 7.5 1.3 11.69
12/25/2021 9:15:00 AM 4.96 40.928 0.239 7.5 0.61 11.72
12/25/2021 9:30:00 AM 4.99 40.982 0.239 7.51 0.6 11.83
12/25/2021 9:45:00 AM 5.01 41.018 0.237 7.52 0.68 11.94
12/25/2021 10:00:00 AM 5.06 41.108 0.237 7.53 0.3 12.14
12/25/2021 10:15:00 AM 5.12 41.216 0.237 7.56 1.12 12.37
12/25/2021 10:30:00 AM 5.14 41.252 0.24 7.58 0.81 12.43
12/25/2021 10:45:00 AM 5.16 41.288 0.241 7.59 0.31 12.36
12/25/2021 11:00:00 AM 5.17 41.306 0.241 7.6 0.55 12.29
12/25/2021 11:15:00 AM 5.2 41.36 0.24 7.61 0.68 12.3
12/25/2021 11:30:00 AM 5.24 41.432 0.238 7.62 0.53 12.45
12/25/2021 11:45:00 AM 5.29 41.522 0.239 7.64 1.42 12.63
12/25/2021 12:00:00 PM 5.34 41.612 0.239 7.67 1.51 12.8
12/25/2021 12:15:00 PM 5.39 41.702 0.24 7.7 0.56 12.89
12/25/2021 12:30:00 PM 5.43 41.774 0.239 7.72 0.45 12.97
12/25/2021 12:45:00 PM 5.49 41.882 0.239 7.74 0.19 13.05
12/25/2021 1:00:00 PM 5.57 42.026 0.238 7.77 0.08 13.18
12/25/2021 1:15:00 PM 5.63 42.134 0.238 7.8 0.35 13.24
12/25/2021 1:30:00 PM 5.7 42.26 0.238 7.83 0.24 13.28
12/25/2021 1:45:00 PM 5.79 42.422 0.237 7.86 0.39 13.3
12/25/2021 2:00:00 PM 5.84 42.512 0.238 7.88 0.23 13.26
12/25/2021 2:15:00 PM 5.84 42.512 0.239 7.88 0.52 13.06
12/25/2021 2:30:00 PM 5.84 42.512 0.238 7.87 1.09 12.81
12/25/2021 2:45:00 PM 5.85 42.53 0.238 7.86 0.61 12.63
12/25/2021 3:00:00 PM 5.84 42.512 0.238 7.82 0.62 12.48
12/25/2021 3:15:00 PM 5.84 42.512 0.237 7.81 0.52 12.4
12/25/2021 3:30:00 PM 5.84 42.512 0.237 7.79 0.41 12.28
12/25/2021 3:45:00 PM 5.85 42.53 0.237 7.76 0.45 12.17
12/25/2021 4:00:00 PM 5.85 42.53 0.236 7.74 0.66 12.05
12/25/2021 4:15:00 PM 5.84 42.512 0.237 7.72 0.33 11.94
12/25/2021 4:30:00 PM 5.84 42.512 0.237 7.69 0.28 11.83
12/25/2021 4:45:00 PM 5.85 42.53 0.237 7.67 0.31 11.71
12/25/2021 5:00:00 PM 5.86 42.548 0.232 7.66 0.82 11.6
12/25/2021 5:15:00 PM 5.86 42.548 0.232 7.63 0.3 11.53
12/25/2021 5:30:00 PM 5.87 42.566 0.224 7.62 0.29 11.45
12/25/2021 5:45:00 PM 5.86 42.548 0.23 7.6 0.47 11.4
12/25/2021 6:00:00 PM 5.87 42.566 0.227 7.6 0.59 11.35
12/25/2021 6:15:00 PM 5.89 42.602 0.223 7.57 0.46 11.31
12/25/2021 6:30:00 PM 5.89 42.602 0.222 7.56 0.54 11.27
12/25/2021 6:45:00 PM 5.89 42.602 0.225 7.56 0.56 11.24
12/25/2021 7:00:00 PM 5.9 42.62 0.255 7.54 0.6 11.22
12/25/2021 7:15:00 PM 5.9 42.62 0.258 7.54 0.8 11.19
12/25/2021 7:30:00 PM 5.91 42.638 0.226 7.55 0.46 11.17
12/25/2021 7:45:00 PM 5.9 42.62 0.229 7.53 0.42 11.17
12/25/2021 8:00:00 PM 5.91 42.638 0.24 7.52 1.14 11.16
12/25/2021 8:15:00 PM 5.91 42.638 0.235 7.51 0.51 11.14
12/25/2021 8:30:00 PM 5.9 42.62 0.255 7.5 0.59 11.12
12/25/2021 8:45:00 PM 5.89 42.602 0.251 7.5 1.36 11.13
12/25/2021 9:00:00 PM 5.88 42.584 0.247 7.5 1.31 11.11
12/25/2021 9:15:00 PM 5.89 42.602 0.229 7.51 0.41 11.1
12/25/2021 9:30:00 PM 5.9 42.62 0.23 7.49 0.69 11.09
12/25/2021 9:45:00 PM 5.91 42.638 0.23 7.49 1.35 11.08
12/25/2021 10:00:00 PM 5.9 42.62 0.231 7.48 0.43 11.08
12/25/2021 10:15:00 PM 5.89 42.602 0.231 7.49 0.86 11.06
12/25/2021 10:30:00 PM 5.88 42.584 0.231 7.48 3.77 11.07
12/25/2021 10:45:00 PM 5.86 42.548 0.231 7.48 0.66 11.06
12/25/2021 11:00:00 PM 5.84 42.512 0.229 7.47 0.24 11.07
12/25/2021 11:15:00 PM 5.84 42.512 0.234 7.48 0.53 11.07
12/25/2021 11:30:00 PM 5.85 42.53 0.233 7.47 2.06 11.06
12/25/2021 11:45:00 PM 5.85 42.53 0.234 7.47 0.37 11.04
12/26/2021 12:00:00 AM 5.86 42.548 0.236 7.47 0.63 11.04
12/26/2021 12:15:00 AM 5.84 42.512 0.237 7.48 0.81 11.05
12/26/2021 12:30:00 AM 5.84 42.512 0.241 7.47 0.86 11.04
12/26/2021 12:45:00 AM 5.82 42.476 0.244 7.47 0.51 11.06
12/26/2021 1:00:00 AM 5.81 42.458 0.244 7.46 0.43 11.06
12/26/2021 1:15:00 AM 5.8 42.44 0.253 7.46 0.72 11.04
12/26/2021 1:30:00 AM 5.8 42.44 0.253 7.46 0.66 11.04
12/26/2021 1:45:00 AM 5.79 42.422 0.252 7.47 0.64 11.05
12/26/2021 2:00:00 AM 5.79 42.422 0.253 7.47 0.85 11.03
12/26/2021 2:15:00 AM 5.79 42.422 0.253 7.46 0.86 11.04
12/26/2021 2:30:00 AM 5.78 42.404 0.254 7.46 0.56 11.03
12/26/2021 2:45:00 AM 5.75 42.35 0.254 7.45 0.39 11.04
12/26/2021 3:00:00 AM 5.73 42.314 0.253 7.45 1.14 11.04
12/26/2021 3:15:00 AM 5.69 42.242 0.252 7.45 0.67 11.04
12/26/2021 3:30:00 AM 5.66 42.188 0.252 7.44 1.39 11.06
12/26/2021 3:45:00 AM 5.63 42.134 0.252 7.45 1.02 11.05
12/26/2021 4:00:00 AM 5.6 42.08 0.251 7.45 0.75 11.06
12/26/2021 4:15:00 AM 5.58 42.044 0.252 7.44 1.99 11.06
12/26/2021 4:30:00 AM 5.56 42.008 0.253 7.46 1.11 11.06
12/26/2021 4:45:00 AM 5.56 42.008 0.253 7.46 3.75 11.06
12/26/2021 5:00:00 AM 5.53 41.954 0.253 7.45 0.77 11.08
12/26/2021 5:15:00 AM 5.51 41.918 0.256 7.46 1.3 11.08
12/26/2021 5:30:00 AM 5.49 41.882 0.253 7.45 0.9 11.08
12/26/2021 5:45:00 AM 5.47 41.846 0.253 7.44 1 11.09
12/26/2021 6:00:00 AM 5.45 41.81 0.251 7.46 1.71 11.09
12/26/2021 6:15:00 AM 5.42 41.756 0.253 7.45 1.35 11.1
12/26/2021 6:30:00 AM 5.4 41.72 0.251 7.45 1.08 11.1
12/26/2021 6:45:00 AM 5.39 41.702 0.252 7.45 1.03 11.12
12/26/2021 7:00:00 AM 5.38 41.684 0.255 7.46 0.98 11.11
12/26/2021 7:15:00 AM 5.36 41.648 0.256 7.46 1.48 11.12
12/26/2021 7:30:00 AM 5.34 41.612 0.256 7.46 1.06 11.13
12/26/2021 7:45:00 AM 5.33 41.594 0.257 7.44 1.04 11.18
12/26/2021 8:00:00 AM 5.31 41.558 0.256 7.45 0.89 11.26
12/26/2021 8:15:00 AM 5.3 41.54 0.258 7.46 0.98 11.38
12/26/2021 8:30:00 AM 5.3 41.54 0.257 7.47 0.66 11.48
12/26/2021 8:45:00 AM 5.31 41.558 0.256 7.48 0.97 11.63
12/26/2021 9:00:00 AM 5.34 41.612 0.257 7.49 0.95 11.8
12/26/2021 9:15:00 AM 5.39 41.702 0.256 7.51 0.88 11.96
12/26/2021 9:30:00 AM 5.45 41.81 0.256 7.54 0.87 12.13
12/26/2021 9:45:00 AM 5.52 41.936 0.256 7.56 1.45 12.29
12/26/2021 10:00:00 AM 5.6 42.08 0.256 7.59 1.93 12.45
12/26/2021 10:15:00 AM 5.66 42.188 0.256 7.62 1.01 12.59
12/26/2021 10:30:00 AM 5.73 42.314 0.256 7.66 1.34 12.7
12/26/2021 10:45:00 AM 5.8 42.44 0.255 7.69 0.72 12.81
12/26/2021 11:00:00 AM 5.88 42.584 0.254 7.71 0.82 12.88
12/26/2021 11:15:00 AM 5.96 42.728 0.254 7.74 1.06 12.96
12/26/2021 11:30:00 AM 6.03 42.854 0.254 7.77 2.76 13.02
12/26/2021 11:45:00 AM 6.13 43.034 0.254 7.8 0.71 13.08
12/26/2021 12:00:00 PM 6.21 43.178 0.254 7.82 0.88 13.13
12/26/2021 12:15:00 PM 6.29 43.322 0.254 7.84 0.62 13.16
12/26/2021 12:30:00 PM 6.36 43.448 0.254 7.86 0.65 13.19
12/26/2021 12:45:00 PM 6.42 43.556 0.254 7.89 0.56 13.22
12/26/2021 1:00:00 PM 6.46 43.628 0.252 7.9 0.89 13.22
12/26/2021 1:15:00 PM 6.5 43.7 0.252 7.92 0.65 13.2
12/26/2021 1:30:00 PM 6.53 43.754 0.252 7.93 0.64 13.2
12/26/2021 1:45:00 PM 6.55 43.79 0.252 7.95 0.84 13.17
12/26/2021 2:00:00 PM 6.55 43.79 0.252 7.96 0.76 13.15
12/26/2021 2:15:00 PM 6.56 43.808 0.253 7.97 0.48 13.1
12/26/2021 2:30:00 PM 6.56 43.808 0.252 7.96 1 13.04
12/26/2021 2:45:00 PM 6.57 43.826 0.252 7.97 1.54 12.99
12/26/2021 3:00:00 PM 6.54 43.772 0.252 7.96 1.33 12.92
12/26/2021 3:15:00 PM 6.5 43.7 0.252 7.95 0.49 12.83
12/26/2021 3:30:00 PM 6.44 43.592 0.252 7.94 0.38 12.71
12/26/2021 3:45:00 PM 6.4 43.52 0.251 7.92 1.52 12.58
12/26/2021 4:00:00 PM 6.36 43.448 0.252 7.9 2.87 12.52
12/26/2021 4:15:00 PM 6.31 43.358 0.249 7.88 0.85 12.41
12/26/2021 4:30:00 PM 6.27 43.286 0.249 7.85 0.41 12.26
12/26/2021 4:45:00 PM 6.24 43.232 0.251 7.82 0.58 12.11
12/26/2021 5:00:00 PM 6.2 43.16 0.25 7.78 0.54 11.97
12/26/2021 5:15:00 PM 6.15 43.07 0.228 7.75 1.44 11.82
12/26/2021 5:30:00 PM 6.12 43.016 0.234 7.72 0.28 11.71
12/26/2021 5:45:00 PM 6.07 42.926 0.243 7.69 1.52 11.63
12/26/2021 6:00:00 PM 5.98 42.764 0.242 7.67 0.46 11.56
12/26/2021 6:15:00 PM 5.92 42.656 0.244 7.65 0.5 11.51
12/26/2021 6:30:00 PM 5.84 42.512 0.244 7.63 0.99 11.49
12/26/2021 6:45:00 PM 5.78 42.404 0.245 7.6 0.37 11.47
12/26/2021 7:00:00 PM 5.77 42.386 0.246 7.59 1.01 11.44
12/26/2021 7:15:00 PM 5.72 42.296 0.246 7.58 0.57 11.41
12/26/2021 7:30:00 PM 5.68 42.224 0.246 7.57 0.76 11.4
12/26/2021 7:45:00 PM 5.65 42.17 0.245 7.56 1.29 11.39
12/26/2021 8:00:00 PM 5.61 42.098 0.245 7.56 2.06 11.37
12/26/2021 8:15:00 PM 5.59 42.062 0.245 7.55 1.18 11.36
12/26/2021 8:30:00 PM 5.57 42.026 0.244 7.54 0.62 11.37
12/26/2021 8:45:00 PM 5.55 41.99 0.243 7.53 1.88 11.36
12/26/2021 9:00:00 PM 5.53 41.954 0.243 7.53 1.91 11.36
12/26/2021 9:15:00 PM 5.47 41.846 0.243 7.53 1.08 11.35
12/26/2021 9:30:00 PM 5.47 41.846 0.245 7.52 0.92 11.35
12/26/2021 9:45:00 PM 5.44 41.792 0.245 7.51 0.73 11.34
12/26/2021 10:00:00 PM 5.41 41.738 0.245 7.51 0.65 11.33
12/26/2021 10:15:00 PM 5.38 41.684 0.246 7.5 0.57 11.34
12/26/2021 10:30:00 PM 5.36 41.648 0.245 7.51 0.82 11.34
12/26/2021 10:45:00 PM 5.33 41.594 0.245 7.49 1.1 11.35
12/26/2021 11:00:00 PM 5.31 41.558 0.244 7.49 1.23 11.35
12/26/2021 11:15:00 PM 5.28 41.504 0.235 7.49 0.97 11.36
12/26/2021 11:30:00 PM 5.27 41.486 0.222 7.49 1.48 11.35
12/26/2021 11:45:00 PM 5.26 41.468 0.237 7.49 1.22 11.34
12/27/2021 12:00:00 AM 5.26 41.468 0.237 7.47 0.52 11.35
12/27/2021 12:15:00 AM 5.25 41.45 0.239 7.48 0.56 11.35
12/27/2021 12:30:00 AM 5.23 41.414 0.24 7.47 7.07 11.35
12/27/2021 12:45:00 AM 5.22 41.396 0.253 7.49 1.93 11.34
12/27/2021 1:00:00 AM 5.19 41.342 0.252 7.49 1.44 11.33
12/27/2021 1:15:00 AM 5.16 41.288 0.25 7.48 1.16 11.33
12/27/2021 1:30:00 AM 5.12 41.216 0.251 7.46 2.65 11.34
12/27/2021 1:45:00 AM 5.09 41.162 0.251 7.47 3.76 11.37
12/27/2021 2:00:00 AM 5.07 41.126 0.251 7.47 1.28 11.35
12/27/2021 2:15:00 AM 5.05 41.09 0.251 7.41 0.49 11.36
12/27/2021 2:30:00 AM 5.04 41.072 0.252 7.46 1.01 11.36
12/27/2021 2:45:00 AM 5.03 41.054 0.252 7.46 0.97 11.37
12/27/2021 3:00:00 AM 5.02 41.036 0.251 7.45 1.48 11.36
12/27/2021 3:15:00 AM 5.01 41.018 0.252 7.44 0.8 11.37
12/27/2021 3:30:00 AM 4.98 40.964 0.249 7.45 1.17 11.36
12/27/2021 3:45:00 AM 4.97 40.946 0.25 7.46 0.77 11.38
12/27/2021 4:00:00 AM 4.96 40.928 0.25 7.47 1.48 11.37
12/27/2021 4:15:00 AM 4.95 40.91 0.25 7.45 1.06 11.36
12/27/2021 4:30:00 AM 4.93 40.874 0.247 7.44 1.2 11.39
12/27/2021 4:45:00 AM 4.92 40.856 0.239 7.44 2.59 11.39
12/27/2021 5:00:00 AM 4.91 40.838 0.255 7.43 1.26 11.38
12/27/2021 5:15:00 AM 4.9 40.82 0.235 7.43 3.13 11.38
12/27/2021 5:30:00 AM 4.89 40.802 0.235 7.43 0.69 11.38
12/27/2021 5:45:00 AM 4.88 40.784 0.234 7.43 2.03 11.39
12/27/2021 6:00:00 AM 4.88 40.784 0.235 7.42 1.72 11.39
12/27/2021 6:15:00 AM 4.87 40.766 0.235 7.42 0.78 11.38
12/27/2021 6:30:00 AM 4.86 40.748 0.235 7.42 0.74 11.41
12/27/2021 6:45:00 AM 4.85 40.73 0.234 7.42 0.89 11.4
12/27/2021 7:00:00 AM 4.85 40.73 0.235 7.42 0.91 11.39
12/27/2021 7:15:00 AM 4.84 40.712 0.236 7.42 1.96 11.41
12/27/2021 7:30:00 AM 4.83 40.694 0.242 7.42 0.8 11.42
12/27/2021 7:45:00 AM 4.82 40.676 0.24 7.42 0.63 11.42
12/27/2021 8:00:00 AM 4.82 40.676 0.244 7.42 0.85 11.45
12/27/2021 8:15:00 AM 4.82 40.676 0.248 7.43 0.65 11.51
12/27/2021 8:30:00 AM 4.82 40.676 0.258 7.42 1.3 11.55
12/27/2021 8:45:00 AM 4.82 40.676 0.258 7.42 0.91 11.65
12/27/2021 9:00:00 AM 4.84 40.712 0.257 7.43 1.28 11.78
12/27/2021 9:15:00 AM 4.85 40.73 0.257 7.44 0.63 11.93
12/27/2021 9:30:00 AM 4.86 40.748 0.258 7.46 0.42 11.97
12/27/2021 9:45:00 AM 4.86 40.748 0.258 7.47 0.83 12.03
12/27/2021 10:00:00 AM 4.86 40.748 0.258 7.47 0.49 12.02
12/27/2021 10:15:00 AM 4.83 40.694 0.258 7.47 0.96 12.01
12/27/2021 10:30:00 AM 4.59 40.262 0.257 7.48 0.83 12.01
12/27/2021 10:45:00 AM 4.35 39.83 0.256 7.48 0.47 12.07
12/27/2021 11:00:00 AM 4.12 39.416 0.255 7.49 0.49 12.16
12/27/2021 11:15:00 AM 4.04 39.272 0.254 7.5 1.01 12.31
12/27/2021 11:30:00 AM 3.95 39.11 0.253 7.51 0.49 12.42
12/27/2021 11:45:00 AM 3.89 39.002 0.253 7.52 0.6 12.54
12/27/2021 12:00:00 PM 3.84 38.912 0.254 7.53 0.93 12.64
12/27/2021 12:15:00 PM 3.88 38.984 0.254 7.55 0.83 12.74
12/27/2021 12:30:00 PM 3.95 39.11 0.254 7.56 0.7 12.83
12/27/2021 12:45:00 PM 4.04 39.272 0.254 7.58 0.92 12.89
12/27/2021 1:00:00 PM 4.1 39.38 0.254 7.59 0.45 12.95
12/27/2021 1:15:00 PM 4.17 39.506 0.254 7.61 1.27 13.06
12/27/2021 1:30:00 PM 4.24 39.632 0.254 7.63 0.8 13.15
12/27/2021 1:45:00 PM 4.29 39.722 0.255 7.65 1.02 13.23
12/27/2021 2:00:00 PM 4.33 39.794 0.255 7.68 0.48 13.28
12/27/2021 2:15:00 PM 4.36 39.848 0.256 7.71 1.06 13.31
12/27/2021 2:30:00 PM 4.42 39.956 0.255 7.71 0.9 13.41
12/27/2021 2:45:00 PM 4.45 40.01 0.255 7.72 0.95 13.44
12/27/2021 3:00:00 PM 4.48 40.064 0.255 7.71 0.59 13.32
12/27/2021 3:15:00 PM 4.5 40.1 0.255 7.71 0.76 13.22
12/27/2021 3:30:00 PM 4.5 40.1 0.255 7.71 0.39 13.09
12/27/2021 3:45:00 PM 4.51 40.118 0.255 7.69 0.7 12.92
12/27/2021 4:00:00 PM 4.51 40.118 0.256 7.68 0.43 12.76
12/27/2021 4:15:00 PM 4.5 40.1 0.256 7.65 0.92 12.59
12/27/2021 4:30:00 PM 4.49 40.082 0.257 7.63 0.97 12.47
12/27/2021 4:45:00 PM 4.47 40.046 0.258 7.61 0.4 12.37
12/27/2021 5:00:00 PM 4.46 40.028 0.258 7.58 0.71 12.25
12/27/2021 5:15:00 PM 4.44 39.992 0.258 7.57 1.45 12.17
12/27/2021 5:30:00 PM 4.43 39.974 0.258 7.55 1.16 12.11
12/27/2021 5:45:00 PM 4.43 39.974 0.257 7.53 0.67 12.04
12/27/2021 6:00:00 PM 4.43 39.974 0.254 7.52 0.49 11.98
12/27/2021 6:15:00 PM 4.43 39.974 0.254 7.5 0.53 11.96
12/27/2021 6:30:00 PM 4.43 39.974 0.254 7.5 0.81 11.91
12/27/2021 6:45:00 PM 4.43 39.974 0.255 7.48 1.77 11.89
12/27/2021 7:00:00 PM 4.42 39.956 0.257 7.47 0.49 11.87
12/27/2021 7:15:00 PM 4.43 39.974 0.257 7.47 0.41 11.85
12/27/2021 7:30:00 PM 4.43 39.974 0.257 7.46 0.51 11.83
12/27/2021 7:45:00 PM 4.43 39.974 0.255 7.46 0.47 11.83
12/27/2021 8:00:00 PM 4.43 39.974 0.256 7.45 0.88 11.83
12/27/2021 8:15:00 PM 4.42 39.956 0.255 7.43 0.63 11.81
12/27/2021 8:30:00 PM 4.42 39.956 0.256 7.44 0.67 11.79
12/27/2021 8:45:00 PM 4.42 39.956 0.256 7.42 1.06 11.79
12/27/2021 9:00:00 PM 4.42 39.956 0.256 7.43 0.79 11.79
12/27/2021 9:15:00 PM 4.41 39.938 0.257 7.42 0.66 11.78
12/27/2021 9:30:00 PM 4.4 39.92 0.258 7.43 0.86 11.77
12/27/2021 9:45:00 PM 4.39 39.902 0.258 7.43 0.77 11.78
12/27/2021 10:00:00 PM 4.37 39.866 0.258 7.43 0.49 11.76
12/27/2021 10:15:00 PM 4.36 39.848 0.258 7.42 0.42 11.77
12/27/2021 10:30:00 PM 4.35 39.83 0.257 7.42 0.87 11.78
12/27/2021 10:45:00 PM 4.35 39.83 0.26 7.41 1.96 11.76
12/27/2021 11:00:00 PM 4.34 39.812 0.26 7.42 0.62 11.77
12/27/2021 11:15:00 PM 4.34 39.812 0.26 7.42 0.64 11.76
12/27/2021 11:30:00 PM 4.33 39.794 0.261 7.41 0.44 11.77
12/27/2021 11:45:00 PM 4.32 39.776 0.261 7.41 1.56 11.76
12/28/2021 12:00:00 AM 4.31 39.758 0.261 7.41 0.95 11.76
12/28/2021 12:15:00 AM 4.31 39.758 0.261 7.42 0.17 11.77
12/28/2021 12:30:00 AM 4.31 39.758 0.26 7.42 0.37 11.77
12/28/2021 12:45:00 AM 4.31 39.758 0.26 7.41 0.48 11.74
12/28/2021 1:00:00 AM 4.31 39.758 0.259 7.41 0.57 11.76
12/28/2021 1:15:00 AM 4.33 39.794 0.259 7.42 0.48 11.76
12/28/2021 1:30:00 AM 4.31 39.758 0.259 7.42 0.69 11.74
12/28/2021 1:45:00 AM 4.3 39.74 0.26 7.41 1.42 11.75
12/28/2021 2:00:00 AM 4.31 39.758 0.261 7.41 0.78 11.75
12/28/2021 2:15:00 AM 4.31 39.758 0.262 7.41 0.47 11.75
12/28/2021 2:30:00 AM 4.31 39.758 0.263 7.42 0.59 11.73
12/28/2021 2:45:00 AM 4.29 39.722 0.264 7.41 0.71 11.73
12/28/2021 3:00:00 AM 4.26 39.668 0.264 7.41 0.71 11.74
12/28/2021 3:15:00 AM 4.23 39.614 0.264 7.41 0.58 11.73
12/28/2021 3:30:00 AM 4.21 39.578 0.264 7.4 0.62 11.74
12/28/2021 3:45:00 AM 4.19 39.542 0.263 7.4 0.5 11.75
12/28/2021 4:00:00 AM 4.16 39.488 0.264 7.41 0.8 11.74
12/28/2021 4:15:00 AM 4.15 39.47 0.265 7.41 0.58 11.74
12/28/2021 4:30:00 AM 4.15 39.47 0.267 7.41 0.8 11.74
12/28/2021 4:45:00 AM 4.14 39.452 0.267 7.41 1 11.74
12/28/2021 5:00:00 AM 4.14 39.452 0.267 7.41 0.55 11.74
12/28/2021 5:15:00 AM 4.15 39.47 0.267 7.4 0.36 11.74
12/28/2021 5:30:00 AM 4.14 39.452 0.266 7.4 1.3 11.73
12/28/2021 5:45:00 AM 4.14 39.452 0.266 7.41 0.44 11.74
12/28/2021 6:00:00 AM 4.13 39.434 0.265 7.4 0.31 11.76
12/28/2021 6:15:00 AM 4.13 39.434 0.265 7.41 0.49 11.75
12/28/2021 6:30:00 AM 4.13 39.434 0.265 7.41 0.6 11.75
12/28/2021 6:45:00 AM 4.13 39.434 0.266 7.41 0.63 11.74
12/28/2021 7:00:00 AM 4.13 39.434 0.267 7.4 1.25 11.75
12/28/2021 7:15:00 AM 4.11 39.398 0.268 7.4 0.53 11.75
12/28/2021 7:30:00 AM 4.09 39.362 0.267 7.39 0.69 11.76
12/28/2021 7:45:00 AM 4.11 39.398 0.267 7.39 0.99 11.78
12/28/2021 8:00:00 AM 4.08 39.344 0.266 7.4 0.87 11.85
12/28/2021 8:15:00 AM 4.09 39.362 0.265 7.41 0.87 11.94
12/28/2021 8:30:00 AM 4.1 39.38 0.265 7.42 0.91 12.07
12/28/2021 8:45:00 AM 4.13 39.434 0.264 7.43 0.43 12.24
12/28/2021 9:00:00 AM 4.14 39.452 0.265 7.45 0.39 12.42
12/28/2021 9:15:00 AM 4.17 39.506 0.265 7.48 0.41 12.6
12/28/2021 9:30:00 AM 4.18 39.524 0.265 7.48 0.5 12.76
12/28/2021 9:45:00 AM 4.23 39.614 0.265 7.51 0.41 12.91
12/28/2021 10:00:00 AM 4.25 39.65 0.264 7.54 0.43 12.95
12/28/2021 10:15:00 AM 4.26 39.668 0.264 7.56 0.64 12.97
12/28/2021 10:30:00 AM 4.27 39.686 0.263 7.57 1.11 12.99
12/28/2021 10:45:00 AM 4.29 39.722 0.263 7.59 0.57 13
12/28/2021 11:00:00 AM 4.3 39.74 0.263 7.6 0.79 12.97
12/28/2021 11:15:00 AM 4.32 39.776 0.262 7.61 0.28 12.93
12/28/2021 11:30:00 AM 4.32 39.776 0.262 7.6 0.65 12.89
12/28/2021 11:45:00 AM 4.34 39.812 0.263 7.6 0.59 12.87
12/28/2021 12:00:00 PM 4.35 39.83 0.264 7.6 0.52 12.89
12/28/2021 12:15:00 PM 4.37 39.866 0.264 7.61 0.51 12.9
12/28/2021 12:30:00 PM 4.37 39.866 0.264 7.62 0.48 12.91
12/28/2021 12:45:00 PM 4.39 39.902 0.265 7.62 0.57 12.95
12/28/2021 1:00:00 PM 4.41 39.938 0.266 7.64 0.48 13.02
12/28/2021 1:15:00 PM 4.45 40.01 0.267 7.64 0.28 13.11
12/28/2021 1:30:00 PM 4.49 40.082 0.27 7.66 0.82 13.21
12/28/2021 1:45:00 PM 4.53 40.154 0.273 7.68 1.29 13.25
12/28/2021 2:00:00 PM 4.57 40.226 0.278 7.7 0.47 13.31
12/28/2021 2:15:00 PM 4.59 40.262 0.283 7.71 0.54 13.26
12/28/2021 2:30:00 PM 4.59 40.262 0.289 7.72 1.03 13.12
12/28/2021 2:45:00 PM 4.6 40.28 0.293 7.72 0.28 13.05
12/28/2021 3:00:00 PM 4.61 40.298 0.298 7.71 0.77 12.95
12/28/2021 3:15:00 PM 4.62 40.316 0.302 7.72 0.63 12.88
12/28/2021 3:30:00 PM 4.63 40.334 0.306 7.7 0.5 12.82
12/28/2021 3:45:00 PM 4.64 40.352 0.31 7.69 0.75 12.79
12/28/2021 4:00:00 PM 4.64 40.352 0.313 7.7 0.2 12.66
12/28/2021 4:15:00 PM 4.65 40.37 0.315 7.7 0.34 12.57
12/28/2021 4:30:00 PM 4.65 40.37 0.316 7.68 0.77 12.43
12/28/2021 4:45:00 PM 4.65 40.37 0.318 7.67 0.71 12.32
12/28/2021 5:00:00 PM 4.63 40.334 0.319 7.66 0.6 12.21
12/28/2021 5:15:00 PM 4.64 40.352 0.317 7.64 0.6 12.13
12/28/2021 5:30:00 PM 4.64 40.352 0.315 7.63 0.63 12.06
12/28/2021 5:45:00 PM 4.63 40.334 0.312 7.62 0.6 12
12/28/2021 6:00:00 PM 4.62 40.316 0.31 7.61 0.49 11.95
12/28/2021 6:15:00 PM 4.63 40.334 0.307 7.6 3.38 11.92
12/28/2021 6:30:00 PM 4.63 40.334 0.305 7.58 0.65 11.89
12/28/2021 6:45:00 PM 4.65 40.37 0.303 7.59 0.73 11.87
12/28/2021 7:00:00 PM 4.66 40.388 0.302 7.58 0.32 11.83
12/28/2021 7:15:00 PM 4.66 40.388 0.3 7.57 0.51 11.83
12/28/2021 7:30:00 PM 4.66 40.388 0.298 7.57 0.31 11.81
12/28/2021 7:45:00 PM 4.67 40.406 0.295 7.56 1.02 11.8
12/28/2021 8:00:00 PM 4.67 40.406 0.293 7.55 0.43 11.77
12/28/2021 8:15:00 PM 4.67 40.406 0.29 7.54 0.77 11.78
12/28/2021 8:30:00 PM 4.69 40.442 0.287 7.53 0.41 11.76
12/28/2021 8:45:00 PM 4.69 40.442 0.285 7.53 1.19 11.75
12/28/2021 9:00:00 PM 4.7 40.46 0.284 7.54 0.51 11.73
12/28/2021 9:15:00 PM 4.71 40.478 0.283 7.54 0.61 11.72
12/28/2021 9:30:00 PM 4.73 40.514 0.283 7.53 0.17 11.7
12/28/2021 9:45:00 PM 4.73 40.514 0.282 7.52 1.05 11.69
12/28/2021 10:00:00 PM 4.74 40.532 0.28 7.51 0.63 11.69
12/28/2021 10:15:00 PM 4.75 40.55 0.279 7.52 0.48 11.68
12/28/2021 10:30:00 PM 4.75 40.55 0.277 7.5 0.41 11.68
12/28/2021 10:45:00 PM 4.76 40.568 0.276 7.51 0.59 11.65
12/28/2021 11:00:00 PM 4.77 40.586 0.275 7.51 0.49 11.65
12/28/2021 11:15:00 PM 4.77 40.586 0.275 7.51 0.62 11.64
12/28/2021 11:30:00 PM 4.79 40.622 0.275 7.51 0.69 11.63
12/28/2021 11:45:00 PM 4.8 40.64 0.276 7.51 0.49 11.61
12/29/2021 12:00:00 AM 4.81 40.658 0.276 7.51 0.66 11.62
12/29/2021 12:15:00 AM 4.81 40.658 0.275 7.51 1.04 11.62
12/29/2021 12:30:00 AM 4.82 40.676 0.274 7.51 0.38 11.59
12/29/2021 12:45:00 AM 4.82 40.676 0.274 7.52 0.56 11.6
12/29/2021 1:00:00 AM 4.82 40.676 0.273 7.52 0.82 11.59
12/29/2021 1:15:00 AM 4.83 40.694 0.273 7.52 0.88 11.58
12/29/2021 1:30:00 AM 4.85 40.73 0.272 7.52 1.18 11.57
12/29/2021 1:45:00 AM 4.86 40.748 0.273 7.51 0.65 11.56
12/29/2021 2:00:00 AM 4.87 40.766 0.274 7.51 0.75 11.54
12/29/2021 2:15:00 AM 4.88 40.784 0.275 7.51 0.45 11.54
12/29/2021 2:30:00 AM 4.89 40.802 0.276 7.51 0.73 11.53
12/29/2021 2:45:00 AM 4.89 40.802 0.277 7.51 0.6 11.53
12/29/2021 3:00:00 AM 4.89 40.802 0.276 7.5 0.4 11.52
12/29/2021 3:15:00 AM 4.89 40.802 0.276 7.5 0.53 11.51
12/29/2021 3:30:00 AM 4.89 40.802 0.276 7.52 0.87 11.51
12/29/2021 3:45:00 AM 4.89 40.802 0.275 7.52 1.57 11.5
12/29/2021 4:00:00 AM 4.9 40.82 0.275 7.53 0.9 11.5
12/29/2021 4:15:00 AM 4.91 40.838 0.276 7.52 0.84 11.49
12/29/2021 4:30:00 AM 4.92 40.856 0.277 7.52 1.13 11.47
12/29/2021 4:45:00 AM 4.93 40.874 0.277 7.5 0.51 11.47
12/29/2021 5:00:00 AM 4.93 40.874 0.277 7.5 0.89 11.45
12/29/2021 5:15:00 AM 4.94 40.892 0.277 7.51 0.64 11.46
12/29/2021 5:30:00 AM 4.94 40.892 0.25 7.52 1.08 11.46
12/29/2021 5:45:00 AM 4.95 40.91 0.256 7.5 0.58 11.44
12/29/2021 6:00:00 AM 4.95 40.91 0.254 7.5 0.5 11.44
12/29/2021 6:15:00 AM 4.96 40.928 0.254 7.51 0.67 11.44
12/29/2021 6:30:00 AM 4.96 40.928 0.259 7.51 0.4 11.43
12/29/2021 6:45:00 AM 4.97 40.946 0.274 7.51 1.19 11.42
12/29/2021 7:00:00 AM 4.97 40.946 0.274 7.5 0.7 11.43
12/29/2021 7:15:00 AM 4.98 40.964 0.269 7.5 0.86 11.42
12/29/2021 7:30:00 AM 4.98 40.964 0.265 7.51 0.51 11.42
12/29/2021 7:45:00 AM 4.98 40.964 0.251 7.5 0.71 11.43
12/29/2021 8:00:00 AM 4.98 40.964 0.247 7.51 0.34 11.45
12/29/2021 8:15:00 AM 5 41 0.255 7.5 0.64 11.5
12/29/2021 8:30:00 AM 5 41 0.257 7.52 0.4 11.61
12/29/2021 8:45:00 AM 5.02 41.036 0.259 7.52 0.41 11.73
12/29/2021 9:00:00 AM 5.04 41.072 0.258 7.55 0.61 11.82
12/29/2021 9:15:00 AM 5.07 41.126 0.26 7.55 0.38 11.89
12/29/2021 9:30:00 AM 5.1 41.18 0.26 7.56 0.39 12.02
12/29/2021 9:45:00 AM 5.13 41.234 0.261 7.57 0.39 12.2
12/29/2021 10:00:00 AM 5.16 41.288 0.26 7.59 0.54 12.33
12/29/2021 10:15:00 AM 5.2 41.36 0.26 7.61 0.39 12.5
12/29/2021 10:30:00 AM 5.27 41.486 0.259 7.64 0.63 12.72
12/29/2021 10:45:00 AM 5.35 41.63 0.259 7.67 5.06 12.92
12/29/2021 11:00:00 AM 5.4 41.72 0.259 7.7 0.51 13.03
12/29/2021 11:15:00 AM 5.44 41.792 0.26 7.74 0.35 13.1
12/29/2021 11:30:00 AM 5.49 41.882 0.259 7.77 0.16 13.16
12/29/2021 11:45:00 AM 5.55 41.99 0.259 7.79 0.69 13.23
12/29/2021 12:00:00 PM 5.62 42.116 0.262 7.81 0.19 13.3
12/29/2021 12:15:00 PM 5.73 42.314 0.26 7.85 0.4 13.37
12/29/2021 12:30:00 PM 5.81 42.458 0.263 7.86 1.33 13.4
12/29/2021 12:45:00 PM 5.86 42.548 0.262 7.89 2.03 13.39
12/29/2021 1:00:00 PM 5.88 42.584 0.26 7.9 0.31 13.39
12/29/2021 1:15:00 PM 5.97 42.746 0.26 7.92 0.2 13.39
12/29/2021 1:30:00 PM 6.01 42.818 0.26 7.94 0.78 13.4
12/29/2021 1:45:00 PM 5.99 42.782 0.261 7.96 0.23 13.38
12/29/2021 2:00:00 PM 5.99 42.782 0.262 7.97 0.36 13.33
12/29/2021 2:15:00 PM 6.01 42.818 0.262 7.97 0.3 13.29
12/29/2021 2:30:00 PM 6.02 42.836 0.262 8 0.32 13.27
12/29/2021 2:45:00 PM 6 42.8 0.262 8.07 0.42 13.22
12/29/2021 3:00:00 PM 5.99 42.782 0.261 8.1 0.66 13.15
12/29/2021 3:15:00 PM 5.99 42.782 0.261 8.1 0.31 13.12
12/29/2021 3:30:00 PM 6 42.8 0.261 8.08 0.49 13.1
12/29/2021 3:45:00 PM 5.99 42.782 0.261 8.05 0.2 13.03
12/29/2021 4:00:00 PM 5.98 42.764 0.249 8.05 0.28 12.92
12/29/2021 4:15:00 PM 5.96 42.728 0.251 8.07 0.68 12.77
12/29/2021 4:30:00 PM 5.96 42.728 0.256 8.03 0.49 12.58
12/29/2021 4:45:00 PM 5.94 42.692 0.242 7.98 0.37 12.36
12/29/2021 5:00:00 PM 5.93 42.674 0.256 7.93 0.89 12.17
12/29/2021 5:15:00 PM 5.91 42.638 0.242 7.88 0.77 12
12/29/2021 5:30:00 PM 5.89 42.602 0.26 7.84 0.51 11.86
12/29/2021 5:45:00 PM 5.87 42.566 0.244 7.81 0.38 11.77
12/29/2021 6:00:00 PM 5.86 42.548 0.242 7.51 0.62 11.67
12/29/2021 6:15:00 PM 5.83 42.494 0.239 7.73 0.66 11.61
12/29/2021 6:30:00 PM 5.81 42.458 0.24 7.71 1.07 11.57
12/29/2021 6:45:00 PM 5.82 42.476 0.241 7.7 0.44 11.53
12/29/2021 7:00:00 PM 5.81 42.458 0.242 7.69 0.18 11.49
12/29/2021 7:15:00 PM 5.8 42.44 0.274 7.67 0.24 11.45
12/29/2021 7:30:00 PM 5.78 42.404 0.27 7.67 0.49 11.43
12/29/2021 7:45:00 PM 5.78 42.404 0.253 7.64 1.04 11.42
12/29/2021 8:00:00 PM 5.77 42.386 0.259 7.64 0.52 11.39
12/29/2021 8:15:00 PM 5.75 42.35 0.254 7.63 0.7 11.39
12/29/2021 8:30:00 PM 5.74 42.332 0.253 7.62 0.62 11.38
12/29/2021 8:45:00 PM 5.74 42.332 0.246 7.61 0.43 11.36
12/29/2021 9:00:00 PM 5.72 42.296 0.248 7.6 0.66 11.36
12/29/2021 9:15:00 PM 5.73 42.314 0.248 7.6 1.16 11.35
12/29/2021 9:30:00 PM 5.73 42.314 0.242 7.59 0.95 11.33
12/29/2021 9:45:00 PM 5.75 42.35 0.242 7.58 1.14 11.31
12/29/2021 10:00:00 PM 5.75 42.35 0.243 7.58 1.07 11.3
12/29/2021 10:15:00 PM 5.77 42.386 0.244 7.58 0.57 11.3
12/29/2021 10:30:00 PM 5.77 42.386 0.237 7.58 0.79 11.29
12/29/2021 10:45:00 PM 5.78 42.404 0.249 7.57 0.39 11.28
12/29/2021 11:00:00 PM 5.78 42.404 0.249 7.56 0.79 11.28
12/29/2021 11:15:00 PM 5.79 42.422 0.252 7.56 0.84 11.25
12/29/2021 11:30:00 PM 5.81 42.458 0.25 7.55 0.68 11.25
12/29/2021 11:45:00 PM 5.84 42.512 0.239 7.55 0.64 11.23
12/30/2021 12:00:00 AM 5.85 42.53 0.247 7.56 0.81 11.23
12/30/2021 12:15:00 AM 5.87 42.566 0.265 7.56 0.57 11.21
12/30/2021 12:30:00 AM 5.89 42.602 0.264 7.55 0.99 11.2
12/30/2021 12:45:00 AM 5.89 42.602 0.268 7.54 0.75 11.21
12/30/2021 1:00:00 AM 5.9 42.62 0.267 7.54 2.62 11.18
12/30/2021 1:15:00 AM 5.9 42.62 0.233 7.55 0.33 11.19
12/30/2021 1:30:00 AM 5.92 42.656 0.261 7.54 0.83 11.19
12/30/2021 1:45:00 AM 5.93 42.674 0.265 7.54 1.52 11.18
12/30/2021 2:00:00 AM 5.94 42.692 0.266 7.52 0.96 11.18
12/30/2021 2:15:00 AM 5.95 42.71 0.268 7.53 0.86 11.16
12/30/2021 2:30:00 AM 5.95 42.71 0.269 7.53 0.81 11.15
12/30/2021 2:45:00 AM 5.98 42.764 0.27 7.52 0.59 11.13
12/30/2021 3:00:00 AM 5.99 42.782 0.269 7.51 0.71 11.12
12/30/2021 3:15:00 AM 5.99 42.782 0.269 7.51 0.76 11.11
12/30/2021 3:30:00 AM 5.98 42.764 0.269 7.5 1 11.1
12/30/2021 3:45:00 AM 5.98 42.764 0.269 7.49 0.87 11.1
12/30/2021 4:00:00 AM 5.99 42.782 0.269 7.5 1.38 11.09
12/30/2021 4:15:00 AM 6 42.8 0.27 7.5 1.99 11.09
12/30/2021 4:30:00 AM 6.02 42.836 0.271 7.49 1.28 11.06
12/30/2021 4:45:00 AM 6.01 42.818 0.271 7.5 1.36 11.06
12/30/2021 5:00:00 AM 6.02 42.836 0.271 7.5 1.74 11.05
12/30/2021 5:15:00 AM 6.04 42.872 0.27 7.5 1.41 11.06
12/30/2021 5:30:00 AM 6.02 42.836 0.27 7.5 1.01 11.05
12/30/2021 5:45:00 AM 6.03 42.854 0.27 7.49 1.13 11.04
12/30/2021 6:00:00 AM 6.01 42.818 0.269 7.5 0.5 11.04
12/30/2021 6:15:00 AM 6.02 42.836 0.27 7.48 0.88 11.03
12/30/2021 6:30:00 AM 6.05 42.89 0.271 7.48 0.73 11.01
12/30/2021 6:45:00 AM 6.05 42.89 0.267 7.48 1.49 11.02
12/30/2021 7:00:00 AM 6.06 42.908 0.271 7.47 0.83 11.02
12/30/2021 7:15:00 AM 6.08 42.944 0.272 7.47 1.36 11.02
12/30/2021 7:30:00 AM 6.06 42.908 0.271 7.47 1.73 11.03
12/30/2021 7:45:00 AM 6.05 42.89 0.27 7.47 0.8 11.01
12/30/2021 8:00:00 AM 6.06 42.908 0.27 7.47 0.7 11.08
12/30/2021 8:15:00 AM 6.07 42.926 0.27 7.49 1.15 11.12
12/30/2021 8:30:00 AM 6.08 42.944 0.27 7.49 1.08 11.18
12/30/2021 8:45:00 AM 6.11 42.998 0.271 7.5 0.88 11.31
12/30/2021 9:00:00 AM 6.13 43.034 0.271 7.5 0.93 11.43
12/30/2021 9:15:00 AM 6.14 43.052 0.27 7.52 0.72 11.52
12/30/2021 9:30:00 AM 6.17 43.106 0.27 7.54 5.67 11.61
12/30/2021 9:45:00 AM 6.19 43.142 0.269 7.55 1.4 11.7
12/30/2021 10:00:00 AM 6.21 43.178 0.268 7.56 1.21 11.73
12/30/2021 10:15:00 AM 6.22 43.196 0.268 7.56 0.88 11.79
12/30/2021 10:30:00 AM 6.25 43.25 0.267 7.57 2.52 11.93
12/30/2021 10:45:00 AM 6.29 43.322 0.267 7.59 0.95 12.08
12/30/2021 11:00:00 AM 6.33 43.394 0.267 7.61 1.45 12.25
12/30/2021 11:15:00 AM 6.38 43.484 0.266 7.62 0.86 12.4
12/30/2021 11:30:00 AM 6.47 43.646 0.267 7.66 0.93 12.56
12/30/2021 11:45:00 AM 6.54 43.772 0.267 7.69 1.11 12.62
12/30/2021 12:00:00 PM 6.58 43.844 0.267 7.71 0.61 12.66
12/30/2021 12:15:00 PM 6.61 43.898 0.266 7.73 1.33 12.69
12/30/2021 12:30:00 PM 6.65 43.97 0.266 7.75 0.97 12.68
12/30/2021 12:45:00 PM 6.69 44.042 0.265 7.77 1.15 12.7
12/30/2021 1:00:00 PM 6.7 44.06 0.265 7.78 0.73 12.71
12/30/2021 1:15:00 PM 6.74 44.132 0.265 7.8 0.92 12.7
12/30/2021 1:30:00 PM 6.78 44.204 0.265 7.82 1.02 12.65
12/30/2021 1:45:00 PM 6.79 44.222 0.266 7.82 0.71 12.62
12/30/2021 2:00:00 PM 6.82 44.276 0.266 7.82 1.29 12.52
12/30/2021 2:15:00 PM 6.83 44.294 0.266 7.81 1.2 12.41
12/30/2021 2:30:00 PM 6.84 44.312 0.266 7.8 0.93 12.29
12/30/2021 2:45:00 PM 6.82 44.276 0.266 7.79 0.98 12.16
12/30/2021 3:00:00 PM 6.8 44.24 0.265 7.76 1.86 12
12/30/2021 3:15:00 PM 6.8 44.24 0.265 7.74 3.87 11.93
12/30/2021 3:30:00 PM 6.82 44.276 0.265 7.73 2.15 11.97
12/30/2021 3:45:00 PM 6.85 44.33 0.266 7.73 1.22 12
12/30/2021 4:00:00 PM 6.88 44.384 0.266 7.73 1.25 11.97
12/30/2021 4:15:00 PM 6.89 44.402 0.266 7.72 1.21 11.89
12/30/2021 4:30:00 PM 6.87 44.366 0.266 7.71 1.73 11.79
12/30/2021 4:45:00 PM 6.89 44.402 0.265 7.69 1.2 11.66
12/30/2021 5:00:00 PM 6.87 44.366 0.265 7.67 1.5 11.53
12/30/2021 5:15:00 PM 6.85 44.33 0.255 7.65 2.23 11.4
12/30/2021 5:30:00 PM 6.81 44.258 0.245 7.64 1.43 11.33
12/30/2021 5:45:00 PM 6.8 44.24 0.246 7.62 1.07 11.26
12/30/2021 6:00:00 PM 6.77 44.186 0.254 7.61 1.16 11.19
12/30/2021 6:15:00 PM 6.78 44.204 0.236 7.58 1.36 11.16
12/30/2021 6:30:00 PM 6.77 44.186 0.239 7.58 1.58 11.13
12/30/2021 6:45:00 PM 6.78 44.204 0.239 7.56 1.49 11.09
12/30/2021 7:00:00 PM 6.79 44.222 0.243 7.56 1.17 11.04
12/30/2021 7:15:00 PM 6.78 44.204 0.253 7.54 1 11.04
12/30/2021 7:30:00 PM 6.79 44.222 0.234 7.55 1.12 11.02
12/30/2021 7:45:00 PM 6.79 44.222 0.241 7.54 1.36 11.01
12/30/2021 8:00:00 PM 6.82 44.276 0.24 7.53 0.96 11
12/30/2021 8:15:00 PM 6.81 44.258 0.238 7.52 1.04 10.97
12/30/2021 8:30:00 PM 6.79 44.222 0.234 7.52 2.16 10.98
12/30/2021 8:45:00 PM 6.8 44.24 0.254 7.51 0.84 10.96
12/30/2021 9:00:00 PM 6.81 44.258 0.254 7.51 1.43 10.96
12/30/2021 9:15:00 PM 6.84 44.312 0.253 7.5 1.43 10.93
12/30/2021 9:30:00 PM 6.82 44.276 0.254 7.51 1.21 10.92
12/30/2021 9:45:00 PM 6.84 44.312 0.251 7.49 1.74 10.91
12/30/2021 10:00:00 PM 6.84 44.312 0.246 7.5 0.94 10.91
12/30/2021 10:15:00 PM 6.86 44.348 0.246 7.5 1.49 10.9
12/30/2021 10:30:00 PM 6.85 44.33 0.246 7.5 1.13 10.88
12/30/2021 10:45:00 PM 6.82 44.276 0.246 7.5 1.49 10.9
12/30/2021 11:00:00 PM 6.85 44.33 0.246 7.5 1.35 10.88
12/30/2021 11:15:00 PM 6.86 44.348 0.245 7.5 1.48 10.86
12/30/2021 11:30:00 PM 6.87 44.366 0.246 7.49 1.38 10.85
12/30/2021 11:45:00 PM 6.87 44.366 0.247 7.49 1.07 10.87
12/31/2021 12:00:00 AM 6.87 44.366 0.248 7.49 1.03 10.85
12/31/2021 12:15:00 AM 6.9 44.42 0.247 7.48 1.36 10.83
12/31/2021 12:30:00 AM 6.9 44.42 0.247 7.48 1.3 10.84
12/31/2021 12:45:00 AM 6.9 44.42 0.247 7.47 1.48 10.82
12/31/2021 1:00:00 AM 6.89 44.402 0.247 7.47 1.01 10.82
12/31/2021 1:15:00 AM 6.87 44.366 0.246 7.47 2.11 10.83
12/31/2021 1:30:00 AM 6.88 44.384 0.247 7.47 1.11 10.82
12/31/2021 1:45:00 AM 6.85 44.33 0.261 7.46 1.48 10.8
12/31/2021 2:00:00 AM 6.84 44.312 0.226 7.46 1.06 10.8
12/31/2021 2:15:00 AM 6.82 44.276 0.261 7.45 1.3 10.78
12/31/2021 2:30:00 AM 6.78 44.204 0.259 7.45 2.55 10.8
12/31/2021 2:45:00 AM 6.8 44.24 0.262 7.44 1.34 10.78
12/31/2021 3:00:00 AM 6.74 44.132 0.258 7.44 1.58 10.79
12/31/2021 3:15:00 AM 6.73 44.114 0.259 7.44 1.28 10.78
12/31/2021 3:30:00 AM 6.72 44.096 0.252 7.43 2.95 10.79
12/31/2021 3:45:00 AM 6.69 44.042 0.258 7.44 1.37 10.8
12/31/2021 4:00:00 AM 6.7 44.06 0.259 7.45 1.58 10.78
12/31/2021 4:15:00 AM 6.7 44.06 0.259 7.43 1.37 10.77
12/31/2021 4:30:00 AM 6.69 44.042 0.261 7.43 1.33 10.77
12/31/2021 4:45:00 AM 6.71 44.078 0.251 7.43 1.66 10.76
12/31/2021 5:00:00 AM 6.73 44.114 0.252 7.43 1.21 10.77
12/31/2021 5:15:00 AM 6.72 44.096 0.25 7.43 1.42 10.77
12/31/2021 5:30:00 AM 6.71 44.078 0.249 7.42 1.05 10.77
12/31/2021 5:45:00 AM 6.71 44.078 0.249 7.42 1.51 10.77
12/31/2021 6:00:00 AM 6.7 44.06 0.249 7.42 2.05 10.76
12/31/2021 6:15:00 AM 6.68 44.024 0.249 7.43 1.75 10.77
12/31/2021 6:30:00 AM 6.68 44.024 0.228 7.42 1.33 10.78
12/31/2021 6:45:00 AM 6.73 44.114 0.232 7.42 0.98 10.76
12/31/2021 7:00:00 AM 6.74 44.132 0.248 7.43 1.12 10.75
12/31/2021 7:15:00 AM 6.73 44.114 0.25 7.44 1.59 10.74
12/31/2021 7:30:00 AM 6.74 44.132 0.251 7.44 2.63 10.77
12/31/2021 7:45:00 AM 6.74 44.132 0.252 7.43 1.55 10.77
12/31/2021 8:00:00 AM 6.72 44.096 0.253 7.43 1.08 10.79
12/31/2021 8:15:00 AM 6.73 44.114 0.252 7.43 1.94 10.83
12/31/2021 8:30:00 AM 6.74 44.132 0.252 7.44 0.99 10.89
12/31/2021 8:45:00 AM 6.73 44.114 0.252 7.44 0.86 10.97
12/31/2021 9:00:00 AM 6.75 44.15 0.252 7.45 0.91 11.1
12/31/2021 9:15:00 AM 6.81 44.258 0.253 7.45 0.84 11.21
12/31/2021 9:30:00 AM 6.8 44.24 0.253 7.46 1.12 11.32
12/31/2021 9:45:00 AM 6.88 44.384 0.253 7.48 0.99 11.39
12/31/2021 10:00:00 AM 6.88 44.384 0.253 7.48 1.69 11.46
12/31/2021 10:15:00 AM 6.9 44.42 0.253 7.5 1.29 11.53
12/31/2021 10:30:00 AM 6.93 44.474 0.252 7.51 1.57 11.57
12/31/2021 10:45:00 AM 6.94 44.492 0.251 7.52 2.18 11.55
12/31/2021 11:00:00 AM 6.94 44.492 0.251 7.53 1.57 11.58
12/31/2021 11:15:00 AM 6.94 44.492 0.251 7.54 0.93 11.6
12/31/2021 11:30:00 AM 6.97 44.546 0.252 7.55 0.74 11.7
12/31/2021 11:45:00 AM 7.02 44.636 0.252 7.56 1.11 11.82
12/31/2021 12:00:00 PM 7.05 44.69 0.252 7.58 1.18 11.87
12/31/2021 12:15:00 PM 7.08 44.744 0.252 7.59 0.94 11.96
12/31/2021 12:30:00 PM 7.12 44.816 0.251 7.6 0.91 11.99
12/31/2021 12:45:00 PM 7.13 44.834 0.251 7.62 0.9 12.05
12/31/2021 1:00:00 PM 7.15 44.87 0.25 7.63 0.64 12.12
12/31/2021 1:15:00 PM 7.21 44.978 0.25 7.65 0.76 12.21
12/31/2021 1:30:00 PM 7.22 44.996 0.252 7.67 1.06 12.28
12/31/2021 1:45:00 PM 7.31 45.158 0.251 7.69 1.14 12.44
12/31/2021 2:00:00 PM 7.39 45.302 0.251 7.72 0.55 12.45
12/31/2021 2:15:00 PM 7.43 45.374 0.252 7.74 1.25 12.46
12/31/2021 2:30:00 PM 7.43 45.374 0.252 7.75 0.88 12.47
12/31/2021 2:45:00 PM 7.47 45.446 0.25 7.76 1.12 12.43
12/31/2021 3:00:00 PM 7.49 45.482 0.25 7.76 1.31 12.34
12/31/2021 3:15:00 PM 7.45 45.41 0.25 7.76 0.74 12.31
12/31/2021 3:30:00 PM 7.45 45.41 0.25 7.76 1.95 12.29
12/31/2021 3:45:00 PM 7.42 45.356 0.249 7.76 0.8 12.29
12/31/2021 4:00:00 PM 7.43 45.374 0.25 7.76 0.39 12.26
12/31/2021 4:15:00 PM 7.41 45.338 0.25 7.76 1.41 12.12
12/31/2021 4:30:00 PM 7.42 45.356 0.25 7.74 1.36 11.92
12/31/2021 4:45:00 PM 7.4 45.32 0.25 7.73 0.47 11.7
12/31/2021 5:00:00 PM 7.4 45.32 0.247 7.7 0.71 11.51
12/31/2021 5:15:00 PM 7.37 45.266 0.254 7.67 0.58 11.34
12/31/2021 5:30:00 PM 7.34 45.212 0.248 7.64 1.56 11.22
12/31/2021 5:45:00 PM 7.34 45.212 0.248 7.6 0.86 11.13
12/31/2021 6:00:00 PM 7.27 45.086 0.254 7.6 0.57 11.05
12/31/2021 6:15:00 PM 7.25 45.05 0.263 7.58 0.7 11.01
12/31/2021 6:30:00 PM 7.27 45.086 0.263 7.57 0.82 10.95
12/31/2021 6:45:00 PM 7.27 45.086 0.264 7.55 0.87 10.93
12/31/2021 7:00:00 PM 7.3 45.14 0.265 7.54 0.8 10.88
12/31/2021 7:15:00 PM 7.31 45.158 0.265 7.53 1.23 10.87
12/31/2021 7:30:00 PM 7.3 45.14 0.265 7.52 0.55 10.84
12/31/2021 7:45:00 PM 7.33 45.194 0.265 7.51 1.76 10.81
12/31/2021 8:00:00 PM 7.32 45.176 0.265 7.5 0.79 10.8
12/31/2021 8:15:00 PM 7.35 45.23 0.265 7.5 0.68 10.77
12/31/2021 8:30:00 PM 7.3 45.14 0.264 7.5 0.68 10.77
12/31/2021 8:45:00 PM 7.27 45.086 0.243 7.49 0.75 10.77
12/31/2021 9:00:00 PM 7.34 45.212 0.256 7.48 0.76 10.74
12/31/2021 9:15:00 PM 7.3 45.14 0.256 7.49 1.33 10.74
12/31/2021 9:30:00 PM 7.34 45.212 0.252 7.47 1.01 10.72
12/31/2021 9:45:00 PM 7.34 45.212 0.25 7.48 0.6 10.72
12/31/2021 10:00:00 PM 7.36 45.248 0.247 7.46 1.11 10.71
12/31/2021 10:15:00 PM 7.36 45.248 0.242 7.47 0.99 10.69
12/31/2021 10:30:00 PM 7.33 45.194 0.243 7.47 0.47 10.71
12/31/2021 10:45:00 PM 7.31 45.158 0.247 7.47 0.97 10.69
12/31/2021 11:00:00 PM 7.3 45.14 0.251 7.48 0.67 10.7
12/31/2021 11:15:00 PM 7.31 45.158 0.259 7.46 0.96 10.69
12/31/2021 11:30:00 PM 7.32 45.176 0.261 7.47 0.9 10.67
12/31/2021 11:45:00 PM 7.34 45.212 0.26 7.46 1.07 10.66
1/1/2022 12:00:00 AM 7.34 45.212 0.26 7.48 0.9 10.66
1/1/2022 12:15:00 AM 7.39 45.302 0.26 7.46 1.12 10.64
1/1/2022 12:30:00 AM 7.41 45.338 0.262 7.46 0.98 10.64
1/1/2022 12:45:00 AM 7.39 45.302 0.263 7.46 1.2 10.63
1/1/2022 1:00:00 AM 7.4 45.32 0.262 7.45 0.87 10.63
1/1/2022 1:15:00 AM 7.38 45.284 0.239 7.45 1.6 10.63
1/1/2022 1:30:00 AM 7.37 45.266 0.248 7.45 1.4 10.62
1/1/2022 1:45:00 AM 7.38 45.284 0.251 7.45 1.68 10.62
1/1/2022 2:00:00 AM 7.39 45.302 0.251 7.45 1.13 10.6
1/1/2022 2:15:00 AM 7.43 45.374 0.25 7.44 0.92 10.59
1/1/2022 2:30:00 AM 7.41 45.338 0.252 7.45 1.04 10.59
1/1/2022 2:45:00 AM 7.44 45.392 0.25 7.46 1.9 10.58
1/1/2022 3:00:00 AM 7.43 45.374 0.25 7.45 0.73 10.58
1/1/2022 3:15:00 AM 7.41 45.338 0.249 7.45 3.37 10.58
1/1/2022 3:30:00 AM 7.42 45.356 0.249 7.45 1.47 10.58
1/1/2022 3:45:00 AM 7.42 45.356 0.249 7.45 1.3 10.57
1/1/2022 4:00:00 AM 7.4 45.32 0.247 7.44 1.27 10.57
1/1/2022 4:15:00 AM 7.38 45.284 0.266 7.44 1.32 10.56
1/1/2022 4:30:00 AM 7.41 45.338 0.267 7.45 0.97 10.54
1/1/2022 4:45:00 AM 7.41 45.338 0.239 7.44 1.22 10.54
1/1/2022 5:00:00 AM 7.44 45.392 0.239 7.43 0.92 10.52
1/1/2022 5:15:00 AM 7.45 45.41 0.241 7.44 0.96 10.52
1/1/2022 5:30:00 AM 7.47 45.446 0.241 7.44 2.06 10.51
1/1/2022 5:45:00 AM 7.45 45.41 0.244 7.43 1.15 10.51
1/1/2022 6:00:00 AM 7.42 45.356 0.244 7.43 1.73 10.51
1/1/2022 6:15:00 AM 7.44 45.392 0.244 7.44 1.54 10.5
1/1/2022 6:30:00 AM 7.41 45.338 0.243 7.43 1.28 10.5
1/1/2022 6:45:00 AM 7.41 45.338 0.244 7.43 1.89 10.51
1/1/2022 7:00:00 AM 7.47 45.446 0.244 7.42 2.7 10.49
1/1/2022 7:15:00 AM 7.47 45.446 0.244 7.43 1.43 10.48
1/1/2022 7:30:00 AM 7.45 45.41 0.245 7.39 1.66 10.5
1/1/2022 7:45:00 AM 7.44 45.392 0.244 7.43 1.18 10.51
1/1/2022 8:00:00 AM 7.43 45.374 0.241 7.47 1.19 10.52
1/1/2022 8:15:00 AM 7.44 45.392 0.243 7.48 1.03 10.54
1/1/2022 8:30:00 AM 7.43 45.374 0.243 7.48 2.2 10.59
1/1/2022 8:45:00 AM 7.42 45.356 0.244 7.46 0.72 10.64
1/1/2022 9:00:00 AM 7.45 45.41 0.244 7.43 3.43 10.71
1/1/2022 9:15:00 AM 7.46 45.428 0.245 7.42 1.26 10.79
1/1/2022 9:30:00 AM 7.53 45.554 0.245 7.42 0.68 10.85
1/1/2022 9:45:00 AM 7.53 45.554 0.244 7.42 0.95 10.91
1/1/2022 10:00:00 AM 7.53 45.554 0.245 7.41 0.6 11.01
1/1/2022 10:15:00 AM 7.55 45.59 0.245 7.42 1.33 11.13
1/1/2022 10:30:00 AM 7.6 45.68 0.244 7.44 0.92 11.17
1/1/2022 10:45:00 AM 7.57 45.626 0.243 7.44 1.01 11.21
1/1/2022 11:00:00 AM 7.56 45.608 0.243 7.43 0.84 11.21
1/1/2022 11:15:00 AM 7.58 45.644 0.244 7.44 2.1 11.25
1/1/2022 11:30:00 AM 7.6 45.68 0.244 7.44 1.04 11.28
1/1/2022 11:45:00 AM 7.65 45.77 0.245 7.44 0.88 11.32
1/1/2022 12:00:00 PM 7.71 45.878 0.244 7.44 0.72 11.41
1/1/2022 12:15:00 PM 7.69 45.842 0.244 7.45 0.87 11.45
1/1/2022 12:30:00 PM 7.72 45.896 0.245 7.45 1.21 11.55
1/1/2022 12:45:00 PM 7.73 45.914 0.244 7.46 0.52 11.54
1/1/2022 1:00:00 PM 7.77 45.986 0.243 7.47 0.92 11.49
1/1/2022 1:15:00 PM 7.75 45.95 0.245 7.47 0.66 11.5
1/1/2022 1:30:00 PM 7.78 46.004 0.241 7.48 0.88 11.63
1/1/2022 1:45:00 PM 7.86 46.148 0.243 7.49 1.08 11.69
1/1/2022 2:00:00 PM 7.88 46.184 0.244 7.5 0.84 11.61
1/1/2022 2:15:00 PM 7.89 46.202 0.244 7.51 1.34 11.51
1/1/2022 2:30:00 PM 7.91 46.238 0.243 7.5 1.06 11.46
1/1/2022 2:45:00 PM 7.91 46.238 0.242 7.49 0.72 11.35
1/1/2022 3:00:00 PM 7.92 46.256 0.242 7.49 1.17 11.28
1/1/2022 3:15:00 PM 7.9 46.22 0.242 7.48 1.48 11.26
1/1/2022 3:30:00 PM 7.96 46.328 0.242 7.48 0.82 11.19
1/1/2022 3:45:00 PM 7.99 46.382 0.245 7.47 1.19 11.09
1/1/2022 4:00:00 PM 8.03 46.454 0.254 7.46 0.83 10.97
1/1/2022 4:15:00 PM 8.01 46.418 0.258 7.45 0.9 10.89
1/1/2022 4:30:00 PM 8.05 46.49 0.255 7.44 1.56 10.81
1/1/2022 4:45:00 PM 8.03 46.454 0.25 7.43 0.81 10.73
1/1/2022 5:00:00 PM 8.06 46.508 0.249 7.43 1.49 10.68
1/1/2022 5:15:00 PM 8.02 46.436 0.249 7.41 1.46 10.62
1/1/2022 5:30:00 PM 8.02 46.436 0.261 7.4 1.64 10.56
1/1/2022 5:45:00 PM 8.05 46.49 0.259 7.4 1.63 10.52
1/1/2022 6:00:00 PM 8.1 46.58 0.259 7.37 1.37 10.49
1/1/2022 6:15:00 PM 8.12 46.616 0.26 7.38 1.58 10.46
1/1/2022 6:30:00 PM 8.23 46.814 0.26 7.37 1.73 10.42
1/1/2022 6:45:00 PM 8.22 46.796 0.261 7.37 2.18 10.4
1/1/2022 7:00:00 PM 8.25 46.85 0.262 7.37 1.83 10.38
1/1/2022 7:15:00 PM 8.33 46.994 0.262 7.36 3.52 10.37
1/1/2022 7:30:00 PM 8.31 46.958 0.262 7.35 2.44 10.35
1/1/2022 7:45:00 PM 8.3 46.94 0.261 7.36 21.14 10.36
1/1/2022 8:00:00 PM 8.44 47.192 0.261 7.37 8.84 10.35
1/1/2022 8:15:00 PM 8.48 47.264 0.259 7.37 11.73 10.35
1/1/2022 8:30:00 PM 8.5 47.3 0.259 7.37 11.37 10.35
1/1/2022 8:45:00 PM 8.57 47.426 0.258 7.36 16.4 10.32
1/1/2022 9:00:00 PM 8.58 47.444 0.259 7.36 15.11 10.29
1/1/2022 9:15:00 PM 8.54 47.372 0.26 7.35 20.87 10.29
1/1/2022 9:30:00 PM 8.5 47.3 0.265 7.36 22.98 10.26
1/1/2022 9:45:00 PM 8.87 47.966 0.272 7.36 42.35 10.14
1/1/2022 10:00:00 PM 9.01 48.218 0.267 7.35 59.69 10.12
1/1/2022 10:15:00 PM 9.11 48.398 0.252 7.35 74.43 10.1
1/1/2022 10:30:00 PM 9.14 48.452 0.246 7.35 79.11 10.09
1/1/2022 10:45:00 PM 9.15 48.47 0.247 7.34 71.53 10.06
1/1/2022 11:00:00 PM 9.12 48.416 0.249 7.34 64.44 10.08
1/1/2022 11:15:00 PM 9.08 48.344 0.25 7.33 62.07 10.08
1/1/2022 11:30:00 PM 9.1 48.38 0.25 7.33 74.41 10.07
1/1/2022 11:45:00 PM 9.05 48.29 0.25 7.33 56.35 10.08
1/2/2022 12:00:00 AM 9.02 48.236 0.25 7.33 46.97 10.07
1/2/2022 12:15:00 AM 9.06 48.308 0.249 7.33 54.02 10.06
1/2/2022 12:30:00 AM 9.07 48.326 0.248 7.34 70.98 10.05
1/2/2022 12:45:00 AM 9.12 48.416 0.248 7.33 62.76 10.02
1/2/2022 1:00:00 AM 9.16 48.488 0.247 7.33 80.36 10.02
1/2/2022 1:15:00 AM 9.3 48.74 0.247 7.33 90.59 9.96
1/2/2022 1:30:00 AM 9.36 48.848 0.247 7.33 123.7 9.95
1/2/2022 1:45:00 AM 9.38 48.884 0.246 7.31 155 9.92
1/2/2022 2:00:00 AM 9.45 49.01 0.246 7.33 177.7 9.88
1/2/2022 2:15:00 AM 9.49 49.082 0.247 7.36 231.8 9.85
1/2/2022 2:30:00 AM 9.52 49.136 0.247 7.38 252.4 9.84
1/2/2022 2:45:00 AM 9.6 49.28 0.244 7.37 238 9.82
1/2/2022 3:00:00 AM 9.6 49.28 0.241 7.35 261.6 9.81
1/2/2022 3:15:00 AM 9.64 49.352 0.241 7.34 299.2 9.79
1/2/2022 3:30:00 AM 9.64 49.352 0.239 7.32 239.9 9.78
1/2/2022 3:45:00 AM 9.64 49.352 0.237 7.32 247 9.77
1/2/2022 4:00:00 AM 9.66 49.388 0.235 7.3 244 9.76
1/2/2022 4:15:00 AM 9.7 49.46 0.225 7.3 243.5 9.76
1/2/2022 4:30:00 AM 9.68 49.424 0.229 7.29 242.7 9.76
1/2/2022 4:45:00 AM 9.65 49.37 0.228 7.3 235.3 9.74
1/2/2022 5:00:00 AM 9.68 49.424 0.227 7.31 253.4 9.74
1/2/2022 5:15:00 AM 9.64 49.352 0.226 7.31 284.4 9.74
1/2/2022 5:30:00 AM 9.59 49.262 0.225 7.31 281 9.74
1/2/2022 5:45:00 AM 9.63 49.334 0.222 7.3 287.8 9.74
1/2/2022 6:00:00 AM 9.59 49.262 0.219 7.3 262.9 9.75
1/2/2022 6:15:00 AM 9.58 49.244 0.216 7.3 277.9 9.76
1/2/2022 6:30:00 AM 9.52 49.136 0.214 7.29 252.5 9.77
1/2/2022 6:45:00 AM 9.45 49.01 0.213 7.3 250.4 9.77
1/2/2022 7:00:00 AM 9.46 49.028 0.21 7.3 235.4 9.8
1/2/2022 7:15:00 AM 9.36 48.848 0.21 7.29 235.9 9.83
1/2/2022 7:30:00 AM 9.33 48.794 0.209 7.28 240.4 9.84
1/2/2022 7:45:00 AM 9.31 48.758 0.208 7.28 241.4 9.85
1/2/2022 8:00:00 AM 9.27 48.686 0.208 7.27 230.6 9.86
1/2/2022 8:15:00 AM 9.3 48.74 0.206 7.28 230 9.88
1/2/2022 8:30:00 AM 9.27 48.686 0.206 7.28 236.8 9.9
1/2/2022 8:45:00 AM 9.19 48.542 0.206 7.29 226.2 9.94
1/2/2022 9:00:00 AM 9.16 48.488 0.206 7.28 215.8 9.97
1/2/2022 9:15:00 AM 9.15 48.47 0.205 7.28 216.6 10.01
1/2/2022 9:30:00 AM 9.18 48.524 0.204 7.29 198.8 10.02
1/2/2022 9:45:00 AM 9.13 48.434 0.205 7.28 191.9 10.09
1/2/2022 10:00:00 AM 9.13 48.434 0.204 7.3 182 10.15
1/2/2022 10:15:00 AM 9.15 48.47 0.204 7.3 170.7 10.19
1/2/2022 10:30:00 AM 9.16 48.488 0.205 7.3 153.2 10.25
1/2/2022 10:45:00 AM 9.18 48.524 0.205 7.31 156 10.25
1/2/2022 11:00:00 AM 9.24 48.632 0.204 7.32 131.6 10.28
1/2/2022 11:15:00 AM 9.28 48.704 0.203 7.31 127.7 10.3
1/2/2022 11:30:00 AM 9.28 48.704 0.204 7.32 130.9 10.3
1/2/2022 11:45:00 AM 9.24 48.632 0.205 7.32 123.8 10.31
1/2/2022 12:00:00 PM 9.3 48.74 0.206 7.31 131.7 10.33
1/2/2022 12:15:00 PM 9.36 48.848 0.206 7.33 106.6 10.34
1/2/2022 12:30:00 PM 9.39 48.902 0.208 7.31 109.6 10.38
1/2/2022 12:45:00 PM 9.38 48.884 0.21 7.33 106.2 10.38
1/2/2022 1:00:00 PM 9.44 48.992 0.211 7.33 104.5 10.4
1/2/2022 1:15:00 PM 9.53 49.154 0.211 7.34 117.6 10.4
1/2/2022 1:30:00 PM 9.51 49.118 0.213 7.33 105.5 10.43
1/2/2022 1:45:00 PM 9.58 49.244 0.213 7.34 102.2 10.41
1/2/2022 2:00:00 PM 9.57 49.226 0.215 7.33 108.1 10.42
1/2/2022 2:15:00 PM 9.57 49.226 0.216 7.35 108.4 10.41
1/2/2022 2:30:00 PM 9.57 49.226 0.216 7.33 108.4 10.39
1/2/2022 2:45:00 PM 9.52 49.136 0.218 7.34 99.58 10.37
1/2/2022 3:00:00 PM 9.5 49.1 0.219 7.34 103.8 10.33
1/2/2022 3:15:00 PM 9.51 49.118 0.22 7.34 99.8 10.29
1/2/2022 3:30:00 PM 9.5 49.1 0.221 7.34 99.21 10.23
1/2/2022 3:45:00 PM 9.48 49.064 0.222 7.33 90.57 10.18
1/2/2022 4:00:00 PM 9.42 48.956 0.223 7.33 96 10.15
1/2/2022 4:15:00 PM 9.4 48.92 0.224 7.33 82.17 10.12
1/2/2022 4:30:00 PM 9.46 49.028 0.223 7.31 78.35 10.09
1/2/2022 4:45:00 PM 9.33 48.794 0.225 7.31 79.16 10.08
1/2/2022 5:00:00 PM 9.32 48.776 0.225 7.31 74.57 10.07
1/2/2022 5:15:00 PM 9.3 48.74 0.225 7.31 77.01 10.09
1/2/2022 5:30:00 PM 9.27 48.686 0.226 7.31 66.28 10.07
1/2/2022 5:45:00 PM 9.18 48.524 0.228 7.31 69.22 10.07
1/2/2022 6:00:00 PM 9.18 48.524 0.228 7.31 60.02 10.07
1/2/2022 6:15:00 PM 9.25 48.65 0.228 7.3 61.37 10.06
1/2/2022 6:30:00 PM 9.15 48.47 0.23 7.31 55.45 10.08
1/2/2022 6:45:00 PM 9.09 48.362 0.231 7.31 54.47 10.08
1/2/2022 7:00:00 PM 9.07 48.326 0.232 7.31 52.31 10.08
1/2/2022 7:15:00 PM 9.05 48.29 0.232 7.31 50.25 10.08
1/2/2022 7:30:00 PM 9.02 48.236 0.233 7.31 43.95 10.11
1/2/2022 7:45:00 PM 9.01 48.218 0.233 7.31 41.93 10.11
1/2/2022 8:00:00 PM 8.89 48.002 0.234 7.31 39.36 10.13
1/2/2022 8:15:00 PM 8.88 47.984 0.235 7.32 40.28 10.14
1/2/2022 8:30:00 PM 8.86 47.948 0.236 7.32 42.59 10.15
1/2/2022 8:45:00 PM 8.81 47.858 0.237 7.31 35.05 10.17
1/2/2022 9:00:00 PM 8.75 47.75 0.237 7.32 34.09 10.18
1/2/2022 9:15:00 PM 8.75 47.75 0.237 7.32 37.19 10.17
1/2/2022 9:30:00 PM 8.72 47.696 0.237 7.32 34.38 10.19
1/2/2022 9:45:00 PM 8.61 47.498 0.238 7.31 29.99 10.22
1/2/2022 10:00:00 PM 8.55 47.39 0.239 7.32 36.44 10.25
1/2/2022 10:15:00 PM 8.49 47.282 0.239 7.32 32.88 10.24
1/2/2022 10:30:00 PM 8.49 47.282 0.239 7.32 32.87 10.24
1/2/2022 10:45:00 PM 8.46 47.228 0.24 7.31 26.02 10.25
1/2/2022 11:00:00 PM 8.35 47.03 0.241 7.32 30.32 10.26
1/2/2022 11:15:00 PM 8.4 47.12 0.241 7.32 30.05 10.27
1/2/2022 11:30:00 PM 8.31 46.958 0.242 7.3 25.43 10.29
1/2/2022 11:45:00 PM 8.27 46.886 0.242 7.32 27.01 10.31
1/3/2022 12:00:00 AM 8.27 46.886 0.242 7.32 25.46 10.3
1/3/2022 12:15:00 AM 8.16 46.688 0.243 7.32 21.43 10.31
1/3/2022 12:30:00 AM 8.14 46.652 0.243 7.32 29.06 10.34
1/3/2022 12:45:00 AM 8.01 46.418 0.244 7.32 24.36 10.37
1/3/2022 1:00:00 AM 7.99 46.382 0.244 7.32 22.25 10.37
1/3/2022 1:15:00 AM 7.99 46.382 0.245 7.33 22.29 10.38
1/3/2022 1:30:00 AM 8 46.4 0.245 7.32 23.92 10.39
1/3/2022 1:45:00 AM 7.91 46.238 0.246 7.33 25.28 10.41
1/3/2022 2:00:00 AM 7.9 46.22 0.246 7.33 22.07 10.43
1/3/2022 2:15:00 AM 7.84 46.112 0.246 7.33 20.72 10.44
1/3/2022 2:30:00 AM 7.86 46.148 0.246 7.32 18.44 10.43
1/3/2022 2:45:00 AM 7.81 46.058 0.245 7.33 19.36 10.45
1/3/2022 3:00:00 AM 7.75 45.95 0.246 7.33 21.96 10.46
1/3/2022 3:15:00 AM 7.67 45.806 0.246 7.32 18.62 10.48
1/3/2022 3:30:00 AM 7.63 45.734 0.246 7.33 17.86 10.5
1/3/2022 3:45:00 AM 7.61 45.698 0.247 7.33 15.13 10.49
1/3/2022 4:00:00 AM 7.55 45.59 0.247 7.32 16.64 10.52
1/3/2022 4:15:00 AM 7.5 45.5 0.248 7.33 13.45 10.53
1/3/2022 4:30:00 AM 7.47 45.446 0.248 7.33 15.19 10.55
1/3/2022 4:45:00 AM 7.43 45.374 0.248 7.33 14.6 10.56
1/3/2022 5:00:00 AM 7.43 45.374 0.248 7.33 20.99 10.56
1/3/2022 5:15:00 AM 7.36 45.248 0.248 7.33 14.26 10.59
1/3/2022 5:30:00 AM 7.31 45.158 0.249 7.33 13.56 10.61
1/3/2022 5:45:00 AM 7.27 45.086 0.249 7.34 13.69 10.63
1/3/2022 6:00:00 AM 7.26 45.068 0.249 7.35 13.72 10.64
1/3/2022 6:15:00 AM 7.25 45.05 0.249 7.34 13.44 10.64
1/3/2022 6:30:00 AM 7.16 44.888 0.25 7.35 11.86 10.65
1/3/2022 6:45:00 AM 7.1 44.78 0.25 7.35 11.1 10.67
1/3/2022 7:00:00 AM 7.08 44.744 0.25 7.35 14.15 10.69
1/3/2022 7:15:00 AM 7.03 44.654 0.25 7.35 11.47 10.68
1/3/2022 7:30:00 AM 7.01 44.618 0.25 7.34 13.16 10.7
1/3/2022 7:45:00 AM 6.95 44.51 0.25 7.35 13.3 10.72
1/3/2022 8:00:00 AM 6.91 44.438 0.25 7.35 12.53 10.75
1/3/2022 8:15:00 AM 6.88 44.384 0.25 7.35 11.93 10.77
1/3/2022 8:30:00 AM 6.84 44.312 0.251 7.34 11.37 10.8
1/3/2022 8:45:00 AM 6.78 44.204 0.252 7.35 10.03 10.83
1/3/2022 9:00:00 AM 6.76 44.168 0.251 7.35 8.43 10.86
1/3/2022 9:15:00 AM 6.73 44.114 0.251 7.36 8.61 10.89
1/3/2022 9:30:00 AM 6.68 44.024 0.251 7.36 10.68 10.94
1/3/2022 9:45:00 AM 6.62 43.916 0.251 7.37 8.57 11.01
1/3/2022 10:00:00 AM 6.6 43.88 0.251 7.37 10.13 11.06
1/3/2022 10:15:00 AM 6.54 43.772 0.251 7.37 7.5 11.11
1/3/2022 10:30:00 AM 6.46 43.628 0.251 7.37 7.3 11.15
1/3/2022 10:45:00 AM 6.44 43.592 0.236 7.37 7.97 11.17
1/3/2022 11:00:00 AM 6.38 43.484 0.248 7.39 6.58 11.23
1/3/2022 11:15:00 AM 6.34 43.412 0.251 7.38 6.67 11.28
1/3/2022 11:30:00 AM 6.27 43.286 0.252 7.39 11 11.34
1/3/2022 11:45:00 AM 6.26 43.268 0.251 7.39 7.07 11.36
1/3/2022 12:00:00 PM 6.2 43.16 0.252 7.39 6.51 11.4
1/3/2022 12:15:00 PM 6.17 43.106 0.251 7.4 7.89 11.43
1/3/2022 12:30:00 PM 6.12 43.016 0.252 7.4 5.9 11.45
1/3/2022 12:45:00 PM 6.08 42.944 0.253 7.4 7.92 11.46
1/3/2022 1:00:00 PM 6.05 42.89 0.253 7.41 8.19 11.51
1/3/2022 1:15:00 PM 5.99 42.782 0.254 7.41 6.11 11.58
1/3/2022 1:30:00 PM 5.98 42.764 0.254 7.42 5.43 11.65
1/3/2022 1:45:00 PM 5.95 42.71 0.254 7.43 6.39 11.72
1/3/2022 2:00:00 PM 5.88 42.584 0.255 7.43 5.74 11.79
1/3/2022 2:15:00 PM 5.77 42.386 0.256 7.44 5.78 11.87
1/3/2022 2:30:00 PM 5.75 42.35 0.255 7.44 6.19 11.85
1/3/2022 2:45:00 PM 5.72 42.296 0.254 7.45 7.8 11.84
1/3/2022 3:00:00 PM 5.72 42.296 0.254 7.45 7.72 11.81
1/3/2022 3:15:00 PM 5.69 42.242 0.255 7.46 5.98 11.78
1/3/2022 3:30:00 PM 5.69 42.242 0.255 7.45 6.3 11.76
1/3/2022 3:45:00 PM 5.67 42.206 0.255 7.45 5.86 11.77
1/3/2022 4:00:00 PM 5.62 42.116 0.255 7.46 4.7 11.79
1/3/2022 4:15:00 PM 5.56 42.008 0.256 7.46 3.82 11.74
1/3/2022 4:30:00 PM 5.5 41.9 0.256 7.46 4.3 11.67
1/3/2022 4:45:00 PM 5.46 41.828 0.256 7.44 5.24 11.6
1/3/2022 5:00:00 PM 5.42 41.756 0.255 7.43 6.39 11.53
1/3/2022 5:15:00 PM 5.35 41.63 0.254 7.43 4.96 11.49
1/3/2022 5:30:00 PM 5.29 41.522 0.254 7.41 5.39 11.43
1/3/2022 5:45:00 PM 5.27 41.486 0.256 7.4 5 11.41
1/3/2022 6:00:00 PM 5.22 41.396 0.257 7.4 4.55 11.41
1/3/2022 6:15:00 PM 5.2 41.36 0.257 7.39 4.19 11.41
1/3/2022 6:30:00 PM 5.16 41.288 0.257 7.39 4.85 11.4
1/3/2022 6:45:00 PM 5.13 41.234 0.257 7.39 6.6 11.42
1/3/2022 7:00:00 PM 5.09 41.162 0.257 7.38 7.16 11.42
1/3/2022 7:15:00 PM 5.06 41.108 0.257 7.37 5.76 11.42
1/3/2022 7:30:00 PM 5.03 41.054 0.257 7.37 4.17 11.43
1/3/2022 7:45:00 PM 5 41 0.256 7.37 4.77 11.44
1/3/2022 8:00:00 PM 4.97 40.946 0.256 7.38 4.75 11.45
1/3/2022 8:15:00 PM 4.95 40.91 0.257 7.38 4.29 11.47
1/3/2022 8:30:00 PM 4.91 40.838 0.255 7.37 4.56 11.5
1/3/2022 8:45:00 PM 4.88 40.784 0.251 7.37 6.09 11.53
1/3/2022 9:00:00 PM 4.85 40.73 0.258 7.37 5.65 11.54
1/3/2022 9:15:00 PM 4.83 40.694 0.258 7.38 5.44 11.54
1/3/2022 9:30:00 PM 4.8 40.64 0.257 7.38 4.91 11.56
1/3/2022 9:45:00 PM 4.77 40.586 0.257 7.38 5 11.59
1/3/2022 10:00:00 PM 4.75 40.55 0.257 7.38 3.88 11.58
1/3/2022 10:15:00 PM 4.73 40.514 0.256 7.38 4.48 11.59
1/3/2022 10:30:00 PM 4.7 40.46 0.246 7.38 4.49 11.59
1/3/2022 10:45:00 PM 4.67 40.406 0.245 7.37 4.42 11.62
1/3/2022 11:00:00 PM 4.65 40.37 0.253 7.39 6.76 11.65
1/3/2022 11:15:00 PM 4.62 40.316 0.253 7.38 6 11.67
1/3/2022 11:30:00 PM 4.59 40.262 0.241 7.39 5.58 11.68
1/3/2022 11:45:00 PM 4.57 40.226 0.258 7.4 5.43 11.69
1/4/2022 12:00:00 AM 4.53 40.154 0.257 7.4 4.81 11.71
1/4/2022 12:15:00 AM 4.49 40.082 0.231 7.4 3.73 11.72
1/4/2022 12:30:00 AM 4.49 40.082 0.233 7.4 3.45 11.72
1/4/2022 12:45:00 AM 4.43 39.974 0.247 7.41 4.33 11.73
1/4/2022 1:00:00 AM 4.42 39.956 0.221 7.41 4.92 11.74
1/4/2022 1:15:00 AM 4.4 39.92 0.258 7.41 4.34 11.74
1/4/2022 1:30:00 AM 4.35 39.83 0.258 7.4 3.8 11.77
1/4/2022 1:45:00 AM 4.31 39.758 0.258 7.39 3.98 11.77
1/4/2022 2:00:00 AM 4.28 39.704 0.258 7.4 4.12 11.8
1/4/2022 2:15:00 AM 4.26 39.668 0.258 7.4 3.17 11.82
1/4/2022 2:30:00 AM 4.21 39.578 0.258 7.4 3.42 11.82
1/4/2022 2:45:00 AM 4.19 39.542 0.257 7.39 5.23 11.83
1/4/2022 3:00:00 AM 4.16 39.488 0.257 7.4 4.09 11.82
1/4/2022 3:15:00 AM 4.16 39.488 0.257 7.39 4.05 11.84
1/4/2022 3:30:00 AM 4.13 39.434 0.258 7.39 3.42 11.84
1/4/2022 3:45:00 AM 4.07 39.326 0.258 7.38 4.51 11.87
1/4/2022 4:00:00 AM 4.06 39.308 0.258 7.39 3.64 11.87
1/4/2022 4:15:00 AM 4.02 39.236 0.258 7.38 3.46 11.88
1/4/2022 4:30:00 AM 4.01 39.218 0.258 7.38 3.33 11.89
1/4/2022 4:45:00 AM 3.97 39.146 0.258 7.38 3.76 11.92
1/4/2022 5:00:00 AM 3.95 39.11 0.258 7.39 3.05 11.92
1/4/2022 5:15:00 AM 3.89 39.002 0.258 7.38 3.33 11.93
1/4/2022 5:30:00 AM 3.87 38.966 0.251 7.38 3.3 11.93
1/4/2022 5:45:00 AM 3.88 38.984 0.254 7.39 3.42 11.93
1/4/2022 6:00:00 AM 3.83 38.894 0.233 7.39 2.8 11.94
1/4/2022 6:15:00 AM 3.82 38.876 0.259 7.39 5.18 11.95
1/4/2022 6:30:00 AM 3.76 38.768 0.259 7.38 2.81 11.96
1/4/2022 6:45:00 AM 3.72 38.696 0.258 7.38 3.6 12.01
1/4/2022 7:00:00 AM 3.72 38.696 0.258 7.38 3.66 11.97
1/4/2022 7:15:00 AM 3.64 38.552 0.258 7.38 4.11 12.01
1/4/2022 7:30:00 AM 3.68 38.624 0.257 7.38 2.95 12.02
1/4/2022 7:45:00 AM 3.62 38.516 0.257 7.38 2.69 12.05
1/4/2022 8:00:00 AM 3.63 38.534 0.257 7.38 3.08 12.09
1/4/2022 8:15:00 AM 3.63 38.534 0.257 7.38 2.86 12.15
1/4/2022 8:30:00 AM 3.6 38.48 0.258 7.39 3.31 12.22
1/4/2022 8:45:00 AM 3.58 38.444 0.258 7.39 3.08 12.32
1/4/2022 9:00:00 AM 3.61 38.498 0.258 7.4 3.09 12.41
1/4/2022 9:15:00 AM 3.64 38.552 0.257 7.41 2.88 12.47
1/4/2022 9:30:00 AM 3.67 38.606